<?xml version="1.0" encoding="UTF-8" standalone="no" ?>
<gpx xmlns="http://www.topografix.com/GPX/1/1" xmlns:xsi="http://www.w3.org/2001/XMLSchema-instance" xsi:schemaLocation="http://www.topografix.com/GPX/1/1 http://www.topografix.com/GPX/1/1/gpx.xsd" version="1.1" creator="VisuGPX - https://www.visugpx.com">
  <metadata>
    <name>arleux</name>
    <desc><![CDATA[circuit des étangs]]></desc>
  </metadata>
  <trk>
    <name><![CDATA[Tracé actuel: 28 SEPT 2015 18:33]]></name>
    <trkseg>
      <trkpt lat="50.36699" lon="3.0994">
        <ele>27.53</ele>
        <time>2015-09-28T16:33:50Z</time>
      </trkpt>
      <trkpt lat="50.36701" lon="3.09949">
        <ele>27.05</ele>
        <time>2015-09-28T16:34:12Z</time>
      </trkpt>
      <trkpt lat="50.36699" lon="3.09943">
        <ele>21.77</ele>
        <time>2015-09-28T16:34:38Z</time>
      </trkpt>
      <trkpt lat="50.36703" lon="3.09947">
        <ele>17.44</ele>
        <time>2015-09-28T16:35:06Z</time>
      </trkpt>
      <trkpt lat="50.36706" lon="3.09956">
        <ele>10.23</ele>
        <time>2015-09-28T16:35:38Z</time>
      </trkpt>
      <trkpt lat="50.36706" lon="3.09956">
        <ele>10.71</ele>
        <time>2015-09-28T16:36:06Z</time>
      </trkpt>
      <trkpt lat="50.36708" lon="3.09955">
        <ele>20.81</ele>
        <time>2015-09-28T16:36:31Z</time>
      </trkpt>
      <trkpt lat="50.36702" lon="3.09954">
        <ele>25.13</ele>
        <time>2015-09-28T16:36:57Z</time>
      </trkpt>
      <trkpt lat="50.36702" lon="3.09955">
        <ele>24.65</ele>
        <time>2015-09-28T16:37:25Z</time>
      </trkpt>
      <trkpt lat="50.36709" lon="3.09956">
        <ele>24.17</ele>
        <time>2015-09-28T16:37:54Z</time>
      </trkpt>
      <trkpt lat="50.36695" lon="3.09956">
        <ele>28.5</ele>
        <time>2015-09-28T16:38:24Z</time>
      </trkpt>
      <trkpt lat="50.36695" lon="3.09955">
        <ele>29.46</ele>
        <time>2015-09-28T16:38:52Z</time>
      </trkpt>
      <trkpt lat="50.367" lon="3.09955">
        <ele>28.5</ele>
        <time>2015-09-28T16:39:16Z</time>
      </trkpt>
      <trkpt lat="50.36695" lon="3.09951">
        <ele>26.57</ele>
        <time>2015-09-28T16:39:49Z</time>
      </trkpt>
      <trkpt lat="50.36699" lon="3.09958">
        <ele>23.69</ele>
        <time>2015-09-28T16:40:18Z</time>
      </trkpt>
      <trkpt lat="50.36701" lon="3.09955">
        <ele>27.53</ele>
        <time>2015-09-28T16:40:58Z</time>
      </trkpt>
      <trkpt lat="50.36698" lon="3.09953">
        <ele>28.02</ele>
        <time>2015-09-28T16:41:31Z</time>
      </trkpt>
      <trkpt lat="50.36704" lon="3.09952">
        <ele>28.02</ele>
        <time>2015-09-28T16:42:05Z</time>
      </trkpt>
      <trkpt lat="50.36704" lon="3.09956">
        <ele>23.21</ele>
        <time>2015-09-28T16:42:33Z</time>
      </trkpt>
      <trkpt lat="50.36703" lon="3.09956">
        <ele>22.73</ele>
        <time>2015-09-28T16:42:37Z</time>
      </trkpt>
      <trkpt lat="50.36699" lon="3.09955">
        <ele>22.25</ele>
        <time>2015-09-28T16:45:24Z</time>
      </trkpt>
      <trkpt lat="50.36706" lon="3.09954">
        <ele>17.92</ele>
        <time>2015-09-28T16:45:51Z</time>
      </trkpt>
      <trkpt lat="50.36703" lon="3.09949">
        <ele>16.48</ele>
        <time>2015-09-28T16:46:20Z</time>
      </trkpt>
      <trkpt lat="50.367" lon="3.09946">
        <ele>15.52</ele>
        <time>2015-09-28T16:46:26Z</time>
      </trkpt>
      <trkpt lat="50.31746" lon="3.09298">
        <ele>24.17</ele>
        <time>2015-09-29T06:46:57Z</time>
      </trkpt>
      <trkpt lat="50.31747" lon="3.09303">
        <ele>33.3</ele>
        <time>2015-09-29T06:47:15Z</time>
      </trkpt>
      <trkpt lat="50.31747" lon="3.09301">
        <ele>34.26</ele>
        <time>2015-09-29T06:47:29Z</time>
      </trkpt>
      <trkpt lat="50.31748" lon="3.09302">
        <ele>33.3</ele>
        <time>2015-09-29T06:47:41Z</time>
      </trkpt>
      <trkpt lat="50.31747" lon="3.09301">
        <ele>30.9</ele>
        <time>2015-09-29T06:48:08Z</time>
      </trkpt>
      <trkpt lat="50.31748" lon="3.09301">
        <ele>32.34</ele>
        <time>2015-09-29T06:48:33Z</time>
      </trkpt>
      <trkpt lat="50.31749" lon="3.093">
        <ele>32.34</ele>
        <time>2015-09-29T06:48:56Z</time>
      </trkpt>
      <trkpt lat="50.31748" lon="3.093">
        <ele>33.3</ele>
        <time>2015-09-29T06:49:18Z</time>
      </trkpt>
      <trkpt lat="50.31748" lon="3.09302">
        <ele>33.3</ele>
        <time>2015-09-29T06:49:36Z</time>
      </trkpt>
      <trkpt lat="50.31745" lon="3.093">
        <ele>31.38</ele>
        <time>2015-09-29T06:49:53Z</time>
      </trkpt>
      <trkpt lat="50.31749" lon="3.09302">
        <ele>32.82</ele>
        <time>2015-09-29T06:50:17Z</time>
      </trkpt>
      <trkpt lat="50.31749" lon="3.09304">
        <ele>33.3</ele>
        <time>2015-09-29T06:50:44Z</time>
      </trkpt>
      <trkpt lat="50.31751" lon="3.09304">
        <ele>34.26</ele>
        <time>2015-09-29T06:51:06Z</time>
      </trkpt>
      <trkpt lat="50.3175" lon="3.09302">
        <ele>35.23</ele>
        <time>2015-09-29T06:51:25Z</time>
      </trkpt>
      <trkpt lat="50.31751" lon="3.09302">
        <ele>31.38</ele>
        <time>2015-09-29T06:51:54Z</time>
      </trkpt>
      <trkpt lat="50.3175" lon="3.09302">
        <ele>32.34</ele>
        <time>2015-09-29T06:52:19Z</time>
      </trkpt>
      <trkpt lat="50.31748" lon="3.09299">
        <ele>31.38</ele>
        <time>2015-09-29T06:52:42Z</time>
      </trkpt>
      <trkpt lat="50.31748" lon="3.09299">
        <ele>30.9</ele>
        <time>2015-09-29T06:53:05Z</time>
      </trkpt>
      <trkpt lat="50.31745" lon="3.09297">
        <ele>29.94</ele>
        <time>2015-09-29T06:53:27Z</time>
      </trkpt>
      <trkpt lat="50.31745" lon="3.09298">
        <ele>30.9</ele>
        <time>2015-09-29T06:53:49Z</time>
      </trkpt>
      <trkpt lat="50.31744" lon="3.093">
        <ele>32.82</ele>
        <time>2015-09-29T06:54:05Z</time>
      </trkpt>
      <trkpt lat="50.31745" lon="3.093">
        <ele>34.26</ele>
        <time>2015-09-29T06:54:18Z</time>
      </trkpt>
      <trkpt lat="50.31744" lon="3.09299">
        <ele>31.38</ele>
        <time>2015-09-29T06:54:37Z</time>
      </trkpt>
      <trkpt lat="50.31744" lon="3.093">
        <ele>29.94</ele>
        <time>2015-09-29T06:55:02Z</time>
      </trkpt>
      <trkpt lat="50.31743" lon="3.09304">
        <ele>29.94</ele>
        <time>2015-09-29T06:55:15Z</time>
      </trkpt>
      <trkpt lat="50.3174" lon="3.09305">
        <ele>32.34</ele>
        <time>2015-09-29T06:55:36Z</time>
      </trkpt>
      <trkpt lat="50.31736" lon="3.09305">
        <ele>31.38</ele>
        <time>2015-09-29T06:55:59Z</time>
      </trkpt>
      <trkpt lat="50.31739" lon="3.09305">
        <ele>31.38</ele>
        <time>2015-09-29T06:56:22Z</time>
      </trkpt>
      <trkpt lat="50.31742" lon="3.09304">
        <ele>33.3</ele>
        <time>2015-09-29T06:56:51Z</time>
      </trkpt>
      <trkpt lat="50.31749" lon="3.09309">
        <ele>33.3</ele>
        <time>2015-09-29T06:57:12Z</time>
      </trkpt>
      <trkpt lat="50.31751" lon="3.09312">
        <ele>33.3</ele>
        <time>2015-09-29T06:57:16Z</time>
      </trkpt>
      <trkpt lat="50.31743" lon="3.09326">
        <ele>33.78</ele>
        <time>2015-09-29T06:57:28Z</time>
      </trkpt>
      <trkpt lat="50.31739" lon="3.09334">
        <ele>34.26</ele>
        <time>2015-09-29T06:57:34Z</time>
      </trkpt>
      <trkpt lat="50.31738" lon="3.09337">
        <ele>34.26</ele>
        <time>2015-09-29T06:57:36Z</time>
      </trkpt>
      <trkpt lat="50.31715" lon="3.09359">
        <ele>31.38</ele>
        <time>2015-09-29T06:57:53Z</time>
      </trkpt>
      <trkpt lat="50.31698" lon="3.09375">
        <ele>28.5</ele>
        <time>2015-09-29T06:58:08Z</time>
      </trkpt>
      <trkpt lat="50.31673" lon="3.09373">
        <ele>28.02</ele>
        <time>2015-09-29T06:58:26Z</time>
      </trkpt>
      <trkpt lat="50.31666" lon="3.09375">
        <ele>28.5</ele>
        <time>2015-09-29T06:58:32Z</time>
      </trkpt>
      <trkpt lat="50.31653" lon="3.0941">
        <ele>34.74</ele>
        <time>2015-09-29T06:58:50Z</time>
      </trkpt>
      <trkpt lat="50.31645" lon="3.09424">
        <ele>36.67</ele>
        <time>2015-09-29T06:59:00Z</time>
      </trkpt>
      <trkpt lat="50.31638" lon="3.09429">
        <ele>37.15</ele>
        <time>2015-09-29T06:59:05Z</time>
      </trkpt>
      <trkpt lat="50.31624" lon="3.0946">
        <ele>37.63</ele>
        <time>2015-09-29T06:59:23Z</time>
      </trkpt>
      <trkpt lat="50.31608" lon="3.09482">
        <ele>37.63</ele>
        <time>2015-09-29T06:59:39Z</time>
      </trkpt>
      <trkpt lat="50.31599" lon="3.09507">
        <ele>36.67</ele>
        <time>2015-09-29T06:59:55Z</time>
      </trkpt>
      <trkpt lat="50.31586" lon="3.09525">
        <ele>36.19</ele>
        <time>2015-09-29T07:00:09Z</time>
      </trkpt>
      <trkpt lat="50.31581" lon="3.09532">
        <ele>37.15</ele>
        <time>2015-09-29T07:00:15Z</time>
      </trkpt>
      <trkpt lat="50.3158" lon="3.09535">
        <ele>37.15</ele>
        <time>2015-09-29T07:00:17Z</time>
      </trkpt>
      <trkpt lat="50.31563" lon="3.09553">
        <ele>41.47</ele>
        <time>2015-09-29T07:00:32Z</time>
      </trkpt>
      <trkpt lat="50.31561" lon="3.09556">
        <ele>41.47</ele>
        <time>2015-09-29T07:00:34Z</time>
      </trkpt>
      <trkpt lat="50.31551" lon="3.0958">
        <ele>40.99</ele>
        <time>2015-09-29T07:00:50Z</time>
      </trkpt>
      <trkpt lat="50.3155" lon="3.09583">
        <ele>40.99</ele>
        <time>2015-09-29T07:00:52Z</time>
      </trkpt>
      <trkpt lat="50.31535" lon="3.09603">
        <ele>40.03</ele>
        <time>2015-09-29T07:01:05Z</time>
      </trkpt>
      <trkpt lat="50.31526" lon="3.09631">
        <ele>36.19</ele>
        <time>2015-09-29T07:01:20Z</time>
      </trkpt>
      <trkpt lat="50.31514" lon="3.09663">
        <ele>36.19</ele>
        <time>2015-09-29T07:01:38Z</time>
      </trkpt>
      <trkpt lat="50.31504" lon="3.09692">
        <ele>34.74</ele>
        <time>2015-09-29T07:01:53Z</time>
      </trkpt>
      <trkpt lat="50.31492" lon="3.09721">
        <ele>35.71</ele>
        <time>2015-09-29T07:02:09Z</time>
      </trkpt>
      <trkpt lat="50.31486" lon="3.09746">
        <ele>33.3</ele>
        <time>2015-09-29T07:02:23Z</time>
      </trkpt>
      <trkpt lat="50.31485" lon="3.09748">
        <ele>33.3</ele>
        <time>2015-09-29T07:02:24Z</time>
      </trkpt>
      <trkpt lat="50.31479" lon="3.09763">
        <ele>31.86</ele>
        <time>2015-09-29T07:02:33Z</time>
      </trkpt>
      <trkpt lat="50.31465" lon="3.098">
        <ele>30.42</ele>
        <time>2015-09-29T07:02:50Z</time>
      </trkpt>
      <trkpt lat="50.31462" lon="3.0983">
        <ele>31.86</ele>
        <time>2015-09-29T07:03:05Z</time>
      </trkpt>
      <trkpt lat="50.31454" lon="3.09859">
        <ele>37.15</ele>
        <time>2015-09-29T07:03:20Z</time>
      </trkpt>
      <trkpt lat="50.31443" lon="3.09891">
        <ele>37.63</ele>
        <time>2015-09-29T07:03:37Z</time>
      </trkpt>
      <trkpt lat="50.31432" lon="3.09919">
        <ele>36.67</ele>
        <time>2015-09-29T07:03:52Z</time>
      </trkpt>
      <trkpt lat="50.31422" lon="3.09952">
        <ele>36.19</ele>
        <time>2015-09-29T07:04:09Z</time>
      </trkpt>
      <trkpt lat="50.3141" lon="3.09983">
        <ele>37.15</ele>
        <time>2015-09-29T07:04:26Z</time>
      </trkpt>
      <trkpt lat="50.31402" lon="3.10009">
        <ele>36.19</ele>
        <time>2015-09-29T07:04:41Z</time>
      </trkpt>
      <trkpt lat="50.31393" lon="3.10042">
        <ele>38.11</ele>
        <time>2015-09-29T07:04:58Z</time>
      </trkpt>
      <trkpt lat="50.31383" lon="3.10077">
        <ele>38.59</ele>
        <time>2015-09-29T07:05:16Z</time>
      </trkpt>
      <trkpt lat="50.31372" lon="3.10111">
        <ele>38.11</ele>
        <time>2015-09-29T07:05:34Z</time>
      </trkpt>
      <trkpt lat="50.31361" lon="3.10143">
        <ele>37.63</ele>
        <time>2015-09-29T07:05:51Z</time>
      </trkpt>
      <trkpt lat="50.31351" lon="3.10173">
        <ele>39.07</ele>
        <time>2015-09-29T07:06:07Z</time>
      </trkpt>
      <trkpt lat="50.3134" lon="3.10208">
        <ele>40.51</ele>
        <time>2015-09-29T07:06:25Z</time>
      </trkpt>
      <trkpt lat="50.31329" lon="3.1024">
        <ele>40.03</ele>
        <time>2015-09-29T07:06:42Z</time>
      </trkpt>
      <trkpt lat="50.31318" lon="3.10273">
        <ele>40.51</ele>
        <time>2015-09-29T07:06:59Z</time>
      </trkpt>
      <trkpt lat="50.31308" lon="3.10304">
        <ele>39.55</ele>
        <time>2015-09-29T07:07:15Z</time>
      </trkpt>
      <trkpt lat="50.31297" lon="3.10337">
        <ele>38.59</ele>
        <time>2015-09-29T07:07:32Z</time>
      </trkpt>
      <trkpt lat="50.31286" lon="3.10366">
        <ele>38.59</ele>
        <time>2015-09-29T07:07:48Z</time>
      </trkpt>
      <trkpt lat="50.31277" lon="3.10399">
        <ele>40.51</ele>
        <time>2015-09-29T07:08:04Z</time>
      </trkpt>
      <trkpt lat="50.31267" lon="3.10428">
        <ele>42.44</ele>
        <time>2015-09-29T07:08:19Z</time>
      </trkpt>
      <trkpt lat="50.31257" lon="3.10468">
        <ele>42.92</ele>
        <time>2015-09-29T07:08:37Z</time>
      </trkpt>
      <trkpt lat="50.31251" lon="3.10505">
        <ele>40.51</ele>
        <time>2015-09-29T07:08:54Z</time>
      </trkpt>
      <trkpt lat="50.31247" lon="3.10543">
        <ele>41.95</ele>
        <time>2015-09-29T07:09:11Z</time>
      </trkpt>
      <trkpt lat="50.31237" lon="3.10572">
        <ele>40.99</ele>
        <time>2015-09-29T07:09:27Z</time>
      </trkpt>
      <trkpt lat="50.31216" lon="3.10583">
        <ele>39.55</ele>
        <time>2015-09-29T07:09:42Z</time>
      </trkpt>
      <trkpt lat="50.31198" lon="3.10571">
        <ele>39.55</ele>
        <time>2015-09-29T07:09:57Z</time>
      </trkpt>
      <trkpt lat="50.31177" lon="3.10551">
        <ele>37.63</ele>
        <time>2015-09-29T07:10:13Z</time>
      </trkpt>
      <trkpt lat="50.31158" lon="3.10531">
        <ele>35.23</ele>
        <time>2015-09-29T07:10:29Z</time>
      </trkpt>
      <trkpt lat="50.31137" lon="3.10508">
        <ele>34.26</ele>
        <time>2015-09-29T07:10:46Z</time>
      </trkpt>
      <trkpt lat="50.31117" lon="3.10489">
        <ele>34.26</ele>
        <time>2015-09-29T07:11:02Z</time>
      </trkpt>
      <trkpt lat="50.31096" lon="3.10467">
        <ele>34.74</ele>
        <time>2015-09-29T07:11:20Z</time>
      </trkpt>
      <trkpt lat="50.31078" lon="3.10446">
        <ele>35.71</ele>
        <time>2015-09-29T07:11:36Z</time>
      </trkpt>
      <trkpt lat="50.31057" lon="3.10429">
        <ele>35.23</ele>
        <time>2015-09-29T07:11:52Z</time>
      </trkpt>
      <trkpt lat="50.31052" lon="3.10425">
        <ele>35.23</ele>
        <time>2015-09-29T07:11:56Z</time>
      </trkpt>
      <trkpt lat="50.31038" lon="3.10411">
        <ele>34.74</ele>
        <time>2015-09-29T07:12:09Z</time>
      </trkpt>
      <trkpt lat="50.31033" lon="3.10407">
        <ele>34.74</ele>
        <time>2015-09-29T07:12:13Z</time>
      </trkpt>
      <trkpt lat="50.3101" lon="3.10392">
        <ele>36.19</ele>
        <time>2015-09-29T07:12:29Z</time>
      </trkpt>
      <trkpt lat="50.30991" lon="3.10383">
        <ele>36.19</ele>
        <time>2015-09-29T07:12:45Z</time>
      </trkpt>
      <trkpt lat="50.30986" lon="3.10381">
        <ele>36.19</ele>
        <time>2015-09-29T07:12:48Z</time>
      </trkpt>
      <trkpt lat="50.30961" lon="3.10375">
        <ele>36.19</ele>
        <time>2015-09-29T07:13:07Z</time>
      </trkpt>
      <trkpt lat="50.30934" lon="3.10371">
        <ele>36.19</ele>
        <time>2015-09-29T07:13:27Z</time>
      </trkpt>
      <trkpt lat="50.3091" lon="3.1037">
        <ele>35.71</ele>
        <time>2015-09-29T07:13:44Z</time>
      </trkpt>
      <trkpt lat="50.30887" lon="3.10373">
        <ele>35.71</ele>
        <time>2015-09-29T07:14:00Z</time>
      </trkpt>
      <trkpt lat="50.30864" lon="3.10378">
        <ele>35.71</ele>
        <time>2015-09-29T07:14:18Z</time>
      </trkpt>
      <trkpt lat="50.30836" lon="3.10386">
        <ele>35.23</ele>
        <time>2015-09-29T07:14:37Z</time>
      </trkpt>
      <trkpt lat="50.30817" lon="3.10394">
        <ele>34.74</ele>
        <time>2015-09-29T07:14:50Z</time>
      </trkpt>
      <trkpt lat="50.30794" lon="3.10407">
        <ele>34.26</ele>
        <time>2015-09-29T07:15:07Z</time>
      </trkpt>
      <trkpt lat="50.30766" lon="3.10421">
        <ele>36.67</ele>
        <time>2015-09-29T07:15:26Z</time>
      </trkpt>
      <trkpt lat="50.30743" lon="3.10439">
        <ele>39.07</ele>
        <time>2015-09-29T07:15:43Z</time>
      </trkpt>
      <trkpt lat="50.30722" lon="3.10457">
        <ele>38.11</ele>
        <time>2015-09-29T07:15:59Z</time>
      </trkpt>
      <trkpt lat="50.30711" lon="3.10468">
        <ele>37.63</ele>
        <time>2015-09-29T07:16:08Z</time>
      </trkpt>
      <trkpt lat="50.3069" lon="3.10487">
        <ele>38.11</ele>
        <time>2015-09-29T07:16:24Z</time>
      </trkpt>
      <trkpt lat="50.3067" lon="3.10505">
        <ele>40.03</ele>
        <time>2015-09-29T07:16:39Z</time>
      </trkpt>
      <trkpt lat="50.30646" lon="3.10527">
        <ele>38.11</ele>
        <time>2015-09-29T07:16:59Z</time>
      </trkpt>
      <trkpt lat="50.30627" lon="3.1055">
        <ele>39.07</ele>
        <time>2015-09-29T07:17:15Z</time>
      </trkpt>
      <trkpt lat="50.30609" lon="3.10572">
        <ele>40.03</ele>
        <time>2015-09-29T07:17:31Z</time>
      </trkpt>
      <trkpt lat="50.30588" lon="3.10597">
        <ele>39.55</ele>
        <time>2015-09-29T07:17:48Z</time>
      </trkpt>
      <trkpt lat="50.30569" lon="3.10617">
        <ele>39.55</ele>
        <time>2015-09-29T07:18:05Z</time>
      </trkpt>
      <trkpt lat="50.30549" lon="3.10643">
        <ele>38.59</ele>
        <time>2015-09-29T07:18:23Z</time>
      </trkpt>
      <trkpt lat="50.30528" lon="3.10665">
        <ele>38.59</ele>
        <time>2015-09-29T07:18:40Z</time>
      </trkpt>
      <trkpt lat="50.30507" lon="3.10682">
        <ele>40.03</ele>
        <time>2015-09-29T07:18:56Z</time>
      </trkpt>
      <trkpt lat="50.30482" lon="3.10699">
        <ele>42.92</ele>
        <time>2015-09-29T07:19:14Z</time>
      </trkpt>
      <trkpt lat="50.30464" lon="3.10719">
        <ele>42.92</ele>
        <time>2015-09-29T07:19:29Z</time>
      </trkpt>
      <trkpt lat="50.30455" lon="3.10745">
        <ele>41.47</ele>
        <time>2015-09-29T07:19:46Z</time>
      </trkpt>
      <trkpt lat="50.30452" lon="3.10748">
        <ele>41.47</ele>
        <time>2015-09-29T07:19:48Z</time>
      </trkpt>
      <trkpt lat="50.3044" lon="3.10777">
        <ele>40.03</ele>
        <time>2015-09-29T07:20:05Z</time>
      </trkpt>
      <trkpt lat="50.3042" lon="3.10806">
        <ele>40.51</ele>
        <time>2015-09-29T07:20:23Z</time>
      </trkpt>
      <trkpt lat="50.30404" lon="3.10829">
        <ele>40.99</ele>
        <time>2015-09-29T07:20:39Z</time>
      </trkpt>
      <trkpt lat="50.30386" lon="3.10852">
        <ele>41.95</ele>
        <time>2015-09-29T07:20:56Z</time>
      </trkpt>
      <trkpt lat="50.30369" lon="3.10879">
        <ele>42.92</ele>
        <time>2015-09-29T07:21:14Z</time>
      </trkpt>
      <trkpt lat="50.30351" lon="3.10902">
        <ele>41.95</ele>
        <time>2015-09-29T07:21:31Z</time>
      </trkpt>
      <trkpt lat="50.30336" lon="3.10919">
        <ele>40.99</ele>
        <time>2015-09-29T07:21:45Z</time>
      </trkpt>
      <trkpt lat="50.30319" lon="3.10937">
        <ele>40.51</ele>
        <time>2015-09-29T07:22:00Z</time>
      </trkpt>
      <trkpt lat="50.303" lon="3.10956">
        <ele>40.03</ele>
        <time>2015-09-29T07:22:16Z</time>
      </trkpt>
      <trkpt lat="50.30283" lon="3.10974">
        <ele>39.55</ele>
        <time>2015-09-29T07:22:30Z</time>
      </trkpt>
      <trkpt lat="50.30273" lon="3.10982">
        <ele>39.55</ele>
        <time>2015-09-29T07:22:38Z</time>
      </trkpt>
      <trkpt lat="50.30251" lon="3.10993">
        <ele>40.03</ele>
        <time>2015-09-29T07:22:54Z</time>
      </trkpt>
      <trkpt lat="50.30232" lon="3.11011">
        <ele>38.59</ele>
        <time>2015-09-29T07:23:11Z</time>
      </trkpt>
      <trkpt lat="50.3023" lon="3.11017">
        <ele>38.11</ele>
        <time>2015-09-29T07:23:14Z</time>
      </trkpt>
      <trkpt lat="50.30235" lon="3.11052">
        <ele>37.15</ele>
        <time>2015-09-29T07:23:31Z</time>
      </trkpt>
      <trkpt lat="50.30241" lon="3.11077">
        <ele>36.19</ele>
        <time>2015-09-29T07:23:45Z</time>
      </trkpt>
      <trkpt lat="50.30251" lon="3.11101">
        <ele>38.11</ele>
        <time>2015-09-29T07:24:00Z</time>
      </trkpt>
      <trkpt lat="50.30252" lon="3.11102">
        <ele>38.11</ele>
        <time>2015-09-29T07:24:01Z</time>
      </trkpt>
      <trkpt lat="50.30259" lon="3.11109">
        <ele>39.07</ele>
        <time>2015-09-29T07:24:06Z</time>
      </trkpt>
      <trkpt lat="50.30285" lon="3.11116">
        <ele>40.51</ele>
        <time>2015-09-29T07:24:22Z</time>
      </trkpt>
      <trkpt lat="50.30306" lon="3.11121">
        <ele>42.44</ele>
        <time>2015-09-29T07:24:37Z</time>
      </trkpt>
      <trkpt lat="50.30317" lon="3.11122">
        <ele>42.92</ele>
        <time>2015-09-29T07:24:44Z</time>
      </trkpt>
      <trkpt lat="50.30325" lon="3.11125">
        <ele>42.44</ele>
        <time>2015-09-29T07:24:50Z</time>
      </trkpt>
      <trkpt lat="50.30348" lon="3.11128">
        <ele>44.36</ele>
        <time>2015-09-29T07:25:05Z</time>
      </trkpt>
      <trkpt lat="50.30367" lon="3.11137">
        <ele>43.88</ele>
        <time>2015-09-29T07:25:19Z</time>
      </trkpt>
      <trkpt lat="50.30385" lon="3.11146">
        <ele>41.95</ele>
        <time>2015-09-29T07:25:31Z</time>
      </trkpt>
      <trkpt lat="50.30391" lon="3.11148">
        <ele>40.99</ele>
        <time>2015-09-29T07:25:35Z</time>
      </trkpt>
      <trkpt lat="50.30399" lon="3.11156">
        <ele>40.03</ele>
        <time>2015-09-29T07:25:42Z</time>
      </trkpt>
      <trkpt lat="50.30401" lon="3.11162">
        <ele>39.55</ele>
        <time>2015-09-29T07:25:45Z</time>
      </trkpt>
      <trkpt lat="50.30401" lon="3.11178">
        <ele>39.07</ele>
        <time>2015-09-29T07:25:53Z</time>
      </trkpt>
      <trkpt lat="50.30387" lon="3.11217">
        <ele>40.99</ele>
        <time>2015-09-29T07:26:14Z</time>
      </trkpt>
      <trkpt lat="50.30375" lon="3.11244">
        <ele>39.55</ele>
        <time>2015-09-29T07:26:29Z</time>
      </trkpt>
      <trkpt lat="50.30371" lon="3.11256">
        <ele>40.03</ele>
        <time>2015-09-29T07:26:36Z</time>
      </trkpt>
      <trkpt lat="50.30382" lon="3.11277">
        <ele>38.59</ele>
        <time>2015-09-29T07:26:49Z</time>
      </trkpt>
      <trkpt lat="50.30397" lon="3.11307">
        <ele>36.19</ele>
        <time>2015-09-29T07:27:05Z</time>
      </trkpt>
      <trkpt lat="50.3041" lon="3.11334">
        <ele>36.19</ele>
        <time>2015-09-29T07:27:21Z</time>
      </trkpt>
      <trkpt lat="50.30425" lon="3.11362">
        <ele>35.71</ele>
        <time>2015-09-29T07:27:37Z</time>
      </trkpt>
      <trkpt lat="50.30437" lon="3.11387">
        <ele>35.71</ele>
        <time>2015-09-29T07:27:51Z</time>
      </trkpt>
      <trkpt lat="50.3045" lon="3.11411">
        <ele>35.71</ele>
        <time>2015-09-29T07:28:05Z</time>
      </trkpt>
      <trkpt lat="50.30462" lon="3.11438">
        <ele>35.23</ele>
        <time>2015-09-29T07:28:20Z</time>
      </trkpt>
      <trkpt lat="50.30477" lon="3.11471">
        <ele>35.71</ele>
        <time>2015-09-29T07:28:38Z</time>
      </trkpt>
      <trkpt lat="50.30478" lon="3.11473">
        <ele>35.71</ele>
        <time>2015-09-29T07:28:39Z</time>
      </trkpt>
      <trkpt lat="50.30479" lon="3.1148">
        <ele>36.67</ele>
        <time>2015-09-29T07:28:43Z</time>
      </trkpt>
      <trkpt lat="50.30472" lon="3.11494">
        <ele>38.59</ele>
        <time>2015-09-29T07:28:53Z</time>
      </trkpt>
      <trkpt lat="50.30469" lon="3.11497">
        <ele>38.59</ele>
        <time>2015-09-29T07:28:56Z</time>
      </trkpt>
      <trkpt lat="50.30445" lon="3.11502">
        <ele>40.99</ele>
        <time>2015-09-29T07:29:13Z</time>
      </trkpt>
      <trkpt lat="50.30419" lon="3.11507">
        <ele>41.95</ele>
        <time>2015-09-29T07:29:31Z</time>
      </trkpt>
      <trkpt lat="50.30396" lon="3.11517">
        <ele>44.36</ele>
        <time>2015-09-29T07:29:48Z</time>
      </trkpt>
      <trkpt lat="50.30375" lon="3.11526">
        <ele>46.28</ele>
        <time>2015-09-29T07:30:04Z</time>
      </trkpt>
      <trkpt lat="50.30355" lon="3.11536">
        <ele>47.72</ele>
        <time>2015-09-29T07:30:19Z</time>
      </trkpt>
      <trkpt lat="50.30335" lon="3.11544">
        <ele>48.2</ele>
        <time>2015-09-29T07:30:34Z</time>
      </trkpt>
      <trkpt lat="50.30313" lon="3.11548">
        <ele>47.72</ele>
        <time>2015-09-29T07:30:49Z</time>
      </trkpt>
      <trkpt lat="50.3029" lon="3.11548">
        <ele>45.32</ele>
        <time>2015-09-29T07:31:05Z</time>
      </trkpt>
      <trkpt lat="50.30266" lon="3.11543">
        <ele>43.88</ele>
        <time>2015-09-29T07:31:21Z</time>
      </trkpt>
      <trkpt lat="50.30246" lon="3.11535">
        <ele>43.88</ele>
        <time>2015-09-29T07:31:37Z</time>
      </trkpt>
      <trkpt lat="50.30226" lon="3.11524">
        <ele>42.44</ele>
        <time>2015-09-29T07:31:53Z</time>
      </trkpt>
      <trkpt lat="50.30208" lon="3.11508">
        <ele>41.95</ele>
        <time>2015-09-29T07:32:08Z</time>
      </trkpt>
      <trkpt lat="50.30191" lon="3.11496">
        <ele>41.47</ele>
        <time>2015-09-29T07:32:22Z</time>
      </trkpt>
      <trkpt lat="50.30168" lon="3.11477">
        <ele>39.55</ele>
        <time>2015-09-29T07:32:40Z</time>
      </trkpt>
      <trkpt lat="50.30151" lon="3.11458">
        <ele>38.59</ele>
        <time>2015-09-29T07:32:54Z</time>
      </trkpt>
      <trkpt lat="50.30134" lon="3.11437">
        <ele>39.07</ele>
        <time>2015-09-29T07:33:11Z</time>
      </trkpt>
      <trkpt lat="50.30118" lon="3.11411">
        <ele>38.11</ele>
        <time>2015-09-29T07:33:26Z</time>
      </trkpt>
      <trkpt lat="50.30105" lon="3.11383">
        <ele>39.55</ele>
        <time>2015-09-29T07:33:42Z</time>
      </trkpt>
      <trkpt lat="50.30088" lon="3.11356">
        <ele>40.99</ele>
        <time>2015-09-29T07:34:00Z</time>
      </trkpt>
      <trkpt lat="50.30077" lon="3.11325">
        <ele>41.95</ele>
        <time>2015-09-29T07:34:17Z</time>
      </trkpt>
      <trkpt lat="50.30069" lon="3.11293">
        <ele>40.99</ele>
        <time>2015-09-29T07:34:32Z</time>
      </trkpt>
      <trkpt lat="50.30062" lon="3.11266">
        <ele>42.44</ele>
        <time>2015-09-29T07:34:45Z</time>
      </trkpt>
      <trkpt lat="50.30055" lon="3.11234">
        <ele>43.4</ele>
        <time>2015-09-29T07:35:00Z</time>
      </trkpt>
      <trkpt lat="50.30049" lon="3.11207">
        <ele>44.36</ele>
        <time>2015-09-29T07:35:15Z</time>
      </trkpt>
      <trkpt lat="50.30043" lon="3.11174">
        <ele>43.4</ele>
        <time>2015-09-29T07:35:30Z</time>
      </trkpt>
      <trkpt lat="50.30039" lon="3.11147">
        <ele>42.92</ele>
        <time>2015-09-29T07:35:44Z</time>
      </trkpt>
      <trkpt lat="50.30037" lon="3.11122">
        <ele>40.99</ele>
        <time>2015-09-29T07:35:59Z</time>
      </trkpt>
      <trkpt lat="50.30029" lon="3.11089">
        <ele>40.99</ele>
        <time>2015-09-29T07:36:15Z</time>
      </trkpt>
      <trkpt lat="50.30018" lon="3.11041">
        <ele>42.44</ele>
        <time>2015-09-29T07:36:32Z</time>
      </trkpt>
      <trkpt lat="50.30016" lon="3.11004">
        <ele>40.51</ele>
        <time>2015-09-29T07:36:50Z</time>
      </trkpt>
      <trkpt lat="50.30016" lon="3.11002">
        <ele>40.51</ele>
        <time>2015-09-29T07:36:51Z</time>
      </trkpt>
      <trkpt lat="50.30013" lon="3.10989">
        <ele>39.07</ele>
        <time>2015-09-29T07:36:56Z</time>
      </trkpt>
      <trkpt lat="50.30015" lon="3.10978">
        <ele>37.15</ele>
        <time>2015-09-29T07:37:02Z</time>
      </trkpt>
      <trkpt lat="50.30016" lon="3.10972">
        <ele>37.15</ele>
        <time>2015-09-29T07:37:04Z</time>
      </trkpt>
      <trkpt lat="50.30016" lon="3.10941">
        <ele>32.34</ele>
        <time>2015-09-29T07:37:17Z</time>
      </trkpt>
      <trkpt lat="50.30028" lon="3.10903">
        <ele>37.15</ele>
        <time>2015-09-29T07:37:36Z</time>
      </trkpt>
      <trkpt lat="50.30046" lon="3.10889">
        <ele>38.11</ele>
        <time>2015-09-29T07:37:52Z</time>
      </trkpt>
      <trkpt lat="50.30048" lon="3.10887">
        <ele>38.11</ele>
        <time>2015-09-29T07:37:54Z</time>
      </trkpt>
      <trkpt lat="50.30056" lon="3.10873">
        <ele>38.11</ele>
        <time>2015-09-29T07:38:03Z</time>
      </trkpt>
      <trkpt lat="50.30054" lon="3.10851">
        <ele>38.11</ele>
        <time>2015-09-29T07:38:16Z</time>
      </trkpt>
      <trkpt lat="50.3005" lon="3.1084">
        <ele>38.11</ele>
        <time>2015-09-29T07:38:22Z</time>
      </trkpt>
      <trkpt lat="50.30041" lon="3.10831">
        <ele>37.63</ele>
        <time>2015-09-29T07:38:30Z</time>
      </trkpt>
      <trkpt lat="50.30037" lon="3.10834">
        <ele>37.63</ele>
        <time>2015-09-29T07:38:34Z</time>
      </trkpt>
      <trkpt lat="50.30031" lon="3.10839">
        <ele>37.63</ele>
        <time>2015-09-29T07:38:39Z</time>
      </trkpt>
      <trkpt lat="50.30017" lon="3.10857">
        <ele>39.07</ele>
        <time>2015-09-29T07:38:53Z</time>
      </trkpt>
      <trkpt lat="50.30017" lon="3.10858">
        <ele>39.07</ele>
        <time>2015-09-29T07:38:54Z</time>
      </trkpt>
      <trkpt lat="50.30011" lon="3.10868">
        <ele>40.51</ele>
        <time>2015-09-29T07:39:00Z</time>
      </trkpt>
      <trkpt lat="50.29993" lon="3.10883">
        <ele>43.4</ele>
        <time>2015-09-29T07:39:17Z</time>
      </trkpt>
      <trkpt lat="50.29977" lon="3.109">
        <ele>44.84</ele>
        <time>2015-09-29T07:39:34Z</time>
      </trkpt>
      <trkpt lat="50.29963" lon="3.1091">
        <ele>42.92</ele>
        <time>2015-09-29T07:39:48Z</time>
      </trkpt>
      <trkpt lat="50.29954" lon="3.10897">
        <ele>42.44</ele>
        <time>2015-09-29T07:40:02Z</time>
      </trkpt>
      <trkpt lat="50.2994" lon="3.10896">
        <ele>41.95</ele>
        <time>2015-09-29T07:40:15Z</time>
      </trkpt>
      <trkpt lat="50.29926" lon="3.10898">
        <ele>39.55</ele>
        <time>2015-09-29T07:40:31Z</time>
      </trkpt>
      <trkpt lat="50.29917" lon="3.10895">
        <ele>38.59</ele>
        <time>2015-09-29T07:40:50Z</time>
      </trkpt>
      <trkpt lat="50.29912" lon="3.10895">
        <ele>37.15</ele>
        <time>2015-09-29T07:41:06Z</time>
      </trkpt>
      <trkpt lat="50.29919" lon="3.10882">
        <ele>34.26</ele>
        <time>2015-09-29T07:41:14Z</time>
      </trkpt>
      <trkpt lat="50.29921" lon="3.10878">
        <ele>33.78</ele>
        <time>2015-09-29T07:41:16Z</time>
      </trkpt>
      <trkpt lat="50.29931" lon="3.10867">
        <ele>37.63</ele>
        <time>2015-09-29T07:41:26Z</time>
      </trkpt>
      <trkpt lat="50.29946" lon="3.10853">
        <ele>36.67</ele>
        <time>2015-09-29T07:41:38Z</time>
      </trkpt>
      <trkpt lat="50.29953" lon="3.10848">
        <ele>35.23</ele>
        <time>2015-09-29T07:41:44Z</time>
      </trkpt>
      <trkpt lat="50.29958" lon="3.10846">
        <ele>34.26</ele>
        <time>2015-09-29T07:41:48Z</time>
      </trkpt>
      <trkpt lat="50.29969" lon="3.10831">
        <ele>28.02</ele>
        <time>2015-09-29T07:42:01Z</time>
      </trkpt>
      <trkpt lat="50.29973" lon="3.10828">
        <ele>26.57</ele>
        <time>2015-09-29T07:42:04Z</time>
      </trkpt>
      <trkpt lat="50.29979" lon="3.10816">
        <ele>25.13</ele>
        <time>2015-09-29T07:42:09Z</time>
      </trkpt>
      <trkpt lat="50.29984" lon="3.10808">
        <ele>25.61</ele>
        <time>2015-09-29T07:42:13Z</time>
      </trkpt>
      <trkpt lat="50.30003" lon="3.10797">
        <ele>19.84</ele>
        <time>2015-09-29T07:42:29Z</time>
      </trkpt>
      <trkpt lat="50.30012" lon="3.10779">
        <ele>16</ele>
        <time>2015-09-29T07:42:40Z</time>
      </trkpt>
      <trkpt lat="50.30018" lon="3.10771">
        <ele>15.52</ele>
        <time>2015-09-29T07:42:46Z</time>
      </trkpt>
      <trkpt lat="50.30023" lon="3.10767">
        <ele>15.52</ele>
        <time>2015-09-29T07:42:50Z</time>
      </trkpt>
      <trkpt lat="50.30044" lon="3.10734">
        <ele>17.44</ele>
        <time>2015-09-29T07:43:06Z</time>
      </trkpt>
      <trkpt lat="50.30045" lon="3.10731">
        <ele>17.92</ele>
        <time>2015-09-29T07:43:07Z</time>
      </trkpt>
      <trkpt lat="50.30069" lon="3.10707">
        <ele>27.53</ele>
        <time>2015-09-29T07:43:21Z</time>
      </trkpt>
      <trkpt lat="50.30084" lon="3.10691">
        <ele>29.46</ele>
        <time>2015-09-29T07:43:33Z</time>
      </trkpt>
      <trkpt lat="50.30103" lon="3.1067">
        <ele>29.46</ele>
        <time>2015-09-29T07:43:49Z</time>
      </trkpt>
      <trkpt lat="50.30119" lon="3.10659">
        <ele>27.53</ele>
        <time>2015-09-29T07:44:03Z</time>
      </trkpt>
      <trkpt lat="50.30129" lon="3.10647">
        <ele>27.53</ele>
        <time>2015-09-29T07:44:14Z</time>
      </trkpt>
      <trkpt lat="50.30143" lon="3.10634">
        <ele>28.02</ele>
        <time>2015-09-29T07:44:25Z</time>
      </trkpt>
      <trkpt lat="50.30154" lon="3.10623">
        <ele>28.5</ele>
        <time>2015-09-29T07:44:34Z</time>
      </trkpt>
      <trkpt lat="50.30158" lon="3.10618">
        <ele>28.5</ele>
        <time>2015-09-29T07:44:38Z</time>
      </trkpt>
      <trkpt lat="50.30174" lon="3.10599">
        <ele>27.53</ele>
        <time>2015-09-29T07:44:52Z</time>
      </trkpt>
      <trkpt lat="50.30179" lon="3.10594">
        <ele>27.05</ele>
        <time>2015-09-29T07:44:56Z</time>
      </trkpt>
      <trkpt lat="50.30184" lon="3.10587">
        <ele>26.09</ele>
        <time>2015-09-29T07:45:01Z</time>
      </trkpt>
      <trkpt lat="50.30188" lon="3.10583">
        <ele>25.13</ele>
        <time>2015-09-29T07:45:05Z</time>
      </trkpt>
      <trkpt lat="50.30193" lon="3.10577">
        <ele>24.65</ele>
        <time>2015-09-29T07:45:09Z</time>
      </trkpt>
      <trkpt lat="50.30197" lon="3.10572">
        <ele>24.65</ele>
        <time>2015-09-29T07:45:13Z</time>
      </trkpt>
      <trkpt lat="50.30201" lon="3.10567">
        <ele>24.17</ele>
        <time>2015-09-29T07:45:17Z</time>
      </trkpt>
      <trkpt lat="50.30218" lon="3.10552">
        <ele>21.77</ele>
        <time>2015-09-29T07:45:31Z</time>
      </trkpt>
      <trkpt lat="50.3023" lon="3.10542">
        <ele>17.92</ele>
        <time>2015-09-29T07:45:44Z</time>
      </trkpt>
      <trkpt lat="50.30244" lon="3.1052">
        <ele>17.92</ele>
        <time>2015-09-29T07:45:56Z</time>
      </trkpt>
      <trkpt lat="50.30262" lon="3.105">
        <ele>23.69</ele>
        <time>2015-09-29T07:46:09Z</time>
      </trkpt>
      <trkpt lat="50.30272" lon="3.10498">
        <ele>26.09</ele>
        <time>2015-09-29T07:46:14Z</time>
      </trkpt>
      <trkpt lat="50.30279" lon="3.10486">
        <ele>27.05</ele>
        <time>2015-09-29T07:46:21Z</time>
      </trkpt>
      <trkpt lat="50.30284" lon="3.10481">
        <ele>27.53</ele>
        <time>2015-09-29T07:46:25Z</time>
      </trkpt>
      <trkpt lat="50.30285" lon="3.10478">
        <ele>27.53</ele>
        <time>2015-09-29T07:46:27Z</time>
      </trkpt>
      <trkpt lat="50.3029" lon="3.1047">
        <ele>28.02</ele>
        <time>2015-09-29T07:46:32Z</time>
      </trkpt>
      <trkpt lat="50.30296" lon="3.10464">
        <ele>28.5</ele>
        <time>2015-09-29T07:46:37Z</time>
      </trkpt>
      <trkpt lat="50.30304" lon="3.10455">
        <ele>28.5</ele>
        <time>2015-09-29T07:46:44Z</time>
      </trkpt>
      <trkpt lat="50.30313" lon="3.1045">
        <ele>27.53</ele>
        <time>2015-09-29T07:46:51Z</time>
      </trkpt>
      <trkpt lat="50.30327" lon="3.10431">
        <ele>27.53</ele>
        <time>2015-09-29T07:47:02Z</time>
      </trkpt>
      <trkpt lat="50.30344" lon="3.10407">
        <ele>33.78</ele>
        <time>2015-09-29T07:47:17Z</time>
      </trkpt>
      <trkpt lat="50.30352" lon="3.10402">
        <ele>33.3</ele>
        <time>2015-09-29T07:47:23Z</time>
      </trkpt>
      <trkpt lat="50.30355" lon="3.10398">
        <ele>32.34</ele>
        <time>2015-09-29T07:47:27Z</time>
      </trkpt>
      <trkpt lat="50.30372" lon="3.10381">
        <ele>28.5</ele>
        <time>2015-09-29T07:47:42Z</time>
      </trkpt>
      <trkpt lat="50.30385" lon="3.10361">
        <ele>28.02</ele>
        <time>2015-09-29T07:47:54Z</time>
      </trkpt>
      <trkpt lat="50.30404" lon="3.10339">
        <ele>29.46</ele>
        <time>2015-09-29T07:48:09Z</time>
      </trkpt>
      <trkpt lat="50.30405" lon="3.10338">
        <ele>29.46</ele>
        <time>2015-09-29T07:48:10Z</time>
      </trkpt>
      <trkpt lat="50.3041" lon="3.10333">
        <ele>29.94</ele>
        <time>2015-09-29T07:48:14Z</time>
      </trkpt>
      <trkpt lat="50.30416" lon="3.10325">
        <ele>30.42</ele>
        <time>2015-09-29T07:48:19Z</time>
      </trkpt>
      <trkpt lat="50.30425" lon="3.10316">
        <ele>30.42</ele>
        <time>2015-09-29T07:48:26Z</time>
      </trkpt>
      <trkpt lat="50.30445" lon="3.10292">
        <ele>35.71</ele>
        <time>2015-09-29T07:48:42Z</time>
      </trkpt>
      <trkpt lat="50.30464" lon="3.10272">
        <ele>38.59</ele>
        <time>2015-09-29T07:48:57Z</time>
      </trkpt>
      <trkpt lat="50.30482" lon="3.10256">
        <ele>36.67</ele>
        <time>2015-09-29T07:49:11Z</time>
      </trkpt>
      <trkpt lat="50.30498" lon="3.10234">
        <ele>34.26</ele>
        <time>2015-09-29T07:49:27Z</time>
      </trkpt>
      <trkpt lat="50.30515" lon="3.10218">
        <ele>34.74</ele>
        <time>2015-09-29T07:49:41Z</time>
      </trkpt>
      <trkpt lat="50.30533" lon="3.10197">
        <ele>36.67</ele>
        <time>2015-09-29T07:49:56Z</time>
      </trkpt>
      <trkpt lat="50.30549" lon="3.10178">
        <ele>37.15</ele>
        <time>2015-09-29T07:50:11Z</time>
      </trkpt>
      <trkpt lat="50.30564" lon="3.1015">
        <ele>38.59</ele>
        <time>2015-09-29T07:50:27Z</time>
      </trkpt>
      <trkpt lat="50.30577" lon="3.10125">
        <ele>38.59</ele>
        <time>2015-09-29T07:50:41Z</time>
      </trkpt>
      <trkpt lat="50.30585" lon="3.10112">
        <ele>39.07</ele>
        <time>2015-09-29T07:50:49Z</time>
      </trkpt>
      <trkpt lat="50.30591" lon="3.10098">
        <ele>39.07</ele>
        <time>2015-09-29T07:50:56Z</time>
      </trkpt>
      <trkpt lat="50.30604" lon="3.10072">
        <ele>38.59</ele>
        <time>2015-09-29T07:51:10Z</time>
      </trkpt>
      <trkpt lat="50.30617" lon="3.10048">
        <ele>37.63</ele>
        <time>2015-09-29T07:51:24Z</time>
      </trkpt>
      <trkpt lat="50.30622" lon="3.10034">
        <ele>36.67</ele>
        <time>2015-09-29T07:51:30Z</time>
      </trkpt>
      <trkpt lat="50.30627" lon="3.10025">
        <ele>36.67</ele>
        <time>2015-09-29T07:51:36Z</time>
      </trkpt>
      <trkpt lat="50.30638" lon="3.09997">
        <ele>35.71</ele>
        <time>2015-09-29T07:51:51Z</time>
      </trkpt>
      <trkpt lat="50.30652" lon="3.09969">
        <ele>37.15</ele>
        <time>2015-09-29T07:52:06Z</time>
      </trkpt>
      <trkpt lat="50.30661" lon="3.09943">
        <ele>37.15</ele>
        <time>2015-09-29T07:52:20Z</time>
      </trkpt>
      <trkpt lat="50.30664" lon="3.09936">
        <ele>37.15</ele>
        <time>2015-09-29T07:52:24Z</time>
      </trkpt>
      <trkpt lat="50.30672" lon="3.09904">
        <ele>31.38</ele>
        <time>2015-09-29T07:52:40Z</time>
      </trkpt>
      <trkpt lat="50.30662" lon="3.09873">
        <ele>32.34</ele>
        <time>2015-09-29T07:52:56Z</time>
      </trkpt>
      <trkpt lat="50.30646" lon="3.09854">
        <ele>33.3</ele>
        <time>2015-09-29T07:53:10Z</time>
      </trkpt>
      <trkpt lat="50.30641" lon="3.09849">
        <ele>33.78</ele>
        <time>2015-09-29T07:53:14Z</time>
      </trkpt>
      <trkpt lat="50.30629" lon="3.0983">
        <ele>34.74</ele>
        <time>2015-09-29T07:53:26Z</time>
      </trkpt>
      <trkpt lat="50.30628" lon="3.09825">
        <ele>35.71</ele>
        <time>2015-09-29T07:53:29Z</time>
      </trkpt>
      <trkpt lat="50.30631" lon="3.09809">
        <ele>35.23</ele>
        <time>2015-09-29T07:53:37Z</time>
      </trkpt>
      <trkpt lat="50.3064" lon="3.09786">
        <ele>35.71</ele>
        <time>2015-09-29T07:53:50Z</time>
      </trkpt>
      <trkpt lat="50.30647" lon="3.09764">
        <ele>35.23</ele>
        <time>2015-09-29T07:54:03Z</time>
      </trkpt>
      <trkpt lat="50.30654" lon="3.09734">
        <ele>34.26</ele>
        <time>2015-09-29T07:54:18Z</time>
      </trkpt>
      <trkpt lat="50.30658" lon="3.09714">
        <ele>34.74</ele>
        <time>2015-09-29T07:54:27Z</time>
      </trkpt>
      <trkpt lat="50.3066" lon="3.09696">
        <ele>36.67</ele>
        <time>2015-09-29T07:54:33Z</time>
      </trkpt>
      <trkpt lat="50.30663" lon="3.09684">
        <ele>37.63</ele>
        <time>2015-09-29T07:54:38Z</time>
      </trkpt>
      <trkpt lat="50.30668" lon="3.0965">
        <ele>36.19</ele>
        <time>2015-09-29T07:54:53Z</time>
      </trkpt>
      <trkpt lat="50.30674" lon="3.09628">
        <ele>35.71</ele>
        <time>2015-09-29T07:55:04Z</time>
      </trkpt>
      <trkpt lat="50.30676" lon="3.09618">
        <ele>35.23</ele>
        <time>2015-09-29T07:55:09Z</time>
      </trkpt>
      <trkpt lat="50.30678" lon="3.09606">
        <ele>35.71</ele>
        <time>2015-09-29T07:55:14Z</time>
      </trkpt>
      <trkpt lat="50.30678" lon="3.09596">
        <ele>36.19</ele>
        <time>2015-09-29T07:55:18Z</time>
      </trkpt>
      <trkpt lat="50.30684" lon="3.0956">
        <ele>34.26</ele>
        <time>2015-09-29T07:55:34Z</time>
      </trkpt>
      <trkpt lat="50.30686" lon="3.09549">
        <ele>32.82</ele>
        <time>2015-09-29T07:55:39Z</time>
      </trkpt>
      <trkpt lat="50.30688" lon="3.09535">
        <ele>31.38</ele>
        <time>2015-09-29T07:55:46Z</time>
      </trkpt>
      <trkpt lat="50.30689" lon="3.09524">
        <ele>29.94</ele>
        <time>2015-09-29T07:55:51Z</time>
      </trkpt>
      <trkpt lat="50.30695" lon="3.09487">
        <ele>27.53</ele>
        <time>2015-09-29T07:56:08Z</time>
      </trkpt>
      <trkpt lat="50.30699" lon="3.09459">
        <ele>27.53</ele>
        <time>2015-09-29T07:56:22Z</time>
      </trkpt>
      <trkpt lat="50.30706" lon="3.09426">
        <ele>30.42</ele>
        <time>2015-09-29T07:56:37Z</time>
      </trkpt>
      <trkpt lat="50.30706" lon="3.09408">
        <ele>30.9</ele>
        <time>2015-09-29T07:56:44Z</time>
      </trkpt>
      <trkpt lat="50.30711" lon="3.09393">
        <ele>29.94</ele>
        <time>2015-09-29T07:56:52Z</time>
      </trkpt>
      <trkpt lat="50.30713" lon="3.09373">
        <ele>30.42</ele>
        <time>2015-09-29T07:57:00Z</time>
      </trkpt>
      <trkpt lat="50.30715" lon="3.09362">
        <ele>30.42</ele>
        <time>2015-09-29T07:57:05Z</time>
      </trkpt>
      <trkpt lat="50.30718" lon="3.09338">
        <ele>29.94</ele>
        <time>2015-09-29T07:57:16Z</time>
      </trkpt>
      <trkpt lat="50.3072" lon="3.09322">
        <ele>28.98</ele>
        <time>2015-09-29T07:57:23Z</time>
      </trkpt>
      <trkpt lat="50.30724" lon="3.09307">
        <ele>29.46</ele>
        <time>2015-09-29T07:57:30Z</time>
      </trkpt>
      <trkpt lat="50.30729" lon="3.09281">
        <ele>30.42</ele>
        <time>2015-09-29T07:57:42Z</time>
      </trkpt>
      <trkpt lat="50.30734" lon="3.09261">
        <ele>30.9</ele>
        <time>2015-09-29T07:57:52Z</time>
      </trkpt>
      <trkpt lat="50.30735" lon="3.0925">
        <ele>30.9</ele>
        <time>2015-09-29T07:57:57Z</time>
      </trkpt>
      <trkpt lat="50.30739" lon="3.09216">
        <ele>31.86</ele>
        <time>2015-09-29T07:58:13Z</time>
      </trkpt>
      <trkpt lat="50.30746" lon="3.09192">
        <ele>33.78</ele>
        <time>2015-09-29T07:58:26Z</time>
      </trkpt>
      <trkpt lat="50.30753" lon="3.09168">
        <ele>33.78</ele>
        <time>2015-09-29T07:58:37Z</time>
      </trkpt>
      <trkpt lat="50.30764" lon="3.09137">
        <ele>38.11</ele>
        <time>2015-09-29T07:58:51Z</time>
      </trkpt>
      <trkpt lat="50.30764" lon="3.0913">
        <ele>39.07</ele>
        <time>2015-09-29T07:58:54Z</time>
      </trkpt>
      <trkpt lat="50.30775" lon="3.09092">
        <ele>39.55</ele>
        <time>2015-09-29T07:59:10Z</time>
      </trkpt>
      <trkpt lat="50.30784" lon="3.0906">
        <ele>36.67</ele>
        <time>2015-09-29T07:59:25Z</time>
      </trkpt>
      <trkpt lat="50.30796" lon="3.09032">
        <ele>37.15</ele>
        <time>2015-09-29T07:59:40Z</time>
      </trkpt>
      <trkpt lat="50.30807" lon="3.09002">
        <ele>37.15</ele>
        <time>2015-09-29T07:59:56Z</time>
      </trkpt>
      <trkpt lat="50.30816" lon="3.08984">
        <ele>38.11</ele>
        <time>2015-09-29T08:00:05Z</time>
      </trkpt>
      <trkpt lat="50.30828" lon="3.08951">
        <ele>37.63</ele>
        <time>2015-09-29T08:00:22Z</time>
      </trkpt>
      <trkpt lat="50.30838" lon="3.08925">
        <ele>36.67</ele>
        <time>2015-09-29T08:00:35Z</time>
      </trkpt>
      <trkpt lat="50.30853" lon="3.0889">
        <ele>35.71</ele>
        <time>2015-09-29T08:00:53Z</time>
      </trkpt>
      <trkpt lat="50.30868" lon="3.08862">
        <ele>32.34</ele>
        <time>2015-09-29T08:01:08Z</time>
      </trkpt>
      <trkpt lat="50.30877" lon="3.08845">
        <ele>31.38</ele>
        <time>2015-09-29T08:01:18Z</time>
      </trkpt>
      <trkpt lat="50.3088" lon="3.08841">
        <ele>30.9</ele>
        <time>2015-09-29T08:01:21Z</time>
      </trkpt>
      <trkpt lat="50.30884" lon="3.08835">
        <ele>30.9</ele>
        <time>2015-09-29T08:01:25Z</time>
      </trkpt>
      <trkpt lat="50.30901" lon="3.08802">
        <ele>33.78</ele>
        <time>2015-09-29T08:01:45Z</time>
      </trkpt>
      <trkpt lat="50.30904" lon="3.08797">
        <ele>34.26</ele>
        <time>2015-09-29T08:01:48Z</time>
      </trkpt>
      <trkpt lat="50.30919" lon="3.08772">
        <ele>34.26</ele>
        <time>2015-09-29T08:02:04Z</time>
      </trkpt>
      <trkpt lat="50.30932" lon="3.08752">
        <ele>34.26</ele>
        <time>2015-09-29T08:02:16Z</time>
      </trkpt>
      <trkpt lat="50.30947" lon="3.08729">
        <ele>33.78</ele>
        <time>2015-09-29T08:02:30Z</time>
      </trkpt>
      <trkpt lat="50.30958" lon="3.08709">
        <ele>33.78</ele>
        <time>2015-09-29T08:02:42Z</time>
      </trkpt>
      <trkpt lat="50.30972" lon="3.08691">
        <ele>34.26</ele>
        <time>2015-09-29T08:02:54Z</time>
      </trkpt>
      <trkpt lat="50.30985" lon="3.08671">
        <ele>35.71</ele>
        <time>2015-09-29T08:03:06Z</time>
      </trkpt>
      <trkpt lat="50.31001" lon="3.0865">
        <ele>35.23</ele>
        <time>2015-09-29T08:03:21Z</time>
      </trkpt>
      <trkpt lat="50.31014" lon="3.08634">
        <ele>33.78</ele>
        <time>2015-09-29T08:03:32Z</time>
      </trkpt>
      <trkpt lat="50.31021" lon="3.08625">
        <ele>34.26</ele>
        <time>2015-09-29T08:03:38Z</time>
      </trkpt>
      <trkpt lat="50.31029" lon="3.08616">
        <ele>34.26</ele>
        <time>2015-09-29T08:03:45Z</time>
      </trkpt>
      <trkpt lat="50.31037" lon="3.08602">
        <ele>32.82</ele>
        <time>2015-09-29T08:03:55Z</time>
      </trkpt>
      <trkpt lat="50.31047" lon="3.08588">
        <ele>32.34</ele>
        <time>2015-09-29T08:04:04Z</time>
      </trkpt>
      <trkpt lat="50.31065" lon="3.08571">
        <ele>30.9</ele>
        <time>2015-09-29T08:04:20Z</time>
      </trkpt>
      <trkpt lat="50.31079" lon="3.08553">
        <ele>31.86</ele>
        <time>2015-09-29T08:04:33Z</time>
      </trkpt>
      <trkpt lat="50.31093" lon="3.0854">
        <ele>30.42</ele>
        <time>2015-09-29T08:04:45Z</time>
      </trkpt>
      <trkpt lat="50.31095" lon="3.08536">
        <ele>30.42</ele>
        <time>2015-09-29T08:04:47Z</time>
      </trkpt>
      <trkpt lat="50.31101" lon="3.08526">
        <ele>29.94</ele>
        <time>2015-09-29T08:04:53Z</time>
      </trkpt>
      <trkpt lat="50.31104" lon="3.08521">
        <ele>29.94</ele>
        <time>2015-09-29T08:04:56Z</time>
      </trkpt>
      <trkpt lat="50.31125" lon="3.08499">
        <ele>32.82</ele>
        <time>2015-09-29T08:05:12Z</time>
      </trkpt>
      <trkpt lat="50.31129" lon="3.08495">
        <ele>32.82</ele>
        <time>2015-09-29T08:05:15Z</time>
      </trkpt>
      <trkpt lat="50.31145" lon="3.08482">
        <ele>35.23</ele>
        <time>2015-09-29T08:05:29Z</time>
      </trkpt>
      <trkpt lat="50.3115" lon="3.08479">
        <ele>36.19</ele>
        <time>2015-09-29T08:05:44Z</time>
      </trkpt>
      <trkpt lat="50.31153" lon="3.08476">
        <ele>36.67</ele>
        <time>2015-09-29T08:06:00Z</time>
      </trkpt>
      <trkpt lat="50.31161" lon="3.08476">
        <ele>36.67</ele>
        <time>2015-09-29T08:06:12Z</time>
      </trkpt>
      <trkpt lat="50.31163" lon="3.0848">
        <ele>36.19</ele>
        <time>2015-09-29T08:06:24Z</time>
      </trkpt>
      <trkpt lat="50.31167" lon="3.08489">
        <ele>34.74</ele>
        <time>2015-09-29T08:06:38Z</time>
      </trkpt>
      <trkpt lat="50.31177" lon="3.08515">
        <ele>34.26</ele>
        <time>2015-09-29T08:06:55Z</time>
      </trkpt>
      <trkpt lat="50.31178" lon="3.08516">
        <ele>34.74</ele>
        <time>2015-09-29T08:06:56Z</time>
      </trkpt>
      <trkpt lat="50.31186" lon="3.08521">
        <ele>34.74</ele>
        <time>2015-09-29T08:07:01Z</time>
      </trkpt>
      <trkpt lat="50.31216" lon="3.08522">
        <ele>34.74</ele>
        <time>2015-09-29T08:07:20Z</time>
      </trkpt>
      <trkpt lat="50.31236" lon="3.08517">
        <ele>33.3</ele>
        <time>2015-09-29T08:07:35Z</time>
      </trkpt>
      <trkpt lat="50.31262" lon="3.08509">
        <ele>32.82</ele>
        <time>2015-09-29T08:07:55Z</time>
      </trkpt>
      <trkpt lat="50.31289" lon="3.08502">
        <ele>32.34</ele>
        <time>2015-09-29T08:08:15Z</time>
      </trkpt>
      <trkpt lat="50.31317" lon="3.08495">
        <ele>30.9</ele>
        <time>2015-09-29T08:08:36Z</time>
      </trkpt>
      <trkpt lat="50.31345" lon="3.08485">
        <ele>31.86</ele>
        <time>2015-09-29T08:08:57Z</time>
      </trkpt>
      <trkpt lat="50.31366" lon="3.08474">
        <ele>32.82</ele>
        <time>2015-09-29T08:09:14Z</time>
      </trkpt>
      <trkpt lat="50.31379" lon="3.08466">
        <ele>32.34</ele>
        <time>2015-09-29T08:09:25Z</time>
      </trkpt>
      <trkpt lat="50.31397" lon="3.08453">
        <ele>32.82</ele>
        <time>2015-09-29T08:09:41Z</time>
      </trkpt>
      <trkpt lat="50.31401" lon="3.08452">
        <ele>32.82</ele>
        <time>2015-09-29T08:09:44Z</time>
      </trkpt>
      <trkpt lat="50.31407" lon="3.08456">
        <ele>33.3</ele>
        <time>2015-09-29T08:09:49Z</time>
      </trkpt>
      <trkpt lat="50.31419" lon="3.0849">
        <ele>37.63</ele>
        <time>2015-09-29T08:10:05Z</time>
      </trkpt>
      <trkpt lat="50.31427" lon="3.08527">
        <ele>37.15</ele>
        <time>2015-09-29T08:10:24Z</time>
      </trkpt>
      <trkpt lat="50.31437" lon="3.08562">
        <ele>34.74</ele>
        <time>2015-09-29T08:10:42Z</time>
      </trkpt>
      <trkpt lat="50.3144" lon="3.0858">
        <ele>35.23</ele>
        <time>2015-09-29T08:10:57Z</time>
      </trkpt>
      <trkpt lat="50.31444" lon="3.08599">
        <ele>36.67</ele>
        <time>2015-09-29T08:11:14Z</time>
      </trkpt>
      <trkpt lat="50.31451" lon="3.0863">
        <ele>35.23</ele>
        <time>2015-09-29T08:11:32Z</time>
      </trkpt>
      <trkpt lat="50.31452" lon="3.08657">
        <ele>34.74</ele>
        <time>2015-09-29T08:11:48Z</time>
      </trkpt>
      <trkpt lat="50.31456" lon="3.08692">
        <ele>35.71</ele>
        <time>2015-09-29T08:12:06Z</time>
      </trkpt>
      <trkpt lat="50.31458" lon="3.08722">
        <ele>36.19</ele>
        <time>2015-09-29T08:12:22Z</time>
      </trkpt>
      <trkpt lat="50.31462" lon="3.08755">
        <ele>36.19</ele>
        <time>2015-09-29T08:12:41Z</time>
      </trkpt>
      <trkpt lat="50.31464" lon="3.08783">
        <ele>37.15</ele>
        <time>2015-09-29T08:12:55Z</time>
      </trkpt>
      <trkpt lat="50.31464" lon="3.08786">
        <ele>37.15</ele>
        <time>2015-09-29T08:12:57Z</time>
      </trkpt>
      <trkpt lat="50.31462" lon="3.08789">
        <ele>36.67</ele>
        <time>2015-09-29T08:13:14Z</time>
      </trkpt>
      <trkpt lat="50.31462" lon="3.0879">
        <ele>36.67</ele>
        <time>2015-09-29T08:13:15Z</time>
      </trkpt>
      <trkpt lat="50.31464" lon="3.08805">
        <ele>36.19</ele>
        <time>2015-09-29T08:13:23Z</time>
      </trkpt>
      <trkpt lat="50.31468" lon="3.08841">
        <ele>35.71</ele>
        <time>2015-09-29T08:13:42Z</time>
      </trkpt>
      <trkpt lat="50.31471" lon="3.08876">
        <ele>34.26</ele>
        <time>2015-09-29T08:14:00Z</time>
      </trkpt>
      <trkpt lat="50.31475" lon="3.08914">
        <ele>35.23</ele>
        <time>2015-09-29T08:14:19Z</time>
      </trkpt>
      <trkpt lat="50.31472" lon="3.0895">
        <ele>34.26</ele>
        <time>2015-09-29T08:14:37Z</time>
      </trkpt>
      <trkpt lat="50.3147" lon="3.08986">
        <ele>32.82</ele>
        <time>2015-09-29T08:14:55Z</time>
      </trkpt>
      <trkpt lat="50.31469" lon="3.0902">
        <ele>34.74</ele>
        <time>2015-09-29T08:15:12Z</time>
      </trkpt>
      <trkpt lat="50.31465" lon="3.09052">
        <ele>34.26</ele>
        <time>2015-09-29T08:15:29Z</time>
      </trkpt>
      <trkpt lat="50.31462" lon="3.09079">
        <ele>34.26</ele>
        <time>2015-09-29T08:15:43Z</time>
      </trkpt>
      <trkpt lat="50.31461" lon="3.09092">
        <ele>34.26</ele>
        <time>2015-09-29T08:15:56Z</time>
      </trkpt>
      <trkpt lat="50.31461" lon="3.09099">
        <ele>33.78</ele>
        <time>2015-09-29T08:16:00Z</time>
      </trkpt>
      <trkpt lat="50.3146" lon="3.09109">
        <ele>32.82</ele>
        <time>2015-09-29T08:16:05Z</time>
      </trkpt>
      <trkpt lat="50.31457" lon="3.09134">
        <ele>33.3</ele>
        <time>2015-09-29T08:16:18Z</time>
      </trkpt>
      <trkpt lat="50.31453" lon="3.09164">
        <ele>34.26</ele>
        <time>2015-09-29T08:16:34Z</time>
      </trkpt>
      <trkpt lat="50.3145" lon="3.09197">
        <ele>33.78</ele>
        <time>2015-09-29T08:16:51Z</time>
      </trkpt>
      <trkpt lat="50.31446" lon="3.09229">
        <ele>32.82</ele>
        <time>2015-09-29T08:17:08Z</time>
      </trkpt>
      <trkpt lat="50.31454" lon="3.09259">
        <ele>34.74</ele>
        <time>2015-09-29T08:17:24Z</time>
      </trkpt>
      <trkpt lat="50.3147" lon="3.09287">
        <ele>37.15</ele>
        <time>2015-09-29T08:17:44Z</time>
      </trkpt>
      <trkpt lat="50.31492" lon="3.09287">
        <ele>37.63</ele>
        <time>2015-09-29T08:18:02Z</time>
      </trkpt>
      <trkpt lat="50.3151" lon="3.0928">
        <ele>36.19</ele>
        <time>2015-09-29T08:18:16Z</time>
      </trkpt>
      <trkpt lat="50.31531" lon="3.0927">
        <ele>37.15</ele>
        <time>2015-09-29T08:18:34Z</time>
      </trkpt>
      <trkpt lat="50.31555" lon="3.09273">
        <ele>37.15</ele>
        <time>2015-09-29T08:18:53Z</time>
      </trkpt>
      <trkpt lat="50.31576" lon="3.09296">
        <ele>37.63</ele>
        <time>2015-09-29T08:19:12Z</time>
      </trkpt>
      <trkpt lat="50.31588" lon="3.09314">
        <ele>33.78</ele>
        <time>2015-09-29T08:19:25Z</time>
      </trkpt>
      <trkpt lat="50.31603" lon="3.09334">
        <ele>31.38</ele>
        <time>2015-09-29T08:19:40Z</time>
      </trkpt>
      <trkpt lat="50.31617" lon="3.09358">
        <ele>29.94</ele>
        <time>2015-09-29T08:19:56Z</time>
      </trkpt>
      <trkpt lat="50.31627" lon="3.0938">
        <ele>28.02</ele>
        <time>2015-09-29T08:20:10Z</time>
      </trkpt>
      <trkpt lat="50.31636" lon="3.09394">
        <ele>27.05</ele>
        <time>2015-09-29T08:20:19Z</time>
      </trkpt>
      <trkpt lat="50.3164" lon="3.09396">
        <ele>26.57</ele>
        <time>2015-09-29T08:20:22Z</time>
      </trkpt>
      <trkpt lat="50.31656" lon="3.09388">
        <ele>29.94</ele>
        <time>2015-09-29T08:20:34Z</time>
      </trkpt>
      <trkpt lat="50.31672" lon="3.09375">
        <ele>32.34</ele>
        <time>2015-09-29T08:20:50Z</time>
      </trkpt>
      <trkpt lat="50.31673" lon="3.09374">
        <ele>32.34</ele>
        <time>2015-09-29T08:20:51Z</time>
      </trkpt>
      <trkpt lat="50.31688" lon="3.09369">
        <ele>32.34</ele>
        <time>2015-09-29T08:21:06Z</time>
      </trkpt>
      <trkpt lat="50.31709" lon="3.09365">
        <ele>32.82</ele>
        <time>2015-09-29T08:21:19Z</time>
      </trkpt>
      <trkpt lat="50.31717" lon="3.09358">
        <ele>32.34</ele>
        <time>2015-09-29T08:21:27Z</time>
      </trkpt>
      <trkpt lat="50.31732" lon="3.09341">
        <ele>34.74</ele>
        <time>2015-09-29T08:21:41Z</time>
      </trkpt>
      <trkpt lat="50.31741" lon="3.09329">
        <ele>35.23</ele>
        <time>2015-09-29T08:21:56Z</time>
      </trkpt>
      <trkpt lat="50.3174" lon="3.09328">
        <ele>35.23</ele>
        <time>2015-09-29T08:22:17Z</time>
      </trkpt>
      <trkpt lat="50.3174" lon="3.09328">
        <ele>34.26</ele>
        <time>2015-09-29T08:22:33Z</time>
      </trkpt>
      <trkpt lat="50.3174" lon="3.0933">
        <ele>36.19</ele>
        <time>2015-09-29T08:22:53Z</time>
      </trkpt>
      <trkpt lat="50.31739" lon="3.09328">
        <ele>35.71</ele>
        <time>2015-09-29T08:23:14Z</time>
      </trkpt>
      <trkpt lat="50.3174" lon="3.0933">
        <ele>37.63</ele>
        <time>2015-09-29T08:23:32Z</time>
      </trkpt>
      <trkpt lat="50.3174" lon="3.09329">
        <ele>36.19</ele>
        <time>2015-09-29T08:23:54Z</time>
      </trkpt>
      <trkpt lat="50.3174" lon="3.0933">
        <ele>35.23</ele>
        <time>2015-09-29T08:24:09Z</time>
      </trkpt>
      <trkpt lat="50.31741" lon="3.09329">
        <ele>33.78</ele>
        <time>2015-09-29T08:24:40Z</time>
      </trkpt>
      <trkpt lat="50.31743" lon="3.09328">
        <ele>35.23</ele>
        <time>2015-09-29T08:25:05Z</time>
      </trkpt>
      <trkpt lat="50.31748" lon="3.09324">
        <ele>35.23</ele>
        <time>2015-09-29T08:25:22Z</time>
      </trkpt>
      <trkpt lat="50.31753" lon="3.09312">
        <ele>36.19</ele>
        <time>2015-09-29T08:25:36Z</time>
      </trkpt>
      <trkpt lat="50.31751" lon="3.0931">
        <ele>36.67</ele>
        <time>2015-09-29T08:25:47Z</time>
      </trkpt>
      <trkpt lat="50.31753" lon="3.09307">
        <ele>36.67</ele>
        <time>2015-09-29T08:25:57Z</time>
      </trkpt>
      <trkpt lat="50.31753" lon="3.09307">
        <ele>37.15</ele>
        <time>2015-09-29T08:26:17Z</time>
      </trkpt>
      <trkpt lat="50.31749" lon="3.09309">
        <ele>37.15</ele>
        <time>2015-09-29T08:26:32Z</time>
      </trkpt>
      <trkpt lat="50.31749" lon="3.09309">
        <ele>36.67</ele>
        <time>2015-09-29T08:26:46Z</time>
      </trkpt>
      <trkpt lat="50.31749" lon="3.09308">
        <ele>35.71</ele>
        <time>2015-09-29T08:27:00Z</time>
      </trkpt>
      <trkpt lat="50.31751" lon="3.09305">
        <ele>35.23</ele>
        <time>2015-09-29T08:27:18Z</time>
      </trkpt>
      <trkpt lat="50.31751" lon="3.09303">
        <ele>34.26</ele>
        <time>2015-09-29T08:27:55Z</time>
      </trkpt>
      <trkpt lat="50.31758" lon="3.09314">
        <ele>33.3</ele>
        <time>2015-09-29T08:28:23Z</time>
      </trkpt>
      <trkpt lat="50.31758" lon="3.09315">
        <ele>33.3</ele>
        <time>2015-09-29T08:28:24Z</time>
      </trkpt>
      <trkpt lat="50.31758" lon="3.09309">
        <ele>33.3</ele>
        <time>2015-09-29T08:28:26Z</time>
      </trkpt>
      <trkpt lat="50.3176" lon="3.09306">
        <ele>32.82</ele>
        <time>2015-09-29T08:28:27Z</time>
      </trkpt>
      <trkpt lat="50.31763" lon="3.09301">
        <ele>32.82</ele>
        <time>2015-09-29T08:28:28Z</time>
      </trkpt>
      <trkpt lat="50.31767" lon="3.09296">
        <ele>32.82</ele>
        <time>2015-09-29T08:28:29Z</time>
      </trkpt>
      <trkpt lat="50.3178" lon="3.0928">
        <ele>32.82</ele>
        <time>2015-09-29T08:28:32Z</time>
      </trkpt>
      <trkpt lat="50.31786" lon="3.09275">
        <ele>32.82</ele>
        <time>2015-09-29T08:28:33Z</time>
      </trkpt>
      <trkpt lat="50.31933" lon="3.09357">
        <ele>25.13</ele>
        <time>2015-09-29T08:28:46Z</time>
      </trkpt>
      <trkpt lat="50.3211" lon="3.09497">
        <ele>37.15</ele>
        <time>2015-09-29T08:29:02Z</time>
      </trkpt>
      <trkpt lat="50.32134" lon="3.09515">
        <ele>36.67</ele>
        <time>2015-09-29T08:29:09Z</time>
      </trkpt>
      <trkpt lat="50.32123" lon="3.09517">
        <ele>33.3</ele>
        <time>2015-09-29T08:29:24Z</time>
      </trkpt>
      <trkpt lat="50.32124" lon="3.09515">
        <ele>34.74</ele>
        <time>2015-09-29T08:29:29Z</time>
      </trkpt>
      <trkpt lat="50.32125" lon="3.09513">
        <ele>35.23</ele>
        <time>2015-09-29T08:29:30Z</time>
      </trkpt>
      <trkpt lat="50.32138" lon="3.09494">
        <ele>34.74</ele>
        <time>2015-09-29T08:29:34Z</time>
      </trkpt>
      <trkpt lat="50.32146" lon="3.0949">
        <ele>33.78</ele>
        <time>2015-09-29T08:29:35Z</time>
      </trkpt>
      <trkpt lat="50.32317" lon="3.09473">
        <ele>41.47</ele>
        <time>2015-09-29T08:29:43Z</time>
      </trkpt>
      <trkpt lat="50.3257" lon="3.09521">
        <ele>57.34</ele>
        <time>2015-09-29T08:29:56Z</time>
      </trkpt>
      <trkpt lat="50.32934" lon="3.09527">
        <ele>72.24</ele>
        <time>2015-09-29T08:30:12Z</time>
      </trkpt>
      <trkpt lat="50.33268" lon="3.09509">
        <ele>80.41</ele>
        <time>2015-09-29T08:30:28Z</time>
      </trkpt>
      <trkpt lat="50.33325" lon="3.09503">
        <ele>82.33</ele>
        <time>2015-09-29T08:30:34Z</time>
      </trkpt>
      <trkpt lat="50.33375" lon="3.095">
        <ele>88.58</ele>
        <time>2015-09-29T08:30:45Z</time>
      </trkpt>
      <trkpt lat="50.33463" lon="3.09501">
        <ele>87.14</ele>
        <time>2015-09-29T08:31:04Z</time>
      </trkpt>
      <trkpt lat="50.33532" lon="3.09498">
        <ele>86.18</ele>
        <time>2015-09-29T08:31:17Z</time>
      </trkpt>
      <trkpt lat="50.33635" lon="3.09486">
        <ele>89.06</ele>
        <time>2015-09-29T08:31:26Z</time>
      </trkpt>
      <trkpt lat="50.33753" lon="3.09461">
        <ele>83.29</ele>
        <time>2015-09-29T08:31:37Z</time>
      </trkpt>
      <trkpt lat="50.33821" lon="3.09453">
        <ele>80.41</ele>
        <time>2015-09-29T08:31:48Z</time>
      </trkpt>
      <trkpt lat="50.33829" lon="3.09456">
        <ele>79.93</ele>
        <time>2015-09-29T08:31:49Z</time>
      </trkpt>
      <trkpt lat="50.33835" lon="3.0946">
        <ele>78.97</ele>
        <time>2015-09-29T08:31:50Z</time>
      </trkpt>
      <trkpt lat="50.33841" lon="3.09465">
        <ele>78.97</ele>
        <time>2015-09-29T08:31:51Z</time>
      </trkpt>
      <trkpt lat="50.33846" lon="3.0947">
        <ele>78.48</ele>
        <time>2015-09-29T08:31:52Z</time>
      </trkpt>
      <trkpt lat="50.33851" lon="3.09477">
        <ele>78</ele>
        <time>2015-09-29T08:31:53Z</time>
      </trkpt>
      <trkpt lat="50.33855" lon="3.09486">
        <ele>77.52</ele>
        <time>2015-09-29T08:31:54Z</time>
      </trkpt>
      <trkpt lat="50.33859" lon="3.09496">
        <ele>77.52</ele>
        <time>2015-09-29T08:31:55Z</time>
      </trkpt>
      <trkpt lat="50.33864" lon="3.09508">
        <ele>77.04</ele>
        <time>2015-09-29T08:31:56Z</time>
      </trkpt>
      <trkpt lat="50.33885" lon="3.0957">
        <ele>73.2</ele>
        <time>2015-09-29T08:31:59Z</time>
      </trkpt>
      <trkpt lat="50.33944" lon="3.09665">
        <ele>71.27</ele>
        <time>2015-09-29T08:32:05Z</time>
      </trkpt>
      <trkpt lat="50.33957" lon="3.09703">
        <ele>69.83</ele>
        <time>2015-09-29T08:32:11Z</time>
      </trkpt>
      <trkpt lat="50.33958" lon="3.09748">
        <ele>68.87</ele>
        <time>2015-09-29T08:32:18Z</time>
      </trkpt>
      <trkpt lat="50.3396" lon="3.09761">
        <ele>68.39</ele>
        <time>2015-09-29T08:32:19Z</time>
      </trkpt>
      <trkpt lat="50.33963" lon="3.09772">
        <ele>68.39</ele>
        <time>2015-09-29T08:32:20Z</time>
      </trkpt>
      <trkpt lat="50.33967" lon="3.09781">
        <ele>67.91</ele>
        <time>2015-09-29T08:32:21Z</time>
      </trkpt>
      <trkpt lat="50.33972" lon="3.09789">
        <ele>67.43</ele>
        <time>2015-09-29T08:32:22Z</time>
      </trkpt>
      <trkpt lat="50.33977" lon="3.09793">
        <ele>66.95</ele>
        <time>2015-09-29T08:32:23Z</time>
      </trkpt>
      <trkpt lat="50.33983" lon="3.09793">
        <ele>66.95</ele>
        <time>2015-09-29T08:32:24Z</time>
      </trkpt>
      <trkpt lat="50.33988" lon="3.09789">
        <ele>66.47</ele>
        <time>2015-09-29T08:32:25Z</time>
      </trkpt>
      <trkpt lat="50.33994" lon="3.09784">
        <ele>66.47</ele>
        <time>2015-09-29T08:32:26Z</time>
      </trkpt>
      <trkpt lat="50.34" lon="3.09778">
        <ele>65.99</ele>
        <time>2015-09-29T08:32:27Z</time>
      </trkpt>
      <trkpt lat="50.34006" lon="3.0977">
        <ele>65.51</ele>
        <time>2015-09-29T08:32:28Z</time>
      </trkpt>
      <trkpt lat="50.3401" lon="3.09762">
        <ele>65.03</ele>
        <time>2015-09-29T08:32:29Z</time>
      </trkpt>
      <trkpt lat="50.34014" lon="3.09751">
        <ele>64.07</ele>
        <time>2015-09-29T08:32:30Z</time>
      </trkpt>
      <trkpt lat="50.34017" lon="3.09739">
        <ele>64.07</ele>
        <time>2015-09-29T08:32:31Z</time>
      </trkpt>
      <trkpt lat="50.34023" lon="3.09725">
        <ele>63.58</ele>
        <time>2015-09-29T08:32:32Z</time>
      </trkpt>
      <trkpt lat="50.3403" lon="3.0971">
        <ele>63.1</ele>
        <time>2015-09-29T08:32:33Z</time>
      </trkpt>
      <trkpt lat="50.3404" lon="3.09696">
        <ele>62.62</ele>
        <time>2015-09-29T08:32:34Z</time>
      </trkpt>
      <trkpt lat="50.34134" lon="3.09595">
        <ele>59.74</ele>
        <time>2015-09-29T08:32:41Z</time>
      </trkpt>
      <trkpt lat="50.34268" lon="3.09455">
        <ele>58.3</ele>
        <time>2015-09-29T08:32:53Z</time>
      </trkpt>
      <trkpt lat="50.3438" lon="3.09339">
        <ele>55.89</ele>
        <time>2015-09-29T08:33:06Z</time>
      </trkpt>
      <trkpt lat="50.34407" lon="3.09318">
        <ele>54.93</ele>
        <time>2015-09-29T08:33:10Z</time>
      </trkpt>
      <trkpt lat="50.34432" lon="3.09306">
        <ele>54.45</ele>
        <time>2015-09-29T08:33:14Z</time>
      </trkpt>
      <trkpt lat="50.34438" lon="3.093">
        <ele>54.45</ele>
        <time>2015-09-29T08:33:15Z</time>
      </trkpt>
      <trkpt lat="50.34505" lon="3.09221">
        <ele>50.61</ele>
        <time>2015-09-29T08:33:23Z</time>
      </trkpt>
      <trkpt lat="50.34598" lon="3.09124">
        <ele>48.2</ele>
        <time>2015-09-29T08:33:33Z</time>
      </trkpt>
      <trkpt lat="50.34701" lon="3.09032">
        <ele>45.8</ele>
        <time>2015-09-29T08:33:48Z</time>
      </trkpt>
      <trkpt lat="50.34747" lon="3.09016">
        <ele>45.8</ele>
        <time>2015-09-29T08:33:57Z</time>
      </trkpt>
      <trkpt lat="50.34755" lon="3.09026">
        <ele>45.8</ele>
        <time>2015-09-29T08:33:58Z</time>
      </trkpt>
      <trkpt lat="50.34762" lon="3.09039">
        <ele>45.32</ele>
        <time>2015-09-29T08:33:59Z</time>
      </trkpt>
      <trkpt lat="50.34768" lon="3.09052">
        <ele>45.32</ele>
        <time>2015-09-29T08:34:00Z</time>
      </trkpt>
      <trkpt lat="50.34773" lon="3.09068">
        <ele>44.84</ele>
        <time>2015-09-29T08:34:01Z</time>
      </trkpt>
      <trkpt lat="50.34776" lon="3.0908">
        <ele>44.36</ele>
        <time>2015-09-29T08:34:02Z</time>
      </trkpt>
      <trkpt lat="50.34779" lon="3.09093">
        <ele>43.88</ele>
        <time>2015-09-29T08:34:03Z</time>
      </trkpt>
      <trkpt lat="50.34782" lon="3.09117">
        <ele>42.92</ele>
        <time>2015-09-29T08:34:05Z</time>
      </trkpt>
      <trkpt lat="50.34782" lon="3.09126">
        <ele>42.44</ele>
        <time>2015-09-29T08:34:06Z</time>
      </trkpt>
      <trkpt lat="50.34761" lon="3.09171">
        <ele>40.51</ele>
        <time>2015-09-29T08:34:16Z</time>
      </trkpt>
      <trkpt lat="50.34736" lon="3.09171">
        <ele>38.11</ele>
        <time>2015-09-29T08:34:30Z</time>
      </trkpt>
      <trkpt lat="50.34731" lon="3.09163">
        <ele>38.11</ele>
        <time>2015-09-29T08:34:50Z</time>
      </trkpt>
      <trkpt lat="50.34737" lon="3.09166">
        <ele>37.15</ele>
        <time>2015-09-29T08:35:07Z</time>
      </trkpt>
      <trkpt lat="50.34742" lon="3.09183">
        <ele>31.38</ele>
        <time>2015-09-29T08:35:21Z</time>
      </trkpt>
      <trkpt lat="50.34744" lon="3.09191">
        <ele>28.5</ele>
        <time>2015-09-29T08:35:26Z</time>
      </trkpt>
      <trkpt lat="50.34743" lon="3.09207">
        <ele>23.69</ele>
        <time>2015-09-29T08:35:39Z</time>
      </trkpt>
      <trkpt lat="50.34741" lon="3.09196">
        <ele>45.8</ele>
        <time>2015-09-29T08:41:36Z</time>
      </trkpt>
      <trkpt lat="50.34733" lon="3.09183">
        <ele>60.22</ele>
        <time>2015-09-29T08:42:07Z</time>
      </trkpt>
      <trkpt lat="50.34736" lon="3.09192">
        <ele>54.45</ele>
        <time>2015-09-29T08:42:32Z</time>
      </trkpt>
      <trkpt lat="50.34736" lon="3.09194">
        <ele>51.09</ele>
        <time>2015-09-29T08:42:52Z</time>
      </trkpt>
      <trkpt lat="50.34736" lon="3.09195">
        <ele>52.05</ele>
        <time>2015-09-29T08:43:21Z</time>
      </trkpt>
      <trkpt lat="50.34736" lon="3.09194">
        <ele>50.61</ele>
        <time>2015-09-29T08:43:52Z</time>
      </trkpt>
      <trkpt lat="50.34738" lon="3.09195">
        <ele>50.13</ele>
        <time>2015-09-29T08:44:19Z</time>
      </trkpt>
      <trkpt lat="50.34736" lon="3.09197">
        <ele>49.16</ele>
        <time>2015-09-29T08:44:40Z</time>
      </trkpt>
      <trkpt lat="50.34733" lon="3.09209">
        <ele>48.2</ele>
        <time>2015-09-29T08:44:52Z</time>
      </trkpt>
      <trkpt lat="50.34733" lon="3.09211">
        <ele>47.72</ele>
        <time>2015-09-29T08:44:54Z</time>
      </trkpt>
      <trkpt lat="50.3473" lon="3.09202">
        <ele>47.24</ele>
        <time>2015-09-29T08:47:14Z</time>
      </trkpt>
      <trkpt lat="50.34728" lon="3.09173">
        <ele>53.49</ele>
        <time>2015-09-29T08:47:20Z</time>
      </trkpt>
      <trkpt lat="50.34733" lon="3.09165">
        <ele>40.99</ele>
        <time>2015-09-29T08:47:35Z</time>
      </trkpt>
      <trkpt lat="50.34733" lon="3.09157">
        <ele>39.07</ele>
        <time>2015-09-29T08:47:49Z</time>
      </trkpt>
      <trkpt lat="50.34733" lon="3.09156">
        <ele>39.07</ele>
        <time>2015-09-29T08:48:10Z</time>
      </trkpt>
      <trkpt lat="50.34738" lon="3.09154">
        <ele>39.55</ele>
        <time>2015-09-29T08:48:31Z</time>
      </trkpt>
      <trkpt lat="50.34739" lon="3.09149">
        <ele>39.55</ele>
        <time>2015-09-29T08:48:33Z</time>
      </trkpt>
      <trkpt lat="50.34762" lon="3.09123">
        <ele>37.63</ele>
        <time>2015-09-29T08:48:44Z</time>
      </trkpt>
      <trkpt lat="50.34771" lon="3.09129">
        <ele>37.15</ele>
        <time>2015-09-29T08:49:00Z</time>
      </trkpt>
      <trkpt lat="50.34773" lon="3.09125">
        <ele>37.63</ele>
        <time>2015-09-29T08:49:01Z</time>
      </trkpt>
      <trkpt lat="50.34774" lon="3.09117">
        <ele>36.19</ele>
        <time>2015-09-29T08:49:02Z</time>
      </trkpt>
      <trkpt lat="50.34774" lon="3.09109">
        <ele>35.71</ele>
        <time>2015-09-29T08:49:03Z</time>
      </trkpt>
      <trkpt lat="50.34775" lon="3.091">
        <ele>34.74</ele>
        <time>2015-09-29T08:49:04Z</time>
      </trkpt>
      <trkpt lat="50.34775" lon="3.0909">
        <ele>34.26</ele>
        <time>2015-09-29T08:49:05Z</time>
      </trkpt>
      <trkpt lat="50.34774" lon="3.0908">
        <ele>33.78</ele>
        <time>2015-09-29T08:49:06Z</time>
      </trkpt>
      <trkpt lat="50.34772" lon="3.09068">
        <ele>33.3</ele>
        <time>2015-09-29T08:49:07Z</time>
      </trkpt>
      <trkpt lat="50.34769" lon="3.09056">
        <ele>32.82</ele>
        <time>2015-09-29T08:49:08Z</time>
      </trkpt>
      <trkpt lat="50.34764" lon="3.09031">
        <ele>31.86</ele>
        <time>2015-09-29T08:49:10Z</time>
      </trkpt>
      <trkpt lat="50.34762" lon="3.09016">
        <ele>31.38</ele>
        <time>2015-09-29T08:49:11Z</time>
      </trkpt>
      <trkpt lat="50.34761" lon="3.09">
        <ele>30.9</ele>
        <time>2015-09-29T08:49:12Z</time>
      </trkpt>
      <trkpt lat="50.34762" lon="3.08985">
        <ele>30.42</ele>
        <time>2015-09-29T08:49:13Z</time>
      </trkpt>
      <trkpt lat="50.34765" lon="3.08966">
        <ele>29.94</ele>
        <time>2015-09-29T08:49:14Z</time>
      </trkpt>
      <trkpt lat="50.34769" lon="3.08946">
        <ele>28.98</ele>
        <time>2015-09-29T08:49:15Z</time>
      </trkpt>
      <trkpt lat="50.34773" lon="3.08929">
        <ele>28.02</ele>
        <time>2015-09-29T08:49:16Z</time>
      </trkpt>
      <trkpt lat="50.34779" lon="3.08911">
        <ele>27.05</ele>
        <time>2015-09-29T08:49:17Z</time>
      </trkpt>
      <trkpt lat="50.34786" lon="3.08894">
        <ele>26.09</ele>
        <time>2015-09-29T08:49:18Z</time>
      </trkpt>
      <trkpt lat="50.34795" lon="3.08877">
        <ele>25.13</ele>
        <time>2015-09-29T08:49:19Z</time>
      </trkpt>
      <trkpt lat="50.34803" lon="3.08861">
        <ele>24.17</ele>
        <time>2015-09-29T08:49:20Z</time>
      </trkpt>
      <trkpt lat="50.34886" lon="3.08845">
        <ele>36.67</ele>
        <time>2015-09-29T08:49:23Z</time>
      </trkpt>
      <trkpt lat="50.35048" lon="3.0871">
        <ele>48.68</ele>
        <time>2015-09-29T08:49:37Z</time>
      </trkpt>
      <trkpt lat="50.35185" lon="3.08606">
        <ele>48.2</ele>
        <time>2015-09-29T08:49:50Z</time>
      </trkpt>
      <trkpt lat="50.35277" lon="3.08542">
        <ele>44.36</ele>
        <time>2015-09-29T08:50:00Z</time>
      </trkpt>
      <trkpt lat="50.35297" lon="3.08537">
        <ele>47.24</ele>
        <time>2015-09-29T08:50:08Z</time>
      </trkpt>
      <trkpt lat="50.35307" lon="3.08525">
        <ele>45.8</ele>
        <time>2015-09-29T08:50:28Z</time>
      </trkpt>
      <trkpt lat="50.35306" lon="3.08522">
        <ele>44.84</ele>
        <time>2015-09-29T08:50:31Z</time>
      </trkpt>
      <trkpt lat="50.35307" lon="3.0852">
        <ele>44.36</ele>
        <time>2015-09-29T08:50:32Z</time>
      </trkpt>
      <trkpt lat="50.35349" lon="3.08488">
        <ele>44.36</ele>
        <time>2015-09-29T08:50:40Z</time>
      </trkpt>
      <trkpt lat="50.35424" lon="3.08421">
        <ele>40.99</ele>
        <time>2015-09-29T08:50:49Z</time>
      </trkpt>
      <trkpt lat="50.35433" lon="3.08403">
        <ele>40.99</ele>
        <time>2015-09-29T08:50:50Z</time>
      </trkpt>
      <trkpt lat="50.35471" lon="3.08332">
        <ele>39.55</ele>
        <time>2015-09-29T08:50:54Z</time>
      </trkpt>
      <trkpt lat="50.35483" lon="3.08317">
        <ele>39.07</ele>
        <time>2015-09-29T08:50:55Z</time>
      </trkpt>
      <trkpt lat="50.35496" lon="3.08302">
        <ele>39.55</ele>
        <time>2015-09-29T08:50:56Z</time>
      </trkpt>
      <trkpt lat="50.35625" lon="3.0818">
        <ele>40.03</ele>
        <time>2015-09-29T08:51:08Z</time>
      </trkpt>
      <trkpt lat="50.35721" lon="3.08135">
        <ele>39.07</ele>
        <time>2015-09-29T08:51:16Z</time>
      </trkpt>
      <trkpt lat="50.35817" lon="3.0811">
        <ele>37.15</ele>
        <time>2015-09-29T08:51:24Z</time>
      </trkpt>
      <trkpt lat="50.35825" lon="3.08104">
        <ele>37.15</ele>
        <time>2015-09-29T08:51:25Z</time>
      </trkpt>
      <trkpt lat="50.35831" lon="3.08096">
        <ele>36.67</ele>
        <time>2015-09-29T08:51:26Z</time>
      </trkpt>
      <trkpt lat="50.3584" lon="3.08087">
        <ele>36.67</ele>
        <time>2015-09-29T08:51:28Z</time>
      </trkpt>
      <trkpt lat="50.35843" lon="3.08084">
        <ele>37.15</ele>
        <time>2015-09-29T08:51:29Z</time>
      </trkpt>
      <trkpt lat="50.35846" lon="3.08083">
        <ele>37.15</ele>
        <time>2015-09-29T08:51:30Z</time>
      </trkpt>
      <trkpt lat="50.35848" lon="3.08082">
        <ele>37.63</ele>
        <time>2015-09-29T08:51:31Z</time>
      </trkpt>
      <trkpt lat="50.35849" lon="3.08082">
        <ele>38.11</ele>
        <time>2015-09-29T08:51:32Z</time>
      </trkpt>
      <trkpt lat="50.35851" lon="3.08082">
        <ele>38.11</ele>
        <time>2015-09-29T08:51:33Z</time>
      </trkpt>
      <trkpt lat="50.35851" lon="3.0808">
        <ele>40.03</ele>
        <time>2015-09-29T08:51:41Z</time>
      </trkpt>
      <trkpt lat="50.35861" lon="3.08074">
        <ele>39.07</ele>
        <time>2015-09-29T08:51:47Z</time>
      </trkpt>
      <trkpt lat="50.35868" lon="3.0808">
        <ele>38.59</ele>
        <time>2015-09-29T08:51:48Z</time>
      </trkpt>
      <trkpt lat="50.35873" lon="3.08085">
        <ele>38.11</ele>
        <time>2015-09-29T08:51:49Z</time>
      </trkpt>
      <trkpt lat="50.35879" lon="3.08092">
        <ele>38.11</ele>
        <time>2015-09-29T08:51:50Z</time>
      </trkpt>
      <trkpt lat="50.35885" lon="3.081">
        <ele>38.59</ele>
        <time>2015-09-29T08:51:51Z</time>
      </trkpt>
      <trkpt lat="50.35979" lon="3.0825">
        <ele>38.11</ele>
        <time>2015-09-29T08:52:06Z</time>
      </trkpt>
      <trkpt lat="50.36066" lon="3.0839">
        <ele>39.55</ele>
        <time>2015-09-29T08:52:21Z</time>
      </trkpt>
      <trkpt lat="50.36136" lon="3.08533">
        <ele>37.63</ele>
        <time>2015-09-29T08:52:33Z</time>
      </trkpt>
      <trkpt lat="50.36209" lon="3.08654">
        <ele>38.11</ele>
        <time>2015-09-29T08:52:45Z</time>
      </trkpt>
      <trkpt lat="50.36214" lon="3.08658">
        <ele>38.11</ele>
        <time>2015-09-29T08:52:46Z</time>
      </trkpt>
      <trkpt lat="50.36263" lon="3.08725">
        <ele>38.11</ele>
        <time>2015-09-29T08:52:57Z</time>
      </trkpt>
      <trkpt lat="50.3631" lon="3.08811">
        <ele>38.59</ele>
        <time>2015-09-29T08:53:06Z</time>
      </trkpt>
      <trkpt lat="50.36314" lon="3.08815">
        <ele>38.59</ele>
        <time>2015-09-29T08:53:07Z</time>
      </trkpt>
      <trkpt lat="50.36319" lon="3.08819">
        <ele>38.59</ele>
        <time>2015-09-29T08:53:08Z</time>
      </trkpt>
      <trkpt lat="50.36333" lon="3.08827">
        <ele>38.59</ele>
        <time>2015-09-29T08:53:11Z</time>
      </trkpt>
      <trkpt lat="50.3637" lon="3.08907">
        <ele>39.55</ele>
        <time>2015-09-29T08:53:22Z</time>
      </trkpt>
      <trkpt lat="50.3647" lon="3.09082">
        <ele>39.55</ele>
        <time>2015-09-29T08:53:35Z</time>
      </trkpt>
      <trkpt lat="50.36475" lon="3.09092">
        <ele>39.07</ele>
        <time>2015-09-29T08:53:36Z</time>
      </trkpt>
      <trkpt lat="50.36475" lon="3.09101">
        <ele>39.07</ele>
        <time>2015-09-29T08:53:37Z</time>
      </trkpt>
      <trkpt lat="50.36473" lon="3.0911">
        <ele>39.07</ele>
        <time>2015-09-29T08:53:38Z</time>
      </trkpt>
      <trkpt lat="50.3647" lon="3.09119">
        <ele>39.55</ele>
        <time>2015-09-29T08:53:39Z</time>
      </trkpt>
      <trkpt lat="50.36444" lon="3.09253">
        <ele>39.55</ele>
        <time>2015-09-29T08:53:47Z</time>
      </trkpt>
      <trkpt lat="50.3644" lon="3.09504">
        <ele>39.07</ele>
        <time>2015-09-29T08:53:56Z</time>
      </trkpt>
      <trkpt lat="50.36436" lon="3.09596">
        <ele>38.11</ele>
        <time>2015-09-29T08:54:00Z</time>
      </trkpt>
      <trkpt lat="50.36429" lon="3.0963">
        <ele>37.63</ele>
        <time>2015-09-29T08:54:02Z</time>
      </trkpt>
      <trkpt lat="50.36424" lon="3.09641">
        <ele>36.67</ele>
        <time>2015-09-29T08:54:03Z</time>
      </trkpt>
      <trkpt lat="50.36414" lon="3.09686">
        <ele>35.23</ele>
        <time>2015-09-29T08:54:11Z</time>
      </trkpt>
      <trkpt lat="50.36422" lon="3.09702">
        <ele>34.74</ele>
        <time>2015-09-29T08:54:15Z</time>
      </trkpt>
      <trkpt lat="50.36427" lon="3.09707">
        <ele>34.74</ele>
        <time>2015-09-29T08:54:16Z</time>
      </trkpt>
      <trkpt lat="50.36527" lon="3.09692">
        <ele>30.9</ele>
        <time>2015-09-29T08:54:17Z</time>
      </trkpt>
      <trkpt lat="50.36604" lon="3.09817">
        <ele>21.77</ele>
        <time>2015-09-29T08:54:28Z</time>
      </trkpt>
      <trkpt lat="50.36617" lon="3.09931">
        <ele>15.04</ele>
        <time>2015-09-29T08:54:35Z</time>
      </trkpt>
      <trkpt lat="50.36619" lon="3.09937">
        <ele>13.6</ele>
        <time>2015-09-29T08:54:36Z</time>
      </trkpt>
      <trkpt lat="50.36621" lon="3.0994">
        <ele>12.63</ele>
        <time>2015-09-29T08:54:37Z</time>
      </trkpt>
      <trkpt lat="50.36624" lon="3.0994">
        <ele>11.67</ele>
        <time>2015-09-29T08:54:38Z</time>
      </trkpt>
      <trkpt lat="50.36629" lon="3.09936">
        <ele>10.71</ele>
        <time>2015-09-29T08:54:39Z</time>
      </trkpt>
      <trkpt lat="50.36634" lon="3.09932">
        <ele>9.75</ele>
        <time>2015-09-29T08:54:40Z</time>
      </trkpt>
      <trkpt lat="50.36677" lon="3.09923">
        <ele>2.54</ele>
        <time>2015-09-29T08:54:52Z</time>
      </trkpt>
      <trkpt lat="50.36701" lon="3.0994">
        <ele>-0.82</ele>
        <time>2015-09-29T08:54:58Z</time>
      </trkpt>
      <trkpt lat="50.36721" lon="3.09946">
        <ele>-4.19</ele>
        <time>2015-09-29T08:55:09Z</time>
      </trkpt>
      <trkpt lat="50.36714" lon="3.09947">
        <ele>-2.27</ele>
        <time>2015-09-29T08:55:30Z</time>
      </trkpt>
      <trkpt lat="50.36709" lon="3.09946">
        <ele>2.06</ele>
        <time>2015-09-29T08:55:50Z</time>
      </trkpt>
      <trkpt lat="50.36707" lon="3.09948">
        <ele>5.42</ele>
        <time>2015-09-29T08:56:19Z</time>
      </trkpt>
      <trkpt lat="50.36711" lon="3.09952">
        <ele>6.39</ele>
        <time>2015-09-29T08:56:40Z</time>
      </trkpt>
      <trkpt lat="50.36705" lon="3.09951">
        <ele>15.52</ele>
        <time>2015-09-29T08:56:57Z</time>
      </trkpt>
      <trkpt lat="50.36704" lon="3.09954">
        <ele>18.4</ele>
        <time>2015-09-29T08:57:14Z</time>
      </trkpt>
      <trkpt lat="50.36704" lon="3.09952">
        <ele>17.92</ele>
        <time>2015-09-29T08:57:35Z</time>
      </trkpt>
      <trkpt lat="50.36703" lon="3.0995">
        <ele>21.29</ele>
        <time>2015-09-29T08:57:47Z</time>
      </trkpt>
      <trkpt lat="50.36701" lon="3.09953">
        <ele>21.29</ele>
        <time>2015-09-29T08:58:04Z</time>
      </trkpt>
      <trkpt lat="50.36698" lon="3.09949">
        <ele>26.09</ele>
        <time>2015-09-29T08:58:27Z</time>
      </trkpt>
      <trkpt lat="50.36698" lon="3.09949">
        <ele>27.53</ele>
        <time>2015-09-29T08:58:44Z</time>
      </trkpt>
      <trkpt lat="50.36711" lon="3.09954">
        <ele>26.09</ele>
        <time>2015-09-29T08:59:02Z</time>
      </trkpt>
      <trkpt lat="50.36707" lon="3.09941">
        <ele>24.17</ele>
        <time>2015-09-29T08:59:19Z</time>
      </trkpt>
      <trkpt lat="50.36699" lon="3.09968">
        <ele>22.73</ele>
        <time>2015-09-29T08:59:39Z</time>
      </trkpt>
      <trkpt lat="50.3669" lon="3.09972">
        <ele>19.36</ele>
        <time>2015-09-29T09:00:13Z</time>
      </trkpt>
      <trkpt lat="50.36693" lon="3.09974">
        <ele>17.44</ele>
        <time>2015-09-29T09:00:45Z</time>
      </trkpt>
      <trkpt lat="50.367" lon="3.09969">
        <ele>25.13</ele>
        <time>2015-09-29T09:01:13Z</time>
      </trkpt>
      <trkpt lat="50.36698" lon="3.09964">
        <ele>25.61</ele>
        <time>2015-09-29T09:01:58Z</time>
      </trkpt>
      <trkpt lat="50.367" lon="3.0996">
        <ele>26.09</ele>
        <time>2015-09-29T09:02:27Z</time>
      </trkpt>
      <trkpt lat="50.36703" lon="3.09964">
        <ele>28.5</ele>
        <time>2015-09-29T09:03:09Z</time>
      </trkpt>
      <trkpt lat="50.36702" lon="3.09961">
        <ele>27.05</ele>
        <time>2015-09-29T09:03:54Z</time>
      </trkpt>
      <trkpt lat="50.367" lon="3.0996">
        <ele>27.05</ele>
        <time>2015-09-29T09:04:30Z</time>
      </trkpt>
      <trkpt lat="50.36705" lon="3.09962">
        <ele>27.05</ele>
        <time>2015-09-29T09:05:02Z</time>
      </trkpt>
      <trkpt lat="50.36697" lon="3.09977">
        <ele>26.57</ele>
        <time>2015-09-29T09:05:16Z</time>
      </trkpt>
      <trkpt lat="50.36698" lon="3.09976">
        <ele>25.13</ele>
        <time>2015-09-29T09:05:50Z</time>
      </trkpt>
      <trkpt lat="50.36699" lon="3.09978">
        <ele>27.53</ele>
        <time>2015-09-29T09:06:26Z</time>
      </trkpt>
      <trkpt lat="50.36692" lon="3.09976">
        <ele>29.46</ele>
        <time>2015-09-29T09:07:01Z</time>
      </trkpt>
      <trkpt lat="50.36695" lon="3.09975">
        <ele>24.17</ele>
        <time>2015-09-29T09:07:31Z</time>
      </trkpt>
      <trkpt lat="50.36697" lon="3.09974">
        <ele>23.69</ele>
        <time>2015-09-29T09:08:03Z</time>
      </trkpt>
      <trkpt lat="50.367" lon="3.09972">
        <ele>25.13</ele>
        <time>2015-09-29T09:08:34Z</time>
      </trkpt>
      <trkpt lat="50.36702" lon="3.09967">
        <ele>27.05</ele>
        <time>2015-09-29T09:09:07Z</time>
      </trkpt>
      <trkpt lat="50.36699" lon="3.09976">
        <ele>27.53</ele>
        <time>2015-09-29T09:09:30Z</time>
      </trkpt>
      <trkpt lat="50.36697" lon="3.09975">
        <ele>24.65</ele>
        <time>2015-09-29T09:10:01Z</time>
      </trkpt>
      <trkpt lat="50.36694" lon="3.09976">
        <ele>23.21</ele>
        <time>2015-09-29T09:10:33Z</time>
      </trkpt>
      <trkpt lat="50.36696" lon="3.09974">
        <ele>23.69</ele>
        <time>2015-09-29T09:11:06Z</time>
      </trkpt>
      <trkpt lat="50.36694" lon="3.09975">
        <ele>22.25</ele>
        <time>2015-09-29T09:11:39Z</time>
      </trkpt>
      <trkpt lat="50.36698" lon="3.09975">
        <ele>27.05</ele>
        <time>2015-09-29T09:12:10Z</time>
      </trkpt>
      <trkpt lat="50.36694" lon="3.09976">
        <ele>26.57</ele>
        <time>2015-09-29T09:12:46Z</time>
      </trkpt>
      <trkpt lat="50.36695" lon="3.09976">
        <ele>25.61</ele>
        <time>2015-09-29T09:13:17Z</time>
      </trkpt>
      <trkpt lat="50.36694" lon="3.09974">
        <ele>25.61</ele>
        <time>2015-09-29T09:13:52Z</time>
      </trkpt>
      <trkpt lat="50.36691" lon="3.09976">
        <ele>25.13</ele>
        <time>2015-09-29T09:14:32Z</time>
      </trkpt>
      <trkpt lat="50.36694" lon="3.09974">
        <ele>26.57</ele>
        <time>2015-09-29T09:15:07Z</time>
      </trkpt>
      <trkpt lat="50.36695" lon="3.09976">
        <ele>26.09</ele>
        <time>2015-09-29T09:15:45Z</time>
      </trkpt>
      <trkpt lat="50.36693" lon="3.09976">
        <ele>25.61</ele>
        <time>2015-09-29T09:16:24Z</time>
      </trkpt>
      <trkpt lat="50.36693" lon="3.09978">
        <ele>26.09</ele>
        <time>2015-09-29T09:16:57Z</time>
      </trkpt>
      <trkpt lat="50.36695" lon="3.09977">
        <ele>27.53</ele>
        <time>2015-09-29T09:17:33Z</time>
      </trkpt>
      <trkpt lat="50.36695" lon="3.09977">
        <ele>29.94</ele>
        <time>2015-09-29T09:18:09Z</time>
      </trkpt>
      <trkpt lat="50.36692" lon="3.09979">
        <ele>30.9</ele>
        <time>2015-09-29T09:18:51Z</time>
      </trkpt>
      <trkpt lat="50.36691" lon="3.0998">
        <ele>30.42</ele>
        <time>2015-09-29T09:19:29Z</time>
      </trkpt>
      <trkpt lat="50.36694" lon="3.09976">
        <ele>28.5</ele>
        <time>2015-09-29T09:20:08Z</time>
      </trkpt>
      <trkpt lat="50.36693" lon="3.09978">
        <ele>28.5</ele>
        <time>2015-09-29T09:20:45Z</time>
      </trkpt>
      <trkpt lat="50.36695" lon="3.09977">
        <ele>27.53</ele>
        <time>2015-09-29T09:21:21Z</time>
      </trkpt>
      <trkpt lat="50.36693" lon="3.09979">
        <ele>28.02</ele>
        <time>2015-09-29T09:21:48Z</time>
      </trkpt>
      <trkpt lat="50.36694" lon="3.09972">
        <ele>21.29</ele>
        <time>2015-09-29T09:22:18Z</time>
      </trkpt>
      <trkpt lat="50.36695" lon="3.09966">
        <ele>16.96</ele>
        <time>2015-09-29T09:22:52Z</time>
      </trkpt>
      <trkpt lat="50.36694" lon="3.09978">
        <ele>27.05</ele>
        <time>2015-09-29T09:23:26Z</time>
      </trkpt>
      <trkpt lat="50.36695" lon="3.09979">
        <ele>28.5</ele>
        <time>2015-09-29T09:23:57Z</time>
      </trkpt>
      <trkpt lat="50.36695" lon="3.09977">
        <ele>27.53</ele>
        <time>2015-09-29T09:24:34Z</time>
      </trkpt>
      <trkpt lat="50.36697" lon="3.0998">
        <ele>21.77</ele>
        <time>2015-09-29T09:25:17Z</time>
      </trkpt>
      <trkpt lat="50.36698" lon="3.09977">
        <ele>22.25</ele>
        <time>2015-09-29T09:26:01Z</time>
      </trkpt>
      <trkpt lat="50.36695" lon="3.09972">
        <ele>21.77</ele>
        <time>2015-09-29T09:26:41Z</time>
      </trkpt>
      <trkpt lat="50.36699" lon="3.09974">
        <ele>30.42</ele>
        <time>2015-09-29T09:27:24Z</time>
      </trkpt>
      <trkpt lat="50.36702" lon="3.09973">
        <ele>31.38</ele>
        <time>2015-09-29T09:27:58Z</time>
      </trkpt>
      <trkpt lat="50.36698" lon="3.09977">
        <ele>31.38</ele>
        <time>2015-09-29T09:28:41Z</time>
      </trkpt>
      <trkpt lat="50.36698" lon="3.09976">
        <ele>29.94</ele>
        <time>2015-09-29T09:29:20Z</time>
      </trkpt>
      <trkpt lat="50.36697" lon="3.09984">
        <ele>35.71</ele>
        <time>2015-09-29T09:30:00Z</time>
      </trkpt>
      <trkpt lat="50.36697" lon="3.09978">
        <ele>35.71</ele>
        <time>2015-09-29T09:30:38Z</time>
      </trkpt>
      <trkpt lat="50.36693" lon="3.09977">
        <ele>28.02</ele>
        <time>2015-09-29T09:31:22Z</time>
      </trkpt>
      <trkpt lat="50.36695" lon="3.09978">
        <ele>32.34</ele>
        <time>2015-09-29T09:32:09Z</time>
      </trkpt>
      <trkpt lat="50.36696" lon="3.0998">
        <ele>34.26</ele>
        <time>2015-09-29T09:32:53Z</time>
      </trkpt>
      <trkpt lat="50.36695" lon="3.09975">
        <ele>33.78</ele>
        <time>2015-09-29T09:33:37Z</time>
      </trkpt>
      <trkpt lat="50.36694" lon="3.09975">
        <ele>28.98</ele>
        <time>2015-09-29T09:34:18Z</time>
      </trkpt>
      <trkpt lat="50.36697" lon="3.09977">
        <ele>29.46</ele>
        <time>2015-09-29T09:35:02Z</time>
      </trkpt>
      <trkpt lat="50.36696" lon="3.09975">
        <ele>30.9</ele>
        <time>2015-09-29T09:35:40Z</time>
      </trkpt>
      <trkpt lat="50.36694" lon="3.09972">
        <ele>31.38</ele>
        <time>2015-09-29T09:36:25Z</time>
      </trkpt>
      <trkpt lat="50.36693" lon="3.09975">
        <ele>34.74</ele>
        <time>2015-09-29T09:37:01Z</time>
      </trkpt>
      <trkpt lat="50.36694" lon="3.09973">
        <ele>32.34</ele>
        <time>2015-09-29T09:37:43Z</time>
      </trkpt>
      <trkpt lat="50.36695" lon="3.09978">
        <ele>29.46</ele>
        <time>2015-09-29T09:38:26Z</time>
      </trkpt>
      <trkpt lat="50.36694" lon="3.09982">
        <ele>33.78</ele>
        <time>2015-09-29T09:39:11Z</time>
      </trkpt>
      <trkpt lat="50.36694" lon="3.0998">
        <ele>36.67</ele>
        <time>2015-09-29T09:39:56Z</time>
      </trkpt>
      <trkpt lat="50.36694" lon="3.09975">
        <ele>37.15</ele>
        <time>2015-09-29T09:40:41Z</time>
      </trkpt>
      <trkpt lat="50.36692" lon="3.09979">
        <ele>30.9</ele>
        <time>2015-09-29T09:41:26Z</time>
      </trkpt>
      <trkpt lat="50.36693" lon="3.09982">
        <ele>30.42</ele>
        <time>2015-09-29T09:42:06Z</time>
      </trkpt>
      <trkpt lat="50.3669" lon="3.09978">
        <ele>29.46</ele>
        <time>2015-09-29T09:42:41Z</time>
      </trkpt>
      <trkpt lat="50.36695" lon="3.09976">
        <ele>27.53</ele>
        <time>2015-09-29T09:43:22Z</time>
      </trkpt>
      <trkpt lat="50.36695" lon="3.09979">
        <ele>28.5</ele>
        <time>2015-09-29T09:44:02Z</time>
      </trkpt>
      <trkpt lat="50.36693" lon="3.09977">
        <ele>26.09</ele>
        <time>2015-09-29T09:44:40Z</time>
      </trkpt>
      <trkpt lat="50.36694" lon="3.09979">
        <ele>32.34</ele>
        <time>2015-09-29T09:45:22Z</time>
      </trkpt>
      <trkpt lat="50.36696" lon="3.09974">
        <ele>30.9</ele>
        <time>2015-09-29T09:46:07Z</time>
      </trkpt>
      <trkpt lat="50.36695" lon="3.09973">
        <ele>30.9</ele>
        <time>2015-09-29T09:46:48Z</time>
      </trkpt>
      <trkpt lat="50.36693" lon="3.09976">
        <ele>29.46</ele>
        <time>2015-09-29T09:47:26Z</time>
      </trkpt>
      <trkpt lat="50.36696" lon="3.09975">
        <ele>28.02</ele>
        <time>2015-09-29T09:47:58Z</time>
      </trkpt>
      <trkpt lat="50.36698" lon="3.09973">
        <ele>28.5</ele>
        <time>2015-09-29T09:48:37Z</time>
      </trkpt>
      <trkpt lat="50.36699" lon="3.09976">
        <ele>29.46</ele>
        <time>2015-09-29T09:49:17Z</time>
      </trkpt>
      <trkpt lat="50.36693" lon="3.09977">
        <ele>30.9</ele>
        <time>2015-09-29T09:50:01Z</time>
      </trkpt>
      <trkpt lat="50.36692" lon="3.09978">
        <ele>30.42</ele>
        <time>2015-09-29T09:50:35Z</time>
      </trkpt>
      <trkpt lat="50.36693" lon="3.09985">
        <ele>31.38</ele>
        <time>2015-09-29T09:51:17Z</time>
      </trkpt>
      <trkpt lat="50.36691" lon="3.09986">
        <ele>32.82</ele>
        <time>2015-09-29T09:51:53Z</time>
      </trkpt>
      <trkpt lat="50.36696" lon="3.09983">
        <ele>33.3</ele>
        <time>2015-09-29T09:52:25Z</time>
      </trkpt>
      <trkpt lat="50.36704" lon="3.09972">
        <ele>33.78</ele>
        <time>2015-09-29T09:52:38Z</time>
      </trkpt>
      <trkpt lat="50.36698" lon="3.09957">
        <ele>33.78</ele>
        <time>2015-09-29T09:53:27Z</time>
      </trkpt>
      <trkpt lat="50.36694" lon="3.09975">
        <ele>35.23</ele>
        <time>2015-09-29T09:53:49Z</time>
      </trkpt>
      <trkpt lat="50.36697" lon="3.09975">
        <ele>30.42</ele>
        <time>2015-09-29T09:54:14Z</time>
      </trkpt>
      <trkpt lat="50.36698" lon="3.09969">
        <ele>28.98</ele>
        <time>2015-09-29T09:54:34Z</time>
      </trkpt>
      <trkpt lat="50.36698" lon="3.09964">
        <ele>31.38</ele>
        <time>2015-09-29T09:54:55Z</time>
      </trkpt>
      <trkpt lat="50.36707" lon="3.09955">
        <ele>33.3</ele>
        <time>2015-09-29T09:55:18Z</time>
      </trkpt>
      <trkpt lat="50.36704" lon="3.09957">
        <ele>35.71</ele>
        <time>2015-09-29T09:55:48Z</time>
      </trkpt>
      <trkpt lat="50.36705" lon="3.09959">
        <ele>36.67</ele>
        <time>2015-09-29T09:56:23Z</time>
      </trkpt>
      <trkpt lat="50.36698" lon="3.09956">
        <ele>36.19</ele>
        <time>2015-09-29T09:57:07Z</time>
      </trkpt>
      <trkpt lat="50.36703" lon="3.09965">
        <ele>37.15</ele>
        <time>2015-09-29T09:57:44Z</time>
      </trkpt>
      <trkpt lat="50.36705" lon="3.09963">
        <ele>36.67</ele>
        <time>2015-09-29T09:58:16Z</time>
      </trkpt>
      <trkpt lat="50.36702" lon="3.09957">
        <ele>38.11</ele>
        <time>2015-09-29T09:58:52Z</time>
      </trkpt>
      <trkpt lat="50.36705" lon="3.0996">
        <ele>33.3</ele>
        <time>2015-09-29T09:59:27Z</time>
      </trkpt>
      <trkpt lat="50.36696" lon="3.09965">
        <ele>35.23</ele>
        <time>2015-09-29T10:00:06Z</time>
      </trkpt>
      <trkpt lat="50.36698" lon="3.09962">
        <ele>34.74</ele>
        <time>2015-09-29T10:00:43Z</time>
      </trkpt>
      <trkpt lat="50.36695" lon="3.09959">
        <ele>32.34</ele>
        <time>2015-09-29T10:01:26Z</time>
      </trkpt>
      <trkpt lat="50.36697" lon="3.09955">
        <ele>28.98</ele>
        <time>2015-09-29T10:02:13Z</time>
      </trkpt>
      <trkpt lat="50.36698" lon="3.09958">
        <ele>32.34</ele>
        <time>2015-09-29T10:02:55Z</time>
      </trkpt>
      <trkpt lat="50.36701" lon="3.09958">
        <ele>36.19</ele>
        <time>2015-09-29T10:03:30Z</time>
      </trkpt>
      <trkpt lat="50.36696" lon="3.09959">
        <ele>29.94</ele>
        <time>2015-09-29T10:04:09Z</time>
      </trkpt>
      <trkpt lat="50.36701" lon="3.09962">
        <ele>27.53</ele>
        <time>2015-09-29T10:04:45Z</time>
      </trkpt>
      <trkpt lat="50.36692" lon="3.09953">
        <ele>23.69</ele>
        <time>2015-09-29T10:05:25Z</time>
      </trkpt>
      <trkpt lat="50.36691" lon="3.09948">
        <ele>14.08</ele>
        <time>2015-09-29T10:06:06Z</time>
      </trkpt>
      <trkpt lat="50.3669" lon="3.09945">
        <ele>11.19</ele>
        <time>2015-09-29T10:06:39Z</time>
      </trkpt>
      <trkpt lat="50.36691" lon="3.09943">
        <ele>9.27</ele>
        <time>2015-09-29T10:07:20Z</time>
      </trkpt>
      <trkpt lat="50.36694" lon="3.0995">
        <ele>10.71</ele>
        <time>2015-09-29T10:08:05Z</time>
      </trkpt>
      <trkpt lat="50.36694" lon="3.09949">
        <ele>14.56</ele>
        <time>2015-09-29T10:08:41Z</time>
      </trkpt>
      <trkpt lat="50.367" lon="3.0996">
        <ele>20.32</ele>
        <time>2015-09-29T10:09:12Z</time>
      </trkpt>
      <trkpt lat="50.36702" lon="3.09959">
        <ele>28.5</ele>
        <time>2015-09-29T10:09:58Z</time>
      </trkpt>
      <trkpt lat="50.36702" lon="3.09959">
        <ele>31.86</ele>
        <time>2015-09-29T10:10:39Z</time>
      </trkpt>
      <trkpt lat="50.36703" lon="3.09963">
        <ele>31.38</ele>
        <time>2015-09-29T10:11:20Z</time>
      </trkpt>
      <trkpt lat="50.36705" lon="3.09964">
        <ele>28.02</ele>
        <time>2015-09-29T10:11:55Z</time>
      </trkpt>
      <trkpt lat="50.36703" lon="3.09966">
        <ele>26.57</ele>
        <time>2015-09-29T10:12:25Z</time>
      </trkpt>
      <trkpt lat="50.36695" lon="3.09964">
        <ele>19.36</ele>
        <time>2015-09-29T10:12:58Z</time>
      </trkpt>
      <trkpt lat="50.36694" lon="3.09961">
        <ele>20.81</ele>
        <time>2015-09-29T10:13:34Z</time>
      </trkpt>
      <trkpt lat="50.36699" lon="3.09957">
        <ele>25.13</ele>
        <time>2015-09-29T10:14:09Z</time>
      </trkpt>
      <trkpt lat="50.36701" lon="3.09956">
        <ele>29.94</ele>
        <time>2015-09-29T10:14:51Z</time>
      </trkpt>
      <trkpt lat="50.36699" lon="3.0996">
        <ele>29.94</ele>
        <time>2015-09-29T10:15:31Z</time>
      </trkpt>
      <trkpt lat="50.367" lon="3.09961">
        <ele>24.65</ele>
        <time>2015-09-29T10:16:03Z</time>
      </trkpt>
      <trkpt lat="50.36697" lon="3.09953">
        <ele>25.61</ele>
        <time>2015-09-29T10:16:42Z</time>
      </trkpt>
      <trkpt lat="50.367" lon="3.09954">
        <ele>27.53</ele>
        <time>2015-09-29T10:17:26Z</time>
      </trkpt>
      <trkpt lat="50.367" lon="3.09955">
        <ele>25.61</ele>
        <time>2015-09-29T10:18:00Z</time>
      </trkpt>
      <trkpt lat="50.36696" lon="3.09954">
        <ele>21.77</ele>
        <time>2015-09-29T10:18:42Z</time>
      </trkpt>
      <trkpt lat="50.36699" lon="3.09952">
        <ele>26.09</ele>
        <time>2015-09-29T10:19:25Z</time>
      </trkpt>
      <trkpt lat="50.36698" lon="3.09953">
        <ele>27.53</ele>
        <time>2015-09-29T10:19:59Z</time>
      </trkpt>
      <trkpt lat="50.36698" lon="3.09954">
        <ele>28.98</ele>
        <time>2015-09-29T10:20:31Z</time>
      </trkpt>
      <trkpt lat="50.36702" lon="3.09953">
        <ele>29.94</ele>
        <time>2015-09-29T10:21:11Z</time>
      </trkpt>
      <trkpt lat="50.36702" lon="3.09959">
        <ele>29.46</ele>
        <time>2015-09-29T10:21:50Z</time>
      </trkpt>
      <trkpt lat="50.36699" lon="3.09956">
        <ele>28.98</ele>
        <time>2015-09-29T10:22:26Z</time>
      </trkpt>
      <trkpt lat="50.367" lon="3.09952">
        <ele>32.82</ele>
        <time>2015-09-29T10:23:04Z</time>
      </trkpt>
      <trkpt lat="50.36696" lon="3.09953">
        <ele>31.38</ele>
        <time>2015-09-29T10:23:45Z</time>
      </trkpt>
      <trkpt lat="50.36692" lon="3.09954">
        <ele>28.98</ele>
        <time>2015-09-29T10:24:19Z</time>
      </trkpt>
      <trkpt lat="50.36691" lon="3.09954">
        <ele>27.53</ele>
        <time>2015-09-29T10:24:55Z</time>
      </trkpt>
      <trkpt lat="50.36698" lon="3.09951">
        <ele>25.61</ele>
        <time>2015-09-29T10:25:28Z</time>
      </trkpt>
      <trkpt lat="50.36704" lon="3.09946">
        <ele>29.94</ele>
        <time>2015-09-29T10:26:01Z</time>
      </trkpt>
      <trkpt lat="50.36703" lon="3.09948">
        <ele>28.5</ele>
        <time>2015-09-29T10:26:35Z</time>
      </trkpt>
      <trkpt lat="50.36703" lon="3.09951">
        <ele>29.46</ele>
        <time>2015-09-29T10:27:12Z</time>
      </trkpt>
      <trkpt lat="50.36701" lon="3.09952">
        <ele>27.05</ele>
        <time>2015-09-29T10:27:54Z</time>
      </trkpt>
      <trkpt lat="50.36701" lon="3.09956">
        <ele>27.53</ele>
        <time>2015-09-29T10:28:37Z</time>
      </trkpt>
      <trkpt lat="50.36703" lon="3.09956">
        <ele>28.02</ele>
        <time>2015-09-29T10:29:12Z</time>
      </trkpt>
      <trkpt lat="50.367" lon="3.09957">
        <ele>24.17</ele>
        <time>2015-09-29T10:29:54Z</time>
      </trkpt>
      <trkpt lat="50.36699" lon="3.09955">
        <ele>22.73</ele>
        <time>2015-09-29T10:30:33Z</time>
      </trkpt>
      <trkpt lat="50.36697" lon="3.09952">
        <ele>25.61</ele>
        <time>2015-09-29T10:31:08Z</time>
      </trkpt>
      <trkpt lat="50.36695" lon="3.09956">
        <ele>29.46</ele>
        <time>2015-09-29T10:31:49Z</time>
      </trkpt>
      <trkpt lat="50.36695" lon="3.09954">
        <ele>32.82</ele>
        <time>2015-09-29T10:32:23Z</time>
      </trkpt>
      <trkpt lat="50.36698" lon="3.09953">
        <ele>32.34</ele>
        <time>2015-09-29T10:33:00Z</time>
      </trkpt>
      <trkpt lat="50.36695" lon="3.09956">
        <ele>28.98</ele>
        <time>2015-09-29T10:33:47Z</time>
      </trkpt>
      <trkpt lat="50.36689" lon="3.09956">
        <ele>25.13</ele>
        <time>2015-09-29T10:34:22Z</time>
      </trkpt>
      <trkpt lat="50.36689" lon="3.09951">
        <ele>21.77</ele>
        <time>2015-09-29T10:34:58Z</time>
      </trkpt>
      <trkpt lat="50.36689" lon="3.09954">
        <ele>19.36</ele>
        <time>2015-09-29T10:35:43Z</time>
      </trkpt>
      <trkpt lat="50.36694" lon="3.09953">
        <ele>20.81</ele>
        <time>2015-09-29T10:36:24Z</time>
      </trkpt>
      <trkpt lat="50.36693" lon="3.09951">
        <ele>21.77</ele>
        <time>2015-09-29T10:37:14Z</time>
      </trkpt>
      <trkpt lat="50.36696" lon="3.0995">
        <ele>23.21</ele>
        <time>2015-09-29T10:37:58Z</time>
      </trkpt>
      <trkpt lat="50.36696" lon="3.09949">
        <ele>25.61</ele>
        <time>2015-09-29T10:38:40Z</time>
      </trkpt>
      <trkpt lat="50.36697" lon="3.09948">
        <ele>26.57</ele>
        <time>2015-09-29T10:39:20Z</time>
      </trkpt>
      <trkpt lat="50.36697" lon="3.09953">
        <ele>24.17</ele>
        <time>2015-09-29T10:39:57Z</time>
      </trkpt>
      <trkpt lat="50.36695" lon="3.09958">
        <ele>21.29</ele>
        <time>2015-09-29T10:40:32Z</time>
      </trkpt>
      <trkpt lat="50.36698" lon="3.09958">
        <ele>14.08</ele>
        <time>2015-09-29T10:41:10Z</time>
      </trkpt>
      <trkpt lat="50.36698" lon="3.09954">
        <ele>15.04</ele>
        <time>2015-09-29T10:42:01Z</time>
      </trkpt>
      <trkpt lat="50.36696" lon="3.09955">
        <ele>16.48</ele>
        <time>2015-09-29T10:42:41Z</time>
      </trkpt>
      <trkpt lat="50.36695" lon="3.09954">
        <ele>19.84</ele>
        <time>2015-09-29T10:43:08Z</time>
      </trkpt>
      <trkpt lat="50.36696" lon="3.09955">
        <ele>15.04</ele>
        <time>2015-09-29T10:43:39Z</time>
      </trkpt>
      <trkpt lat="50.36694" lon="3.09958">
        <ele>13.6</ele>
        <time>2015-09-29T10:44:14Z</time>
      </trkpt>
      <trkpt lat="50.36694" lon="3.09959">
        <ele>10.71</ele>
        <time>2015-09-29T10:44:51Z</time>
      </trkpt>
      <trkpt lat="50.36697" lon="3.09945">
        <ele>25.13</ele>
        <time>2015-09-29T10:45:28Z</time>
      </trkpt>
      <trkpt lat="50.36696" lon="3.09949">
        <ele>24.65</ele>
        <time>2015-09-29T10:46:08Z</time>
      </trkpt>
      <trkpt lat="50.36694" lon="3.09952">
        <ele>22.73</ele>
        <time>2015-09-29T10:46:40Z</time>
      </trkpt>
      <trkpt lat="50.367" lon="3.09954">
        <ele>25.13</ele>
        <time>2015-09-29T10:47:13Z</time>
      </trkpt>
      <trkpt lat="50.36697" lon="3.09949">
        <ele>27.05</ele>
        <time>2015-09-29T10:47:50Z</time>
      </trkpt>
      <trkpt lat="50.36697" lon="3.09949">
        <ele>24.17</ele>
        <time>2015-09-29T10:48:31Z</time>
      </trkpt>
      <trkpt lat="50.36695" lon="3.09954">
        <ele>24.17</ele>
        <time>2015-09-29T10:49:11Z</time>
      </trkpt>
      <trkpt lat="50.367" lon="3.09957">
        <ele>24.65</ele>
        <time>2015-09-29T10:49:48Z</time>
      </trkpt>
      <trkpt lat="50.36697" lon="3.0995">
        <ele>27.05</ele>
        <time>2015-09-29T10:50:26Z</time>
      </trkpt>
      <trkpt lat="50.36696" lon="3.0995">
        <ele>29.46</ele>
        <time>2015-09-29T10:51:14Z</time>
      </trkpt>
      <trkpt lat="50.36694" lon="3.0995">
        <ele>26.09</ele>
        <time>2015-09-29T10:51:56Z</time>
      </trkpt>
      <trkpt lat="50.36696" lon="3.0995">
        <ele>25.13</ele>
        <time>2015-09-29T10:52:31Z</time>
      </trkpt>
      <trkpt lat="50.36696" lon="3.09947">
        <ele>27.53</ele>
        <time>2015-09-29T10:53:07Z</time>
      </trkpt>
      <trkpt lat="50.36694" lon="3.09949">
        <ele>26.09</ele>
        <time>2015-09-29T10:53:43Z</time>
      </trkpt>
      <trkpt lat="50.36699" lon="3.09951">
        <ele>28.02</ele>
        <time>2015-09-29T10:54:20Z</time>
      </trkpt>
      <trkpt lat="50.36699" lon="3.09953">
        <ele>28.5</ele>
        <time>2015-09-29T10:54:52Z</time>
      </trkpt>
      <trkpt lat="50.36698" lon="3.09954">
        <ele>25.13</ele>
        <time>2015-09-29T10:55:30Z</time>
      </trkpt>
      <trkpt lat="50.367" lon="3.09956">
        <ele>25.61</ele>
        <time>2015-09-29T10:56:06Z</time>
      </trkpt>
      <trkpt lat="50.36697" lon="3.09955">
        <ele>22.73</ele>
        <time>2015-09-29T10:56:53Z</time>
      </trkpt>
      <trkpt lat="50.36698" lon="3.09958">
        <ele>25.13</ele>
        <time>2015-09-29T10:57:38Z</time>
      </trkpt>
      <trkpt lat="50.36699" lon="3.09955">
        <ele>31.38</ele>
        <time>2015-09-29T10:58:28Z</time>
      </trkpt>
      <trkpt lat="50.36697" lon="3.09954">
        <ele>28.02</ele>
        <time>2015-09-29T10:59:08Z</time>
      </trkpt>
      <trkpt lat="50.36699" lon="3.09955">
        <ele>31.86</ele>
        <time>2015-09-29T10:59:47Z</time>
      </trkpt>
      <trkpt lat="50.36701" lon="3.09954">
        <ele>29.94</ele>
        <time>2015-09-29T11:00:23Z</time>
      </trkpt>
      <trkpt lat="50.367" lon="3.09954">
        <ele>28.02</ele>
        <time>2015-09-29T11:00:52Z</time>
      </trkpt>
      <trkpt lat="50.36696" lon="3.09957">
        <ele>27.53</ele>
        <time>2015-09-29T11:01:20Z</time>
      </trkpt>
      <trkpt lat="50.36699" lon="3.0996">
        <ele>24.65</ele>
        <time>2015-09-29T11:01:50Z</time>
      </trkpt>
      <trkpt lat="50.36695" lon="3.09956">
        <ele>24.65</ele>
        <time>2015-09-29T11:02:23Z</time>
      </trkpt>
      <trkpt lat="50.36698" lon="3.09956">
        <ele>27.05</ele>
        <time>2015-09-29T11:02:58Z</time>
      </trkpt>
      <trkpt lat="50.36699" lon="3.09955">
        <ele>28.98</ele>
        <time>2015-09-29T11:03:29Z</time>
      </trkpt>
      <trkpt lat="50.367" lon="3.09958">
        <ele>30.42</ele>
        <time>2015-09-29T11:04:01Z</time>
      </trkpt>
      <trkpt lat="50.36702" lon="3.09957">
        <ele>34.26</ele>
        <time>2015-09-29T11:04:27Z</time>
      </trkpt>
      <trkpt lat="50.36704" lon="3.09959">
        <ele>30.9</ele>
        <time>2015-09-29T11:05:01Z</time>
      </trkpt>
      <trkpt lat="50.36705" lon="3.09961">
        <ele>29.94</ele>
        <time>2015-09-29T11:05:30Z</time>
      </trkpt>
      <trkpt lat="50.36702" lon="3.09956">
        <ele>31.86</ele>
        <time>2015-09-29T11:06:00Z</time>
      </trkpt>
      <trkpt lat="50.36703" lon="3.09955">
        <ele>33.3</ele>
        <time>2015-09-29T11:06:34Z</time>
      </trkpt>
      <trkpt lat="50.36706" lon="3.09956">
        <ele>33.78</ele>
        <time>2015-09-29T11:07:10Z</time>
      </trkpt>
      <trkpt lat="50.36705" lon="3.09959">
        <ele>38.59</ele>
        <time>2015-09-29T11:07:42Z</time>
      </trkpt>
      <trkpt lat="50.36705" lon="3.09959">
        <ele>36.19</ele>
        <time>2015-09-29T11:08:13Z</time>
      </trkpt>
      <trkpt lat="50.36706" lon="3.09957">
        <ele>36.19</ele>
        <time>2015-09-29T11:08:44Z</time>
      </trkpt>
      <trkpt lat="50.36704" lon="3.09956">
        <ele>36.67</ele>
        <time>2015-09-29T11:09:17Z</time>
      </trkpt>
      <trkpt lat="50.36701" lon="3.0995">
        <ele>34.74</ele>
        <time>2015-09-29T11:09:51Z</time>
      </trkpt>
      <trkpt lat="50.36701" lon="3.09949">
        <ele>34.26</ele>
        <time>2015-09-29T11:10:29Z</time>
      </trkpt>
      <trkpt lat="50.36697" lon="3.09948">
        <ele>34.74</ele>
        <time>2015-09-29T11:11:00Z</time>
      </trkpt>
      <trkpt lat="50.36694" lon="3.09948">
        <ele>33.3</ele>
        <time>2015-09-29T11:11:32Z</time>
      </trkpt>
      <trkpt lat="50.36696" lon="3.09949">
        <ele>32.82</ele>
        <time>2015-09-29T11:12:08Z</time>
      </trkpt>
      <trkpt lat="50.36699" lon="3.09951">
        <ele>31.86</ele>
        <time>2015-09-29T11:12:47Z</time>
      </trkpt>
      <trkpt lat="50.36698" lon="3.0995">
        <ele>31.38</ele>
        <time>2015-09-29T11:13:23Z</time>
      </trkpt>
      <trkpt lat="50.36697" lon="3.09952">
        <ele>31.86</ele>
        <time>2015-09-29T11:13:58Z</time>
      </trkpt>
      <trkpt lat="50.36696" lon="3.09949">
        <ele>35.23</ele>
        <time>2015-09-29T11:14:40Z</time>
      </trkpt>
      <trkpt lat="50.36695" lon="3.09946">
        <ele>38.11</ele>
        <time>2015-09-29T11:15:32Z</time>
      </trkpt>
      <trkpt lat="50.36697" lon="3.09947">
        <ele>34.74</ele>
        <time>2015-09-29T11:16:16Z</time>
      </trkpt>
      <trkpt lat="50.36697" lon="3.0995">
        <ele>31.38</ele>
        <time>2015-09-29T11:17:01Z</time>
      </trkpt>
      <trkpt lat="50.36698" lon="3.09953">
        <ele>32.34</ele>
        <time>2015-09-29T11:17:39Z</time>
      </trkpt>
      <trkpt lat="50.36696" lon="3.0995">
        <ele>30.42</ele>
        <time>2015-09-29T11:18:19Z</time>
      </trkpt>
      <trkpt lat="50.36697" lon="3.09949">
        <ele>31.86</ele>
        <time>2015-09-29T11:18:53Z</time>
      </trkpt>
      <trkpt lat="50.36702" lon="3.09953">
        <ele>33.3</ele>
        <time>2015-09-29T11:19:26Z</time>
      </trkpt>
      <trkpt lat="50.36701" lon="3.09949">
        <ele>31.86</ele>
        <time>2015-09-29T11:20:00Z</time>
      </trkpt>
      <trkpt lat="50.367" lon="3.09949">
        <ele>30.42</ele>
        <time>2015-09-29T11:20:40Z</time>
      </trkpt>
      <trkpt lat="50.36698" lon="3.09948">
        <ele>29.46</ele>
        <time>2015-09-29T11:21:16Z</time>
      </trkpt>
      <trkpt lat="50.36698" lon="3.09951">
        <ele>22.25</ele>
        <time>2015-09-29T11:22:00Z</time>
      </trkpt>
      <trkpt lat="50.36695" lon="3.09952">
        <ele>28.5</ele>
        <time>2015-09-29T11:22:46Z</time>
      </trkpt>
      <trkpt lat="50.36701" lon="3.09953">
        <ele>31.86</ele>
        <time>2015-09-29T11:23:37Z</time>
      </trkpt>
      <trkpt lat="50.367" lon="3.09952">
        <ele>34.26</ele>
        <time>2015-09-29T11:24:24Z</time>
      </trkpt>
      <trkpt lat="50.36702" lon="3.09954">
        <ele>35.23</ele>
        <time>2015-09-29T11:25:05Z</time>
      </trkpt>
      <trkpt lat="50.36701" lon="3.09955">
        <ele>30.42</ele>
        <time>2015-09-29T11:25:44Z</time>
      </trkpt>
      <trkpt lat="50.367" lon="3.09965">
        <ele>23.21</ele>
        <time>2015-09-29T11:26:27Z</time>
      </trkpt>
      <trkpt lat="50.36698" lon="3.0996">
        <ele>25.13</ele>
        <time>2015-09-29T11:27:08Z</time>
      </trkpt>
      <trkpt lat="50.36697" lon="3.09956">
        <ele>27.05</ele>
        <time>2015-09-29T11:27:48Z</time>
      </trkpt>
      <trkpt lat="50.36696" lon="3.09955">
        <ele>30.42</ele>
        <time>2015-09-29T11:28:24Z</time>
      </trkpt>
      <trkpt lat="50.367" lon="3.09953">
        <ele>28.98</ele>
        <time>2015-09-29T11:29:07Z</time>
      </trkpt>
      <trkpt lat="50.36701" lon="3.09952">
        <ele>33.3</ele>
        <time>2015-09-29T11:30:04Z</time>
      </trkpt>
      <trkpt lat="50.367" lon="3.0995">
        <ele>33.3</ele>
        <time>2015-09-29T11:30:53Z</time>
      </trkpt>
      <trkpt lat="50.36702" lon="3.09954">
        <ele>38.59</ele>
        <time>2015-09-29T11:31:30Z</time>
      </trkpt>
      <trkpt lat="50.36702" lon="3.09946">
        <ele>40.99</ele>
        <time>2015-09-29T11:32:21Z</time>
      </trkpt>
      <trkpt lat="50.36699" lon="3.09946">
        <ele>41.47</ele>
        <time>2015-09-29T11:33:14Z</time>
      </trkpt>
      <trkpt lat="50.367" lon="3.09951">
        <ele>36.67</ele>
        <time>2015-09-29T11:34:00Z</time>
      </trkpt>
      <trkpt lat="50.36703" lon="3.09955">
        <ele>40.99</ele>
        <time>2015-09-29T11:34:40Z</time>
      </trkpt>
      <trkpt lat="50.36701" lon="3.0995">
        <ele>45.8</ele>
        <time>2015-09-29T11:35:11Z</time>
      </trkpt>
      <trkpt lat="50.36702" lon="3.09947">
        <ele>37.63</ele>
        <time>2015-09-29T11:35:49Z</time>
      </trkpt>
      <trkpt lat="50.36699" lon="3.09956">
        <ele>33.78</ele>
        <time>2015-09-29T11:36:31Z</time>
      </trkpt>
      <trkpt lat="50.36701" lon="3.09953">
        <ele>30.9</ele>
        <time>2015-09-29T11:37:13Z</time>
      </trkpt>
      <trkpt lat="50.36698" lon="3.09959">
        <ele>29.94</ele>
        <time>2015-09-29T11:37:58Z</time>
      </trkpt>
      <trkpt lat="50.36699" lon="3.09954">
        <ele>29.94</ele>
        <time>2015-09-29T11:38:45Z</time>
      </trkpt>
      <trkpt lat="50.36695" lon="3.0995">
        <ele>31.38</ele>
        <time>2015-09-29T11:39:27Z</time>
      </trkpt>
      <trkpt lat="50.36696" lon="3.09947">
        <ele>34.26</ele>
        <time>2015-09-29T11:40:08Z</time>
      </trkpt>
      <trkpt lat="50.36691" lon="3.09943">
        <ele>35.23</ele>
        <time>2015-09-29T11:40:45Z</time>
      </trkpt>
      <trkpt lat="50.36696" lon="3.09951">
        <ele>33.3</ele>
        <time>2015-09-29T11:41:23Z</time>
      </trkpt>
      <trkpt lat="50.36697" lon="3.09955">
        <ele>32.82</ele>
        <time>2015-09-29T11:42:03Z</time>
      </trkpt>
      <trkpt lat="50.367" lon="3.09955">
        <ele>33.3</ele>
        <time>2015-09-29T11:42:42Z</time>
      </trkpt>
      <trkpt lat="50.36699" lon="3.09963">
        <ele>28.98</ele>
        <time>2015-09-29T11:43:22Z</time>
      </trkpt>
      <trkpt lat="50.36698" lon="3.09962">
        <ele>28.02</ele>
        <time>2015-09-29T11:44:03Z</time>
      </trkpt>
      <trkpt lat="50.36699" lon="3.09954">
        <ele>29.46</ele>
        <time>2015-09-29T11:44:42Z</time>
      </trkpt>
      <trkpt lat="50.36701" lon="3.09959">
        <ele>32.82</ele>
        <time>2015-09-29T11:45:32Z</time>
      </trkpt>
      <trkpt lat="50.36701" lon="3.09959">
        <ele>31.38</ele>
        <time>2015-09-29T11:46:18Z</time>
      </trkpt>
      <trkpt lat="50.36699" lon="3.09961">
        <ele>28.02</ele>
        <time>2015-09-29T11:47:01Z</time>
      </trkpt>
      <trkpt lat="50.36699" lon="3.09958">
        <ele>28.5</ele>
        <time>2015-09-29T11:47:46Z</time>
      </trkpt>
      <trkpt lat="50.36701" lon="3.09955">
        <ele>30.42</ele>
        <time>2015-09-29T11:48:25Z</time>
      </trkpt>
      <trkpt lat="50.36702" lon="3.09956">
        <ele>28.98</ele>
        <time>2015-09-29T11:48:59Z</time>
      </trkpt>
      <trkpt lat="50.36703" lon="3.09959">
        <ele>28.02</ele>
        <time>2015-09-29T11:49:34Z</time>
      </trkpt>
      <trkpt lat="50.36703" lon="3.0996">
        <ele>26.09</ele>
        <time>2015-09-29T11:50:09Z</time>
      </trkpt>
      <trkpt lat="50.36701" lon="3.09959">
        <ele>28.02</ele>
        <time>2015-09-29T11:50:41Z</time>
      </trkpt>
      <trkpt lat="50.36698" lon="3.09959">
        <ele>25.13</ele>
        <time>2015-09-29T11:51:10Z</time>
      </trkpt>
      <trkpt lat="50.36697" lon="3.09953">
        <ele>28.5</ele>
        <time>2015-09-29T11:51:51Z</time>
      </trkpt>
      <trkpt lat="50.36699" lon="3.09954">
        <ele>28.5</ele>
        <time>2015-09-29T11:52:31Z</time>
      </trkpt>
      <trkpt lat="50.367" lon="3.09958">
        <ele>23.69</ele>
        <time>2015-09-29T11:53:13Z</time>
      </trkpt>
      <trkpt lat="50.36705" lon="3.09961">
        <ele>22.73</ele>
        <time>2015-09-29T11:53:50Z</time>
      </trkpt>
      <trkpt lat="50.36704" lon="3.09958">
        <ele>28.02</ele>
        <time>2015-09-29T11:54:30Z</time>
      </trkpt>
      <trkpt lat="50.36703" lon="3.09959">
        <ele>25.61</ele>
        <time>2015-09-29T11:55:10Z</time>
      </trkpt>
      <trkpt lat="50.36706" lon="3.09958">
        <ele>30.42</ele>
        <time>2015-09-29T11:55:54Z</time>
      </trkpt>
      <trkpt lat="50.36706" lon="3.09954">
        <ele>36.19</ele>
        <time>2015-09-29T11:56:33Z</time>
      </trkpt>
      <trkpt lat="50.36708" lon="3.09954">
        <ele>40.03</ele>
        <time>2015-09-29T11:57:05Z</time>
      </trkpt>
      <trkpt lat="50.36701" lon="3.09947">
        <ele>40.99</ele>
        <time>2015-09-29T11:57:43Z</time>
      </trkpt>
      <trkpt lat="50.36697" lon="3.0994">
        <ele>42.92</ele>
        <time>2015-09-29T11:58:15Z</time>
      </trkpt>
      <trkpt lat="50.36699" lon="3.09948">
        <ele>41.47</ele>
        <time>2015-09-29T11:58:45Z</time>
      </trkpt>
      <trkpt lat="50.36698" lon="3.09948">
        <ele>40.99</ele>
        <time>2015-09-29T11:59:20Z</time>
      </trkpt>
      <trkpt lat="50.36703" lon="3.09948">
        <ele>39.07</ele>
        <time>2015-09-29T11:59:51Z</time>
      </trkpt>
      <trkpt lat="50.36699" lon="3.09949">
        <ele>38.59</ele>
        <time>2015-09-29T12:00:15Z</time>
      </trkpt>
      <trkpt lat="50.36701" lon="3.09956">
        <ele>38.59</ele>
        <time>2015-09-29T12:00:41Z</time>
      </trkpt>
      <trkpt lat="50.36707" lon="3.09958">
        <ele>34.26</ele>
        <time>2015-09-29T12:01:07Z</time>
      </trkpt>
      <trkpt lat="50.36692" lon="3.0995">
        <ele>29.46</ele>
        <time>2015-09-29T12:01:32Z</time>
      </trkpt>
      <trkpt lat="50.36696" lon="3.09957">
        <ele>26.57</ele>
        <time>2015-09-29T12:01:51Z</time>
      </trkpt>
      <trkpt lat="50.36708" lon="3.09948">
        <ele>36.19</ele>
        <time>2015-09-29T14:40:13Z</time>
      </trkpt>
      <trkpt lat="50.36707" lon="3.09957">
        <ele>23.69</ele>
        <time>2015-09-29T14:40:33Z</time>
      </trkpt>
      <trkpt lat="50.36707" lon="3.09957">
        <ele>27.53</ele>
        <time>2015-09-29T14:41:00Z</time>
      </trkpt>
      <trkpt lat="50.36706" lon="3.09956">
        <ele>27.53</ele>
        <time>2015-09-29T14:41:20Z</time>
      </trkpt>
      <trkpt lat="50.36693" lon="3.09957">
        <ele>27.05</ele>
        <time>2015-09-29T14:41:43Z</time>
      </trkpt>
      <trkpt lat="50.36698" lon="3.09953">
        <ele>26.09</ele>
        <time>2015-09-29T14:42:03Z</time>
      </trkpt>
      <trkpt lat="50.36709" lon="3.09947">
        <ele>26.09</ele>
        <time>2015-09-29T14:42:20Z</time>
      </trkpt>
      <trkpt lat="50.36716" lon="3.09952">
        <ele>32.82</ele>
        <time>2015-09-29T14:42:31Z</time>
      </trkpt>
      <trkpt lat="50.36725" lon="3.0996">
        <ele>34.26</ele>
        <time>2015-09-29T14:42:47Z</time>
      </trkpt>
      <trkpt lat="50.36726" lon="3.09962">
        <ele>34.74</ele>
        <time>2015-09-29T14:42:49Z</time>
      </trkpt>
      <trkpt lat="50.36731" lon="3.09974">
        <ele>31.86</ele>
        <time>2015-09-29T14:43:03Z</time>
      </trkpt>
      <trkpt lat="50.36732" lon="3.0998">
        <ele>28.98</ele>
        <time>2015-09-29T14:43:14Z</time>
      </trkpt>
      <trkpt lat="50.36735" lon="3.09981">
        <ele>28.5</ele>
        <time>2015-09-29T14:43:17Z</time>
      </trkpt>
      <trkpt lat="50.36738" lon="3.09982">
        <ele>27.05</ele>
        <time>2015-09-29T14:43:27Z</time>
      </trkpt>
      <trkpt lat="50.36744" lon="3.09983">
        <ele>27.05</ele>
        <time>2015-09-29T14:43:40Z</time>
      </trkpt>
      <trkpt lat="50.36753" lon="3.09982">
        <ele>26.57</ele>
        <time>2015-09-29T14:43:56Z</time>
      </trkpt>
      <trkpt lat="50.36754" lon="3.09981">
        <ele>30.42</ele>
        <time>2015-09-29T14:44:16Z</time>
      </trkpt>
      <trkpt lat="50.3676" lon="3.09981">
        <ele>32.34</ele>
        <time>2015-09-29T14:44:31Z</time>
      </trkpt>
      <trkpt lat="50.36765" lon="3.09982">
        <ele>33.78</ele>
        <time>2015-09-29T14:44:37Z</time>
      </trkpt>
      <trkpt lat="50.36774" lon="3.09995">
        <ele>34.26</ele>
        <time>2015-09-29T14:44:46Z</time>
      </trkpt>
      <trkpt lat="50.3679" lon="3.10008">
        <ele>30.42</ele>
        <time>2015-09-29T14:44:58Z</time>
      </trkpt>
      <trkpt lat="50.36806" lon="3.10024">
        <ele>25.13</ele>
        <time>2015-09-29T14:45:13Z</time>
      </trkpt>
      <trkpt lat="50.36813" lon="3.10025">
        <ele>24.17</ele>
        <time>2015-09-29T14:45:28Z</time>
      </trkpt>
      <trkpt lat="50.36819" lon="3.10031">
        <ele>23.21</ele>
        <time>2015-09-29T14:45:49Z</time>
      </trkpt>
      <trkpt lat="50.36835" lon="3.10045">
        <ele>19.36</ele>
        <time>2015-09-29T14:46:08Z</time>
      </trkpt>
      <trkpt lat="50.36835" lon="3.10055">
        <ele>14.56</ele>
        <time>2015-09-29T14:46:33Z</time>
      </trkpt>
      <trkpt lat="50.36844" lon="3.10058">
        <ele>15.52</ele>
        <time>2015-09-29T14:46:53Z</time>
      </trkpt>
      <trkpt lat="50.36847" lon="3.1006">
        <ele>18.88</ele>
        <time>2015-09-29T14:47:16Z</time>
      </trkpt>
      <trkpt lat="50.36845" lon="3.10072">
        <ele>19.36</ele>
        <time>2015-09-29T14:47:32Z</time>
      </trkpt>
      <trkpt lat="50.36847" lon="3.1007">
        <ele>16.96</ele>
        <time>2015-09-29T14:47:48Z</time>
      </trkpt>
      <trkpt lat="50.36855" lon="3.10065">
        <ele>15.52</ele>
        <time>2015-09-29T14:48:05Z</time>
      </trkpt>
      <trkpt lat="50.36854" lon="3.10069">
        <ele>14.56</ele>
        <time>2015-09-29T14:48:19Z</time>
      </trkpt>
      <trkpt lat="50.36855" lon="3.10073">
        <ele>15.04</ele>
        <time>2015-09-29T14:48:24Z</time>
      </trkpt>
      <trkpt lat="50.36857" lon="3.10102">
        <ele>19.36</ele>
        <time>2015-09-29T14:48:42Z</time>
      </trkpt>
      <trkpt lat="50.36855" lon="3.10116">
        <ele>18.88</ele>
        <time>2015-09-29T14:48:51Z</time>
      </trkpt>
      <trkpt lat="50.36851" lon="3.1014">
        <ele>18.88</ele>
        <time>2015-09-29T14:49:06Z</time>
      </trkpt>
      <trkpt lat="50.36848" lon="3.10162">
        <ele>17.44</ele>
        <time>2015-09-29T14:49:25Z</time>
      </trkpt>
      <trkpt lat="50.36843" lon="3.10195">
        <ele>19.84</ele>
        <time>2015-09-29T14:49:38Z</time>
      </trkpt>
      <trkpt lat="50.36839" lon="3.10221">
        <ele>19.84</ele>
        <time>2015-09-29T14:49:52Z</time>
      </trkpt>
      <trkpt lat="50.36839" lon="3.10222">
        <ele>19.84</ele>
        <time>2015-09-29T14:50:05Z</time>
      </trkpt>
      <trkpt lat="50.36844" lon="3.10226">
        <ele>20.81</ele>
        <time>2015-09-29T14:50:17Z</time>
      </trkpt>
      <trkpt lat="50.36844" lon="3.10224">
        <ele>20.81</ele>
        <time>2015-09-29T14:50:43Z</time>
      </trkpt>
      <trkpt lat="50.36849" lon="3.10228">
        <ele>19.36</ele>
        <time>2015-09-29T14:50:57Z</time>
      </trkpt>
      <trkpt lat="50.36855" lon="3.10243">
        <ele>18.4</ele>
        <time>2015-09-29T14:51:10Z</time>
      </trkpt>
      <trkpt lat="50.36854" lon="3.10253">
        <ele>19.36</ele>
        <time>2015-09-29T14:51:22Z</time>
      </trkpt>
      <trkpt lat="50.36852" lon="3.1027">
        <ele>18.88</ele>
        <time>2015-09-29T14:51:33Z</time>
      </trkpt>
      <trkpt lat="50.36847" lon="3.10298">
        <ele>17.92</ele>
        <time>2015-09-29T14:51:49Z</time>
      </trkpt>
      <trkpt lat="50.36845" lon="3.10311">
        <ele>16.96</ele>
        <time>2015-09-29T14:52:03Z</time>
      </trkpt>
      <trkpt lat="50.36842" lon="3.10318">
        <ele>14.56</ele>
        <time>2015-09-29T14:52:16Z</time>
      </trkpt>
      <trkpt lat="50.3684" lon="3.10324">
        <ele>15.04</ele>
        <time>2015-09-29T14:52:30Z</time>
      </trkpt>
      <trkpt lat="50.36838" lon="3.10325">
        <ele>16.48</ele>
        <time>2015-09-29T14:52:46Z</time>
      </trkpt>
      <trkpt lat="50.36836" lon="3.10326">
        <ele>16.96</ele>
        <time>2015-09-29T14:53:04Z</time>
      </trkpt>
      <trkpt lat="50.36836" lon="3.10328">
        <ele>16.96</ele>
        <time>2015-09-29T14:53:28Z</time>
      </trkpt>
      <trkpt lat="50.36827" lon="3.10336">
        <ele>19.84</ele>
        <time>2015-09-29T14:53:44Z</time>
      </trkpt>
      <trkpt lat="50.36824" lon="3.10335">
        <ele>20.32</ele>
        <time>2015-09-29T14:53:51Z</time>
      </trkpt>
      <trkpt lat="50.36817" lon="3.10331">
        <ele>17.44</ele>
        <time>2015-09-29T14:54:06Z</time>
      </trkpt>
      <trkpt lat="50.3681" lon="3.10335">
        <ele>17.44</ele>
        <time>2015-09-29T14:54:19Z</time>
      </trkpt>
      <trkpt lat="50.368" lon="3.10332">
        <ele>19.84</ele>
        <time>2015-09-29T14:54:30Z</time>
      </trkpt>
      <trkpt lat="50.36793" lon="3.1033">
        <ele>19.36</ele>
        <time>2015-09-29T14:54:41Z</time>
      </trkpt>
      <trkpt lat="50.36791" lon="3.10316">
        <ele>19.84</ele>
        <time>2015-09-29T14:54:57Z</time>
      </trkpt>
      <trkpt lat="50.36795" lon="3.10308">
        <ele>19.36</ele>
        <time>2015-09-29T14:55:09Z</time>
      </trkpt>
      <trkpt lat="50.36795" lon="3.10308">
        <ele>18.4</ele>
        <time>2015-09-29T14:55:31Z</time>
      </trkpt>
      <trkpt lat="50.36794" lon="3.1031">
        <ele>17.44</ele>
        <time>2015-09-29T14:55:40Z</time>
      </trkpt>
      <trkpt lat="50.36784" lon="3.10302">
        <ele>17.92</ele>
        <time>2015-09-29T14:55:55Z</time>
      </trkpt>
      <trkpt lat="50.36773" lon="3.10294">
        <ele>17.92</ele>
        <time>2015-09-29T14:56:06Z</time>
      </trkpt>
      <trkpt lat="50.36753" lon="3.10277">
        <ele>16.96</ele>
        <time>2015-09-29T14:56:24Z</time>
      </trkpt>
      <trkpt lat="50.36744" lon="3.1027">
        <ele>16</ele>
        <time>2015-09-29T14:56:33Z</time>
      </trkpt>
      <trkpt lat="50.36738" lon="3.10266">
        <ele>16.48</ele>
        <time>2015-09-29T14:56:48Z</time>
      </trkpt>
      <trkpt lat="50.3673" lon="3.10259">
        <ele>17.44</ele>
        <time>2015-09-29T14:57:06Z</time>
      </trkpt>
      <trkpt lat="50.36731" lon="3.10259">
        <ele>19.84</ele>
        <time>2015-09-29T14:57:21Z</time>
      </trkpt>
      <trkpt lat="50.36731" lon="3.1026">
        <ele>19.84</ele>
        <time>2015-09-29T14:57:43Z</time>
      </trkpt>
      <trkpt lat="50.3672" lon="3.10253">
        <ele>18.88</ele>
        <time>2015-09-29T14:57:57Z</time>
      </trkpt>
      <trkpt lat="50.36716" lon="3.10249">
        <ele>19.36</ele>
        <time>2015-09-29T14:58:12Z</time>
      </trkpt>
      <trkpt lat="50.36709" lon="3.10243">
        <ele>20.81</ele>
        <time>2015-09-29T14:58:24Z</time>
      </trkpt>
      <trkpt lat="50.36708" lon="3.10242">
        <ele>20.81</ele>
        <time>2015-09-29T14:58:25Z</time>
      </trkpt>
      <trkpt lat="50.36701" lon="3.10237">
        <ele>20.81</ele>
        <time>2015-09-29T14:58:40Z</time>
      </trkpt>
      <trkpt lat="50.36701" lon="3.10239">
        <ele>23.21</ele>
        <time>2015-09-29T14:59:09Z</time>
      </trkpt>
      <trkpt lat="50.36698" lon="3.10233">
        <ele>22.73</ele>
        <time>2015-09-29T14:59:27Z</time>
      </trkpt>
      <trkpt lat="50.3668" lon="3.10218">
        <ele>21.29</ele>
        <time>2015-09-29T14:59:44Z</time>
      </trkpt>
      <trkpt lat="50.36676" lon="3.10214">
        <ele>19.84</ele>
        <time>2015-09-29T14:59:58Z</time>
      </trkpt>
      <trkpt lat="50.36673" lon="3.10214">
        <ele>20.32</ele>
        <time>2015-09-29T15:00:12Z</time>
      </trkpt>
      <trkpt lat="50.36669" lon="3.10211">
        <ele>20.81</ele>
        <time>2015-09-29T15:00:33Z</time>
      </trkpt>
      <trkpt lat="50.36666" lon="3.1021">
        <ele>20.81</ele>
        <time>2015-09-29T15:00:38Z</time>
      </trkpt>
      <trkpt lat="50.36661" lon="3.10205">
        <ele>21.77</ele>
        <time>2015-09-29T15:00:52Z</time>
      </trkpt>
      <trkpt lat="50.3666" lon="3.10204">
        <ele>20.81</ele>
        <time>2015-09-29T15:01:06Z</time>
      </trkpt>
      <trkpt lat="50.36659" lon="3.10202">
        <ele>20.32</ele>
        <time>2015-09-29T15:01:21Z</time>
      </trkpt>
      <trkpt lat="50.3666" lon="3.102">
        <ele>20.32</ele>
        <time>2015-09-29T15:01:32Z</time>
      </trkpt>
      <trkpt lat="50.36658" lon="3.10202">
        <ele>20.32</ele>
        <time>2015-09-29T15:01:43Z</time>
      </trkpt>
      <trkpt lat="50.36657" lon="3.10202">
        <ele>19.36</ele>
        <time>2015-09-29T15:01:47Z</time>
      </trkpt>
      <trkpt lat="50.36654" lon="3.102">
        <ele>18.88</ele>
        <time>2015-09-29T15:01:51Z</time>
      </trkpt>
      <trkpt lat="50.36647" lon="3.10193">
        <ele>17.92</ele>
        <time>2015-09-29T15:02:05Z</time>
      </trkpt>
      <trkpt lat="50.3664" lon="3.10187">
        <ele>16.96</ele>
        <time>2015-09-29T15:02:14Z</time>
      </trkpt>
      <trkpt lat="50.36634" lon="3.10181">
        <ele>15.04</ele>
        <time>2015-09-29T15:02:28Z</time>
      </trkpt>
      <trkpt lat="50.36632" lon="3.10177">
        <ele>15.52</ele>
        <time>2015-09-29T15:02:46Z</time>
      </trkpt>
      <trkpt lat="50.3663" lon="3.10163">
        <ele>15.04</ele>
        <time>2015-09-29T15:03:01Z</time>
      </trkpt>
      <trkpt lat="50.36631" lon="3.1016">
        <ele>20.32</ele>
        <time>2015-09-29T15:03:20Z</time>
      </trkpt>
      <trkpt lat="50.36631" lon="3.10158">
        <ele>22.25</ele>
        <time>2015-09-29T15:03:39Z</time>
      </trkpt>
      <trkpt lat="50.36627" lon="3.10144">
        <ele>20.32</ele>
        <time>2015-09-29T15:03:52Z</time>
      </trkpt>
      <trkpt lat="50.36625" lon="3.10125">
        <ele>16.96</ele>
        <time>2015-09-29T15:04:08Z</time>
      </trkpt>
      <trkpt lat="50.3662" lon="3.101">
        <ele>17.92</ele>
        <time>2015-09-29T15:04:22Z</time>
      </trkpt>
      <trkpt lat="50.36614" lon="3.1007">
        <ele>20.32</ele>
        <time>2015-09-29T15:04:40Z</time>
      </trkpt>
      <trkpt lat="50.36611" lon="3.10049">
        <ele>21.77</ele>
        <time>2015-09-29T15:04:53Z</time>
      </trkpt>
      <trkpt lat="50.3661" lon="3.10041">
        <ele>21.77</ele>
        <time>2015-09-29T15:04:58Z</time>
      </trkpt>
      <trkpt lat="50.36608" lon="3.1002">
        <ele>21.77</ele>
        <time>2015-09-29T15:05:14Z</time>
      </trkpt>
      <trkpt lat="50.36606" lon="3.10007">
        <ele>22.25</ele>
        <time>2015-09-29T15:05:29Z</time>
      </trkpt>
      <trkpt lat="50.36604" lon="3.09989">
        <ele>23.21</ele>
        <time>2015-09-29T15:05:44Z</time>
      </trkpt>
      <trkpt lat="50.36601" lon="3.09977">
        <ele>20.81</ele>
        <time>2015-09-29T15:05:57Z</time>
      </trkpt>
      <trkpt lat="50.366" lon="3.09967">
        <ele>19.36</ele>
        <time>2015-09-29T15:06:06Z</time>
      </trkpt>
      <trkpt lat="50.36596" lon="3.09947">
        <ele>21.77</ele>
        <time>2015-09-29T15:06:20Z</time>
      </trkpt>
      <trkpt lat="50.36597" lon="3.09942">
        <ele>22.25</ele>
        <time>2015-09-29T15:06:33Z</time>
      </trkpt>
      <trkpt lat="50.36597" lon="3.09941">
        <ele>22.25</ele>
        <time>2015-09-29T15:06:34Z</time>
      </trkpt>
      <trkpt lat="50.36614" lon="3.09934">
        <ele>21.77</ele>
        <time>2015-09-29T15:06:52Z</time>
      </trkpt>
      <trkpt lat="50.36621" lon="3.0993">
        <ele>20.81</ele>
        <time>2015-09-29T15:07:05Z</time>
      </trkpt>
      <trkpt lat="50.36626" lon="3.09927">
        <ele>19.84</ele>
        <time>2015-09-29T15:07:13Z</time>
      </trkpt>
      <trkpt lat="50.36629" lon="3.09922">
        <ele>20.81</ele>
        <time>2015-09-29T15:07:18Z</time>
      </trkpt>
      <trkpt lat="50.36641" lon="3.09918">
        <ele>25.13</ele>
        <time>2015-09-29T15:07:29Z</time>
      </trkpt>
      <trkpt lat="50.3665" lon="3.09918">
        <ele>23.69</ele>
        <time>2015-09-29T15:07:44Z</time>
      </trkpt>
      <trkpt lat="50.36659" lon="3.09926">
        <ele>23.21</ele>
        <time>2015-09-29T15:08:00Z</time>
      </trkpt>
      <trkpt lat="50.36669" lon="3.09933">
        <ele>22.25</ele>
        <time>2015-09-29T15:08:17Z</time>
      </trkpt>
      <trkpt lat="50.36674" lon="3.09937">
        <ele>21.29</ele>
        <time>2015-09-29T15:08:31Z</time>
      </trkpt>
      <trkpt lat="50.36686" lon="3.09941">
        <ele>19.36</ele>
        <time>2015-09-29T15:08:53Z</time>
      </trkpt>
      <trkpt lat="50.36701" lon="3.09949">
        <ele>21.29</ele>
        <time>2015-09-29T15:09:11Z</time>
      </trkpt>
      <trkpt lat="50.36709" lon="3.09941">
        <ele>19.84</ele>
        <time>2015-09-29T15:09:37Z</time>
      </trkpt>
      <trkpt lat="50.36709" lon="3.09943">
        <ele>19.84</ele>
        <time>2015-09-29T15:09:38Z</time>
      </trkpt>
      <trkpt lat="50.3671" lon="3.09946">
        <ele>20.32</ele>
        <time>2015-09-29T15:09:40Z</time>
      </trkpt>
      <trkpt lat="50.36713" lon="3.09957">
        <ele>20.32</ele>
        <time>2015-09-29T15:09:46Z</time>
      </trkpt>
      <trkpt lat="50.3672" lon="3.09966">
        <ele>22.25</ele>
        <time>2015-09-29T15:10:06Z</time>
      </trkpt>
      <trkpt lat="50.36705" lon="3.09955">
        <ele>24.65</ele>
        <time>2015-09-29T15:10:33Z</time>
      </trkpt>
      <trkpt lat="50.36706" lon="3.09952">
        <ele>28.98</ele>
        <time>2015-09-29T15:11:00Z</time>
      </trkpt>
      <trkpt lat="50.36701" lon="3.09962">
        <ele>27.05</ele>
        <time>2015-09-29T15:11:26Z</time>
      </trkpt>
      <trkpt lat="50.367" lon="3.09955">
        <ele>28.5</ele>
        <time>2015-09-29T15:11:48Z</time>
      </trkpt>
      <trkpt lat="50.36701" lon="3.09956">
        <ele>29.46</ele>
        <time>2015-09-29T15:12:05Z</time>
      </trkpt>
      <trkpt lat="50.36701" lon="3.09958">
        <ele>28.98</ele>
        <time>2015-09-29T15:12:35Z</time>
      </trkpt>
      <trkpt lat="50.36701" lon="3.09953">
        <ele>28.98</ele>
        <time>2015-09-29T15:13:04Z</time>
      </trkpt>
      <trkpt lat="50.36701" lon="3.09952">
        <ele>28.98</ele>
        <time>2015-09-29T15:13:40Z</time>
      </trkpt>
      <trkpt lat="50.36704" lon="3.09957">
        <ele>26.57</ele>
        <time>2015-09-29T15:14:16Z</time>
      </trkpt>
      <trkpt lat="50.36702" lon="3.09958">
        <ele>22.25</ele>
        <time>2015-09-29T15:14:47Z</time>
      </trkpt>
      <trkpt lat="50.367" lon="3.09953">
        <ele>27.53</ele>
        <time>2015-09-29T15:15:29Z</time>
      </trkpt>
      <trkpt lat="50.367" lon="3.09951">
        <ele>31.38</ele>
        <time>2015-09-29T15:15:59Z</time>
      </trkpt>
      <trkpt lat="50.36701" lon="3.09952">
        <ele>32.82</ele>
        <time>2015-09-29T15:16:34Z</time>
      </trkpt>
      <trkpt lat="50.36702" lon="3.09955">
        <ele>33.3</ele>
        <time>2015-09-29T15:17:13Z</time>
      </trkpt>
      <trkpt lat="50.36702" lon="3.09953">
        <ele>33.78</ele>
        <time>2015-09-29T15:17:54Z</time>
      </trkpt>
      <trkpt lat="50.36702" lon="3.09954">
        <ele>32.34</ele>
        <time>2015-09-29T15:18:12Z</time>
      </trkpt>
      <trkpt lat="50.36702" lon="3.09958">
        <ele>28.02</ele>
        <time>2015-09-29T15:18:48Z</time>
      </trkpt>
      <trkpt lat="50.36698" lon="3.09953">
        <ele>27.05</ele>
        <time>2015-09-29T15:19:33Z</time>
      </trkpt>
      <trkpt lat="50.36699" lon="3.09952">
        <ele>28.5</ele>
        <time>2015-09-29T15:20:12Z</time>
      </trkpt>
      <trkpt lat="50.367" lon="3.09953">
        <ele>30.42</ele>
        <time>2015-09-29T15:20:47Z</time>
      </trkpt>
      <trkpt lat="50.36702" lon="3.09954">
        <ele>28.98</ele>
        <time>2015-09-29T15:21:27Z</time>
      </trkpt>
      <trkpt lat="50.367" lon="3.09952">
        <ele>29.46</ele>
        <time>2015-09-29T15:22:06Z</time>
      </trkpt>
      <trkpt lat="50.36701" lon="3.09954">
        <ele>30.42</ele>
        <time>2015-09-29T15:22:46Z</time>
      </trkpt>
      <trkpt lat="50.36701" lon="3.09952">
        <ele>29.46</ele>
        <time>2015-09-29T15:23:17Z</time>
      </trkpt>
      <trkpt lat="50.36702" lon="3.09954">
        <ele>30.42</ele>
        <time>2015-09-29T15:23:53Z</time>
      </trkpt>
      <trkpt lat="50.36702" lon="3.09952">
        <ele>34.74</ele>
        <time>2015-09-29T15:24:28Z</time>
      </trkpt>
      <trkpt lat="50.36705" lon="3.09951">
        <ele>38.11</ele>
        <time>2015-09-29T15:25:08Z</time>
      </trkpt>
      <trkpt lat="50.36704" lon="3.09954">
        <ele>35.23</ele>
        <time>2015-09-29T15:25:35Z</time>
      </trkpt>
      <trkpt lat="50.36702" lon="3.09956">
        <ele>35.23</ele>
        <time>2015-09-29T15:26:11Z</time>
      </trkpt>
      <trkpt lat="50.36702" lon="3.09953">
        <ele>36.67</ele>
        <time>2015-09-29T15:26:43Z</time>
      </trkpt>
      <trkpt lat="50.36701" lon="3.09951">
        <ele>36.67</ele>
        <time>2015-09-29T15:27:20Z</time>
      </trkpt>
      <trkpt lat="50.367" lon="3.0995">
        <ele>37.15</ele>
        <time>2015-09-29T15:28:01Z</time>
      </trkpt>
      <trkpt lat="50.367" lon="3.09947">
        <ele>37.15</ele>
        <time>2015-09-29T15:28:37Z</time>
      </trkpt>
      <trkpt lat="50.367" lon="3.09945">
        <ele>37.15</ele>
        <time>2015-09-29T15:29:18Z</time>
      </trkpt>
      <trkpt lat="50.367" lon="3.09946">
        <ele>35.71</ele>
        <time>2015-09-29T15:29:48Z</time>
      </trkpt>
      <trkpt lat="50.367" lon="3.09948">
        <ele>34.26</ele>
        <time>2015-09-29T15:30:24Z</time>
      </trkpt>
      <trkpt lat="50.36701" lon="3.09952">
        <ele>33.3</ele>
        <time>2015-09-29T15:31:03Z</time>
      </trkpt>
      <trkpt lat="50.36705" lon="3.09959">
        <ele>30.42</ele>
        <time>2015-09-29T15:31:35Z</time>
      </trkpt>
      <trkpt lat="50.36701" lon="3.09955">
        <ele>31.86</ele>
        <time>2015-09-29T15:32:16Z</time>
      </trkpt>
      <trkpt lat="50.36704" lon="3.09958">
        <ele>35.71</ele>
        <time>2015-09-29T15:33:01Z</time>
      </trkpt>
      <trkpt lat="50.367" lon="3.09954">
        <ele>33.3</ele>
        <time>2015-09-29T15:33:35Z</time>
      </trkpt>
      <trkpt lat="50.36701" lon="3.09955">
        <ele>32.34</ele>
        <time>2015-09-29T15:34:12Z</time>
      </trkpt>
      <trkpt lat="50.36703" lon="3.09955">
        <ele>32.34</ele>
        <time>2015-09-29T15:34:50Z</time>
      </trkpt>
      <trkpt lat="50.36703" lon="3.09954">
        <ele>31.86</ele>
        <time>2015-09-29T15:35:22Z</time>
      </trkpt>
      <trkpt lat="50.36704" lon="3.09958">
        <ele>31.86</ele>
        <time>2015-09-29T15:36:03Z</time>
      </trkpt>
      <trkpt lat="50.36702" lon="3.09958">
        <ele>30.9</ele>
        <time>2015-09-29T15:36:40Z</time>
      </trkpt>
      <trkpt lat="50.36702" lon="3.09954">
        <ele>30.9</ele>
        <time>2015-09-29T15:37:16Z</time>
      </trkpt>
      <trkpt lat="50.36703" lon="3.09956">
        <ele>27.53</ele>
        <time>2015-09-29T15:37:53Z</time>
      </trkpt>
      <trkpt lat="50.36703" lon="3.09955">
        <ele>28.98</ele>
        <time>2015-09-29T15:38:24Z</time>
      </trkpt>
      <trkpt lat="50.36703" lon="3.09957">
        <ele>27.05</ele>
        <time>2015-09-29T15:38:52Z</time>
      </trkpt>
      <trkpt lat="50.36704" lon="3.0996">
        <ele>24.65</ele>
        <time>2015-09-29T15:39:20Z</time>
      </trkpt>
      <trkpt lat="50.36705" lon="3.09956">
        <ele>25.13</ele>
        <time>2015-09-29T15:39:53Z</time>
      </trkpt>
      <trkpt lat="50.36704" lon="3.09954">
        <ele>27.05</ele>
        <time>2015-09-29T15:40:23Z</time>
      </trkpt>
      <trkpt lat="50.36701" lon="3.09956">
        <ele>28.98</ele>
        <time>2015-09-29T15:40:55Z</time>
      </trkpt>
      <trkpt lat="50.36702" lon="3.09955">
        <ele>29.46</ele>
        <time>2015-09-29T15:41:25Z</time>
      </trkpt>
      <trkpt lat="50.36703" lon="3.09951">
        <ele>30.42</ele>
        <time>2015-09-29T15:41:55Z</time>
      </trkpt>
      <trkpt lat="50.36701" lon="3.09953">
        <ele>27.05</ele>
        <time>2015-09-29T15:42:31Z</time>
      </trkpt>
      <trkpt lat="50.36702" lon="3.09956">
        <ele>28.02</ele>
        <time>2015-09-29T15:43:05Z</time>
      </trkpt>
      <trkpt lat="50.36702" lon="3.09957">
        <ele>31.38</ele>
        <time>2015-09-29T15:43:34Z</time>
      </trkpt>
      <trkpt lat="50.367" lon="3.09955">
        <ele>29.94</ele>
        <time>2015-09-29T15:44:04Z</time>
      </trkpt>
      <trkpt lat="50.36701" lon="3.09957">
        <ele>28.5</ele>
        <time>2015-09-29T15:44:36Z</time>
      </trkpt>
      <trkpt lat="50.36702" lon="3.09957">
        <ele>28.98</ele>
        <time>2015-09-29T15:45:07Z</time>
      </trkpt>
      <trkpt lat="50.36701" lon="3.09955">
        <ele>28.98</ele>
        <time>2015-09-29T15:45:37Z</time>
      </trkpt>
      <trkpt lat="50.36701" lon="3.09954">
        <ele>28.98</ele>
        <time>2015-09-29T15:46:15Z</time>
      </trkpt>
      <trkpt lat="50.36701" lon="3.09952">
        <ele>32.82</ele>
        <time>2015-09-29T15:47:06Z</time>
      </trkpt>
      <trkpt lat="50.36701" lon="3.09953">
        <ele>30.9</ele>
        <time>2015-09-29T15:47:39Z</time>
      </trkpt>
      <trkpt lat="50.36699" lon="3.09952">
        <ele>32.34</ele>
        <time>2015-09-29T15:48:27Z</time>
      </trkpt>
      <trkpt lat="50.367" lon="3.09955">
        <ele>27.53</ele>
        <time>2015-09-29T15:48:58Z</time>
      </trkpt>
      <trkpt lat="50.367" lon="3.09953">
        <ele>29.46</ele>
        <time>2015-09-29T15:49:34Z</time>
      </trkpt>
      <trkpt lat="50.36699" lon="3.09951">
        <ele>31.86</ele>
        <time>2015-09-29T15:50:12Z</time>
      </trkpt>
      <trkpt lat="50.36698" lon="3.09952">
        <ele>28.5</ele>
        <time>2015-09-29T15:50:56Z</time>
      </trkpt>
      <trkpt lat="50.36696" lon="3.09952">
        <ele>26.57</ele>
        <time>2015-09-29T15:51:35Z</time>
      </trkpt>
      <trkpt lat="50.36702" lon="3.09953">
        <ele>24.65</ele>
        <time>2015-09-29T15:52:16Z</time>
      </trkpt>
      <trkpt lat="50.36702" lon="3.09954">
        <ele>28.98</ele>
        <time>2015-09-29T15:53:00Z</time>
      </trkpt>
      <trkpt lat="50.36701" lon="3.09956">
        <ele>31.38</ele>
        <time>2015-09-29T15:53:33Z</time>
      </trkpt>
      <trkpt lat="50.36699" lon="3.09953">
        <ele>32.82</ele>
        <time>2015-09-29T15:54:11Z</time>
      </trkpt>
      <trkpt lat="50.36704" lon="3.09956">
        <ele>32.34</ele>
        <time>2015-09-29T15:54:48Z</time>
      </trkpt>
      <trkpt lat="50.36705" lon="3.0996">
        <ele>35.71</ele>
        <time>2015-09-29T15:55:29Z</time>
      </trkpt>
      <trkpt lat="50.36704" lon="3.09962">
        <ele>35.23</ele>
        <time>2015-09-29T15:55:59Z</time>
      </trkpt>
      <trkpt lat="50.36707" lon="3.09957">
        <ele>33.3</ele>
        <time>2015-09-29T15:56:40Z</time>
      </trkpt>
      <trkpt lat="50.36707" lon="3.09953">
        <ele>30.9</ele>
        <time>2015-09-29T15:57:27Z</time>
      </trkpt>
      <trkpt lat="50.3671" lon="3.09956">
        <ele>30.9</ele>
        <time>2015-09-29T15:58:13Z</time>
      </trkpt>
      <trkpt lat="50.36704" lon="3.09952">
        <ele>35.71</ele>
        <time>2015-09-29T15:58:55Z</time>
      </trkpt>
      <trkpt lat="50.36706" lon="3.09956">
        <ele>35.71</ele>
        <time>2015-09-29T15:59:29Z</time>
      </trkpt>
      <trkpt lat="50.36704" lon="3.09954">
        <ele>36.67</ele>
        <time>2015-09-29T16:00:08Z</time>
      </trkpt>
      <trkpt lat="50.36704" lon="3.09957">
        <ele>40.03</ele>
        <time>2015-09-29T16:00:48Z</time>
      </trkpt>
      <trkpt lat="50.367" lon="3.09952">
        <ele>40.03</ele>
        <time>2015-09-29T16:01:31Z</time>
      </trkpt>
      <trkpt lat="50.36702" lon="3.09955">
        <ele>33.3</ele>
        <time>2015-09-29T16:02:05Z</time>
      </trkpt>
      <trkpt lat="50.36702" lon="3.09955">
        <ele>27.53</ele>
        <time>2015-09-29T16:02:40Z</time>
      </trkpt>
      <trkpt lat="50.367" lon="3.09952">
        <ele>29.46</ele>
        <time>2015-09-29T16:03:17Z</time>
      </trkpt>
      <trkpt lat="50.36701" lon="3.09955">
        <ele>32.82</ele>
        <time>2015-09-29T16:03:57Z</time>
      </trkpt>
      <trkpt lat="50.36694" lon="3.09951">
        <ele>24.65</ele>
        <time>2015-09-29T16:04:36Z</time>
      </trkpt>
      <trkpt lat="50.36699" lon="3.09953">
        <ele>23.21</ele>
        <time>2015-09-29T16:05:09Z</time>
      </trkpt>
      <trkpt lat="50.367" lon="3.09954">
        <ele>24.65</ele>
        <time>2015-09-29T16:05:42Z</time>
      </trkpt>
      <trkpt lat="50.36701" lon="3.09955">
        <ele>27.53</ele>
        <time>2015-09-29T16:06:21Z</time>
      </trkpt>
      <trkpt lat="50.36706" lon="3.09959">
        <ele>24.65</ele>
        <time>2015-09-29T16:06:57Z</time>
      </trkpt>
      <trkpt lat="50.36706" lon="3.09959">
        <ele>21.77</ele>
        <time>2015-09-29T16:07:36Z</time>
      </trkpt>
      <trkpt lat="50.36703" lon="3.09956">
        <ele>26.09</ele>
        <time>2015-09-29T16:08:10Z</time>
      </trkpt>
      <trkpt lat="50.36702" lon="3.09958">
        <ele>28.02</ele>
        <time>2015-09-29T16:08:46Z</time>
      </trkpt>
      <trkpt lat="50.36703" lon="3.09958">
        <ele>28.02</ele>
        <time>2015-09-29T16:09:23Z</time>
      </trkpt>
      <trkpt lat="50.36702" lon="3.09958">
        <ele>26.09</ele>
        <time>2015-09-29T16:09:54Z</time>
      </trkpt>
      <trkpt lat="50.36705" lon="3.0996">
        <ele>25.61</ele>
        <time>2015-09-29T16:10:32Z</time>
      </trkpt>
      <trkpt lat="50.36705" lon="3.09959">
        <ele>28.5</ele>
        <time>2015-09-29T16:10:59Z</time>
      </trkpt>
      <trkpt lat="50.36701" lon="3.09958">
        <ele>31.38</ele>
        <time>2015-09-29T16:11:38Z</time>
      </trkpt>
      <trkpt lat="50.36701" lon="3.09957">
        <ele>28.5</ele>
        <time>2015-09-29T16:12:16Z</time>
      </trkpt>
      <trkpt lat="50.36706" lon="3.09963">
        <ele>24.65</ele>
        <time>2015-09-29T16:12:57Z</time>
      </trkpt>
      <trkpt lat="50.36704" lon="3.09959">
        <ele>22.25</ele>
        <time>2015-09-29T16:13:25Z</time>
      </trkpt>
      <trkpt lat="50.36703" lon="3.09956">
        <ele>21.77</ele>
        <time>2015-09-29T16:14:00Z</time>
      </trkpt>
      <trkpt lat="50.36704" lon="3.09956">
        <ele>21.29</ele>
        <time>2015-09-29T16:14:37Z</time>
      </trkpt>
      <trkpt lat="50.36703" lon="3.09953">
        <ele>23.69</ele>
        <time>2015-09-29T16:15:20Z</time>
      </trkpt>
      <trkpt lat="50.36699" lon="3.09953">
        <ele>22.73</ele>
        <time>2015-09-29T16:15:57Z</time>
      </trkpt>
      <trkpt lat="50.36702" lon="3.09953">
        <ele>23.69</ele>
        <time>2015-09-29T16:16:29Z</time>
      </trkpt>
      <trkpt lat="50.36705" lon="3.09954">
        <ele>21.77</ele>
        <time>2015-09-29T16:17:09Z</time>
      </trkpt>
      <trkpt lat="50.36706" lon="3.09957">
        <ele>22.25</ele>
        <time>2015-09-29T16:17:45Z</time>
      </trkpt>
      <trkpt lat="50.36704" lon="3.09958">
        <ele>23.69</ele>
        <time>2015-09-29T16:18:23Z</time>
      </trkpt>
      <trkpt lat="50.36702" lon="3.09961">
        <ele>23.21</ele>
        <time>2015-09-29T16:18:56Z</time>
      </trkpt>
      <trkpt lat="50.36703" lon="3.09959">
        <ele>26.09</ele>
        <time>2015-09-29T16:19:29Z</time>
      </trkpt>
      <trkpt lat="50.36703" lon="3.09961">
        <ele>26.09</ele>
        <time>2015-09-29T16:20:03Z</time>
      </trkpt>
      <trkpt lat="50.36703" lon="3.09958">
        <ele>24.17</ele>
        <time>2015-09-29T16:20:40Z</time>
      </trkpt>
      <trkpt lat="50.36707" lon="3.09955">
        <ele>26.09</ele>
        <time>2015-09-29T16:21:15Z</time>
      </trkpt>
      <trkpt lat="50.36704" lon="3.09952">
        <ele>30.42</ele>
        <time>2015-09-29T16:21:51Z</time>
      </trkpt>
      <trkpt lat="50.36703" lon="3.09956">
        <ele>29.94</ele>
        <time>2015-09-29T16:22:29Z</time>
      </trkpt>
      <trkpt lat="50.367" lon="3.09955">
        <ele>28.5</ele>
        <time>2015-09-29T16:23:10Z</time>
      </trkpt>
      <trkpt lat="50.367" lon="3.09953">
        <ele>32.82</ele>
        <time>2015-09-29T16:23:56Z</time>
      </trkpt>
      <trkpt lat="50.36701" lon="3.09957">
        <ele>29.94</ele>
        <time>2015-09-29T16:24:35Z</time>
      </trkpt>
      <trkpt lat="50.36702" lon="3.09953">
        <ele>28.5</ele>
        <time>2015-09-29T16:25:21Z</time>
      </trkpt>
      <trkpt lat="50.36703" lon="3.09956">
        <ele>32.34</ele>
        <time>2015-09-29T16:26:07Z</time>
      </trkpt>
      <trkpt lat="50.36702" lon="3.09956">
        <ele>34.26</ele>
        <time>2015-09-29T16:26:44Z</time>
      </trkpt>
      <trkpt lat="50.36704" lon="3.09956">
        <ele>35.23</ele>
        <time>2015-09-29T16:27:23Z</time>
      </trkpt>
      <trkpt lat="50.36705" lon="3.09957">
        <ele>35.71</ele>
        <time>2015-09-29T16:28:04Z</time>
      </trkpt>
      <trkpt lat="50.367" lon="3.09956">
        <ele>34.26</ele>
        <time>2015-09-29T16:28:36Z</time>
      </trkpt>
      <trkpt lat="50.36698" lon="3.09952">
        <ele>30.9</ele>
        <time>2015-09-29T16:29:10Z</time>
      </trkpt>
      <trkpt lat="50.36699" lon="3.09951">
        <ele>33.78</ele>
        <time>2015-09-29T16:29:51Z</time>
      </trkpt>
      <trkpt lat="50.36698" lon="3.09953">
        <ele>33.78</ele>
        <time>2015-09-29T16:30:29Z</time>
      </trkpt>
      <trkpt lat="50.36698" lon="3.09952">
        <ele>34.26</ele>
        <time>2015-09-29T16:31:09Z</time>
      </trkpt>
      <trkpt lat="50.36697" lon="3.09952">
        <ele>34.26</ele>
        <time>2015-09-29T16:31:12Z</time>
      </trkpt>
      <trkpt lat="50.36708" lon="3.09957">
        <ele>30.42</ele>
        <time>2015-09-30T06:42:58Z</time>
      </trkpt>
      <trkpt lat="50.36697" lon="3.09958">
        <ele>26.09</ele>
        <time>2015-09-30T06:43:33Z</time>
      </trkpt>
      <trkpt lat="50.36699" lon="3.09958">
        <ele>25.13</ele>
        <time>2015-09-30T06:44:08Z</time>
      </trkpt>
      <trkpt lat="50.36698" lon="3.09958">
        <ele>26.09</ele>
        <time>2015-09-30T06:44:37Z</time>
      </trkpt>
      <trkpt lat="50.36697" lon="3.09959">
        <ele>29.46</ele>
        <time>2015-09-30T06:45:19Z</time>
      </trkpt>
      <trkpt lat="50.36695" lon="3.0996">
        <ele>28.98</ele>
        <time>2015-09-30T06:45:21Z</time>
      </trkpt>
      <trkpt lat="50.36682" lon="3.0996">
        <ele>27.53</ele>
        <time>2015-09-30T06:45:39Z</time>
      </trkpt>
      <trkpt lat="50.3669" lon="3.09963">
        <ele>28.98</ele>
        <time>2015-09-30T06:46:02Z</time>
      </trkpt>
      <trkpt lat="50.36696" lon="3.09962">
        <ele>31.86</ele>
        <time>2015-09-30T06:46:21Z</time>
      </trkpt>
      <trkpt lat="50.367" lon="3.09965">
        <ele>37.15</ele>
        <time>2015-09-30T06:46:41Z</time>
      </trkpt>
      <trkpt lat="50.36695" lon="3.09952">
        <ele>40.03</ele>
        <time>2015-09-30T06:47:08Z</time>
      </trkpt>
      <trkpt lat="50.36702" lon="3.09957">
        <ele>35.71</ele>
        <time>2015-09-30T06:47:30Z</time>
      </trkpt>
      <trkpt lat="50.36703" lon="3.09963">
        <ele>35.71</ele>
        <time>2015-09-30T06:47:58Z</time>
      </trkpt>
      <trkpt lat="50.36712" lon="3.09965">
        <ele>40.03</ele>
        <time>2015-09-30T06:48:17Z</time>
      </trkpt>
      <trkpt lat="50.36705" lon="3.09959">
        <ele>32.82</ele>
        <time>2015-09-30T06:48:47Z</time>
      </trkpt>
      <trkpt lat="50.36704" lon="3.09954">
        <ele>29.46</ele>
        <time>2015-09-30T06:49:11Z</time>
      </trkpt>
      <trkpt lat="50.367" lon="3.09955">
        <ele>28.5</ele>
        <time>2015-09-30T06:49:43Z</time>
      </trkpt>
      <trkpt lat="50.36706" lon="3.09955">
        <ele>29.46</ele>
        <time>2015-09-30T06:50:11Z</time>
      </trkpt>
      <trkpt lat="50.36703" lon="3.09957">
        <ele>28.02</ele>
        <time>2015-09-30T06:50:42Z</time>
      </trkpt>
      <trkpt lat="50.36702" lon="3.09956">
        <ele>28.98</ele>
        <time>2015-09-30T06:51:12Z</time>
      </trkpt>
      <trkpt lat="50.36703" lon="3.09952">
        <ele>34.26</ele>
        <time>2015-09-30T06:51:40Z</time>
      </trkpt>
      <trkpt lat="50.36699" lon="3.09953">
        <ele>32.82</ele>
        <time>2015-09-30T06:52:05Z</time>
      </trkpt>
      <trkpt lat="50.36702" lon="3.09954">
        <ele>29.94</ele>
        <time>2015-09-30T06:52:33Z</time>
      </trkpt>
      <trkpt lat="50.36704" lon="3.09961">
        <ele>31.86</ele>
        <time>2015-09-30T06:53:07Z</time>
      </trkpt>
      <trkpt lat="50.36703" lon="3.09958">
        <ele>27.53</ele>
        <time>2015-09-30T06:53:45Z</time>
      </trkpt>
      <trkpt lat="50.36703" lon="3.09955">
        <ele>26.09</ele>
        <time>2015-09-30T06:54:12Z</time>
      </trkpt>
      <trkpt lat="50.36719" lon="3.09962">
        <ele>27.53</ele>
        <time>2015-09-30T06:54:31Z</time>
      </trkpt>
      <trkpt lat="50.36705" lon="3.09959">
        <ele>26.57</ele>
        <time>2015-09-30T06:54:51Z</time>
      </trkpt>
      <trkpt lat="50.36706" lon="3.09958">
        <ele>24.65</ele>
        <time>2015-09-30T06:55:23Z</time>
      </trkpt>
      <trkpt lat="50.36695" lon="3.09953">
        <ele>23.21</ele>
        <time>2015-09-30T06:55:42Z</time>
      </trkpt>
      <trkpt lat="50.36703" lon="3.09955">
        <ele>24.65</ele>
        <time>2015-09-30T06:56:13Z</time>
      </trkpt>
      <trkpt lat="50.36706" lon="3.09957">
        <ele>30.42</ele>
        <time>2015-09-30T06:56:48Z</time>
      </trkpt>
      <trkpt lat="50.36711" lon="3.09957">
        <ele>33.78</ele>
        <time>2015-09-30T06:57:23Z</time>
      </trkpt>
      <trkpt lat="50.36702" lon="3.09958">
        <ele>28.98</ele>
        <time>2015-09-30T06:57:52Z</time>
      </trkpt>
      <trkpt lat="50.36695" lon="3.09959">
        <ele>28.02</ele>
        <time>2015-09-30T06:58:21Z</time>
      </trkpt>
      <trkpt lat="50.36703" lon="3.09955">
        <ele>29.46</ele>
        <time>2015-09-30T06:58:53Z</time>
      </trkpt>
      <trkpt lat="50.36702" lon="3.09956">
        <ele>26.09</ele>
        <time>2015-09-30T07:04:34Z</time>
      </trkpt>
      <trkpt lat="50.36698" lon="3.0995">
        <ele>28.98</ele>
        <time>2015-09-30T07:04:55Z</time>
      </trkpt>
      <trkpt lat="50.36702" lon="3.09958">
        <ele>31.38</ele>
        <time>2015-09-30T07:57:06Z</time>
      </trkpt>
      <trkpt lat="50.36698" lon="3.09956">
        <ele>26.09</ele>
        <time>2015-09-30T07:58:28Z</time>
      </trkpt>
      <trkpt lat="50.36701" lon="3.09957">
        <ele>39.07</ele>
        <time>2015-09-30T07:59:58Z</time>
      </trkpt>
      <trkpt lat="50.36698" lon="3.09956">
        <ele>39.55</ele>
        <time>2015-09-30T08:00:04Z</time>
      </trkpt>
      <trkpt lat="50.367" lon="3.09958">
        <ele>39.07</ele>
        <time>2015-09-30T08:00:30Z</time>
      </trkpt>
      <trkpt lat="50.36701" lon="3.09955">
        <ele>41.95</ele>
        <time>2015-09-30T08:00:59Z</time>
      </trkpt>
      <trkpt lat="50.36701" lon="3.09956">
        <ele>40.03</ele>
        <time>2015-09-30T08:01:28Z</time>
      </trkpt>
      <trkpt lat="50.36702" lon="3.09959">
        <ele>37.63</ele>
        <time>2015-09-30T08:01:54Z</time>
      </trkpt>
      <trkpt lat="50.36703" lon="3.09957">
        <ele>36.67</ele>
        <time>2015-09-30T08:02:20Z</time>
      </trkpt>
      <trkpt lat="50.36704" lon="3.09955">
        <ele>36.67</ele>
        <time>2015-09-30T08:02:49Z</time>
      </trkpt>
      <trkpt lat="50.36705" lon="3.09953">
        <ele>37.15</ele>
        <time>2015-09-30T08:03:19Z</time>
      </trkpt>
      <trkpt lat="50.36706" lon="3.09955">
        <ele>37.15</ele>
        <time>2015-09-30T08:03:43Z</time>
      </trkpt>
      <trkpt lat="50.36707" lon="3.0996">
        <ele>37.15</ele>
        <time>2015-09-30T08:04:08Z</time>
      </trkpt>
      <trkpt lat="50.36707" lon="3.09959">
        <ele>38.11</ele>
        <time>2015-09-30T08:04:27Z</time>
      </trkpt>
      <trkpt lat="50.36704" lon="3.09957">
        <ele>40.51</ele>
        <time>2015-09-30T08:04:51Z</time>
      </trkpt>
      <trkpt lat="50.36704" lon="3.0996">
        <ele>37.15</ele>
        <time>2015-09-30T08:05:17Z</time>
      </trkpt>
      <trkpt lat="50.367" lon="3.09957">
        <ele>36.67</ele>
        <time>2015-09-30T08:05:39Z</time>
      </trkpt>
      <trkpt lat="50.36697" lon="3.09956">
        <ele>36.19</ele>
        <time>2015-09-30T08:05:46Z</time>
      </trkpt>
      <trkpt lat="50.36705" lon="3.09955">
        <ele>37.63</ele>
        <time>2015-09-30T08:06:08Z</time>
      </trkpt>
      <trkpt lat="50.36705" lon="3.09958">
        <ele>38.11</ele>
        <time>2015-09-30T08:06:19Z</time>
      </trkpt>
      <trkpt lat="50.36703" lon="3.09959">
        <ele>36.67</ele>
        <time>2015-09-30T08:06:29Z</time>
      </trkpt>
      <trkpt lat="50.36702" lon="3.09959">
        <ele>36.19</ele>
        <time>2015-09-30T08:06:50Z</time>
      </trkpt>
      <trkpt lat="50.36702" lon="3.09959">
        <ele>35.71</ele>
        <time>2015-09-30T08:06:55Z</time>
      </trkpt>
      <trkpt lat="50.36701" lon="3.09958">
        <ele>35.23</ele>
        <time>2015-09-30T08:07:02Z</time>
      </trkpt>
      <trkpt lat="50.36701" lon="3.0996">
        <ele>31.38</ele>
        <time>2015-09-30T08:07:32Z</time>
      </trkpt>
      <trkpt lat="50.36696" lon="3.09959">
        <ele>26.57</ele>
        <time>2015-09-30T08:08:02Z</time>
      </trkpt>
      <trkpt lat="50.36697" lon="3.0996">
        <ele>26.57</ele>
        <time>2015-09-30T08:08:32Z</time>
      </trkpt>
      <trkpt lat="50.36697" lon="3.09962">
        <ele>22.25</ele>
        <time>2015-09-30T08:09:02Z</time>
      </trkpt>
      <trkpt lat="50.36701" lon="3.09968">
        <ele>15.52</ele>
        <time>2015-09-30T08:09:32Z</time>
      </trkpt>
      <trkpt lat="50.36702" lon="3.09953">
        <ele>11.19</ele>
        <time>2015-09-30T08:10:02Z</time>
      </trkpt>
      <trkpt lat="50.36686" lon="3.09969">
        <ele>11.67</ele>
        <time>2015-09-30T08:10:32Z</time>
      </trkpt>
      <trkpt lat="50.36699" lon="3.09957">
        <ele>14.08</ele>
        <time>2015-09-30T08:11:02Z</time>
      </trkpt>
      <trkpt lat="50.36706" lon="3.09956">
        <ele>11.19</ele>
        <time>2015-09-30T08:11:32Z</time>
      </trkpt>
      <trkpt lat="50.36705" lon="3.09958">
        <ele>10.23</ele>
        <time>2015-09-30T08:12:02Z</time>
      </trkpt>
      <trkpt lat="50.36697" lon="3.09959">
        <ele>21.77</ele>
        <time>2015-09-30T08:12:32Z</time>
      </trkpt>
      <trkpt lat="50.36704" lon="3.09952">
        <ele>24.17</ele>
        <time>2015-09-30T08:13:02Z</time>
      </trkpt>
      <trkpt lat="50.3671" lon="3.09956">
        <ele>29.94</ele>
        <time>2015-09-30T08:13:32Z</time>
      </trkpt>
      <trkpt lat="50.36701" lon="3.09951">
        <ele>31.38</ele>
        <time>2015-09-30T08:14:02Z</time>
      </trkpt>
      <trkpt lat="50.36699" lon="3.09943">
        <ele>33.3</ele>
        <time>2015-09-30T08:14:32Z</time>
      </trkpt>
      <trkpt lat="50.36587" lon="3.0993">
        <ele>27.53</ele>
        <time>2015-09-30T08:15:47Z</time>
      </trkpt>
      <trkpt lat="50.36508" lon="3.08344">
        <ele>26.09</ele>
        <time>2015-09-30T08:19:47Z</time>
      </trkpt>
      <trkpt lat="50.3651" lon="3.08342">
        <ele>25.61</ele>
        <time>2015-09-30T08:20:17Z</time>
      </trkpt>
      <trkpt lat="50.36532" lon="3.08346">
        <ele>28.5</ele>
        <time>2015-09-30T08:20:47Z</time>
      </trkpt>
      <trkpt lat="50.36544" lon="3.08315">
        <ele>27.05</ele>
        <time>2015-09-30T08:21:17Z</time>
      </trkpt>
      <trkpt lat="50.36568" lon="3.08312">
        <ele>28.98</ele>
        <time>2015-09-30T08:21:47Z</time>
      </trkpt>
      <trkpt lat="50.36592" lon="3.08325">
        <ele>28.5</ele>
        <time>2015-09-30T08:22:17Z</time>
      </trkpt>
      <trkpt lat="50.3661" lon="3.08317">
        <ele>28.5</ele>
        <time>2015-09-30T08:22:47Z</time>
      </trkpt>
      <trkpt lat="50.3661" lon="3.08322">
        <ele>29.46</ele>
        <time>2015-09-30T08:23:17Z</time>
      </trkpt>
      <trkpt lat="50.36608" lon="3.08315">
        <ele>29.46</ele>
        <time>2015-09-30T08:23:47Z</time>
      </trkpt>
      <trkpt lat="50.36604" lon="3.08313">
        <ele>29.46</ele>
        <time>2015-09-30T08:24:17Z</time>
      </trkpt>
      <trkpt lat="50.366" lon="3.08314">
        <ele>28.98</ele>
        <time>2015-09-30T08:24:47Z</time>
      </trkpt>
      <trkpt lat="50.36584" lon="3.08323">
        <ele>28.5</ele>
        <time>2015-09-30T08:25:17Z</time>
      </trkpt>
      <trkpt lat="50.36634" lon="3.0833">
        <ele>26.57</ele>
        <time>2015-09-30T08:25:47Z</time>
      </trkpt>
      <trkpt lat="50.36662" lon="3.0834">
        <ele>24.65</ele>
        <time>2015-09-30T08:26:17Z</time>
      </trkpt>
      <trkpt lat="50.3669" lon="3.0837">
        <ele>23.21</ele>
        <time>2015-09-30T08:26:47Z</time>
      </trkpt>
      <trkpt lat="50.36719" lon="3.08394">
        <ele>21.77</ele>
        <time>2015-09-30T08:27:17Z</time>
      </trkpt>
      <trkpt lat="50.36733" lon="3.0836">
        <ele>18.88</ele>
        <time>2015-09-30T08:27:47Z</time>
      </trkpt>
      <trkpt lat="50.36751" lon="3.08324">
        <ele>18.4</ele>
        <time>2015-09-30T08:28:17Z</time>
      </trkpt>
      <trkpt lat="50.36773" lon="3.08297">
        <ele>21.77</ele>
        <time>2015-09-30T08:28:47Z</time>
      </trkpt>
      <trkpt lat="50.36788" lon="3.08256">
        <ele>24.17</ele>
        <time>2015-09-30T08:29:17Z</time>
      </trkpt>
      <trkpt lat="50.36793" lon="3.08234">
        <ele>29.46</ele>
        <time>2015-09-30T08:29:47Z</time>
      </trkpt>
      <trkpt lat="50.36808" lon="3.082">
        <ele>23.21</ele>
        <time>2015-09-30T08:30:17Z</time>
      </trkpt>
      <trkpt lat="50.36812" lon="3.08169">
        <ele>15.52</ele>
        <time>2015-09-30T08:32:03Z</time>
      </trkpt>
      <trkpt lat="50.36788" lon="3.08174">
        <ele>15.52</ele>
        <time>2015-09-30T08:32:33Z</time>
      </trkpt>
      <trkpt lat="50.36829" lon="3.08188">
        <ele>29.94</ele>
        <time>2015-09-30T08:33:03Z</time>
      </trkpt>
      <trkpt lat="50.36849" lon="3.08199">
        <ele>26.09</ele>
        <time>2015-09-30T08:33:33Z</time>
      </trkpt>
      <trkpt lat="50.36861" lon="3.08197">
        <ele>16.48</ele>
        <time>2015-09-30T08:34:03Z</time>
      </trkpt>
      <trkpt lat="50.3688" lon="3.08203">
        <ele>23.69</ele>
        <time>2015-09-30T08:36:59Z</time>
      </trkpt>
      <trkpt lat="50.36888" lon="3.08224">
        <ele>27.53</ele>
        <time>2015-09-30T08:37:29Z</time>
      </trkpt>
      <trkpt lat="50.36903" lon="3.08235">
        <ele>24.65</ele>
        <time>2015-09-30T08:37:59Z</time>
      </trkpt>
      <trkpt lat="50.36922" lon="3.08242">
        <ele>10.71</ele>
        <time>2015-09-30T08:38:29Z</time>
      </trkpt>
      <trkpt lat="50.36973" lon="3.08289">
        <ele>12.15</ele>
        <time>2015-09-30T08:43:35Z</time>
      </trkpt>
      <trkpt lat="50.36996" lon="3.08298">
        <ele>21.77</ele>
        <time>2015-09-30T08:44:40Z</time>
      </trkpt>
      <trkpt lat="50.37001" lon="3.08314">
        <ele>25.61</ele>
        <time>2015-09-30T08:47:34Z</time>
      </trkpt>
      <trkpt lat="50.37014" lon="3.08325">
        <ele>27.05</ele>
        <time>2015-09-30T08:48:04Z</time>
      </trkpt>
      <trkpt lat="50.37025" lon="3.08331">
        <ele>28.5</ele>
        <time>2015-09-30T08:48:34Z</time>
      </trkpt>
      <trkpt lat="50.37026" lon="3.08352">
        <ele>23.69</ele>
        <time>2015-09-30T08:49:04Z</time>
      </trkpt>
      <trkpt lat="50.3703" lon="3.08366">
        <ele>18.88</ele>
        <time>2015-09-30T08:49:34Z</time>
      </trkpt>
      <trkpt lat="50.37068" lon="3.08363">
        <ele>18.4</ele>
        <time>2015-09-30T08:50:04Z</time>
      </trkpt>
      <trkpt lat="50.37068" lon="3.08384">
        <ele>19.84</ele>
        <time>2015-09-30T08:50:34Z</time>
      </trkpt>
      <trkpt lat="50.3709" lon="3.08374">
        <ele>22.25</ele>
        <time>2015-09-30T08:51:04Z</time>
      </trkpt>
      <trkpt lat="50.3707" lon="3.08366">
        <ele>25.61</ele>
        <time>2015-09-30T08:51:34Z</time>
      </trkpt>
      <trkpt lat="50.37049" lon="3.08357">
        <ele>24.65</ele>
        <time>2015-09-30T08:52:04Z</time>
      </trkpt>
      <trkpt lat="50.37036" lon="3.08333">
        <ele>26.57</ele>
        <time>2015-09-30T08:52:34Z</time>
      </trkpt>
      <trkpt lat="50.37022" lon="3.0833">
        <ele>25.13</ele>
        <time>2015-09-30T08:53:04Z</time>
      </trkpt>
      <trkpt lat="50.37019" lon="3.083">
        <ele>21.29</ele>
        <time>2015-09-30T08:53:34Z</time>
      </trkpt>
      <trkpt lat="50.36988" lon="3.08301">
        <ele>14.08</ele>
        <time>2015-09-30T08:54:04Z</time>
      </trkpt>
      <trkpt lat="50.36969" lon="3.08299">
        <ele>6.39</ele>
        <time>2015-09-30T08:54:34Z</time>
      </trkpt>
      <trkpt lat="50.36957" lon="3.08293">
        <ele>4.46</ele>
        <time>2015-09-30T08:55:04Z</time>
      </trkpt>
      <trkpt lat="50.36949" lon="3.08259">
        <ele>5.91</ele>
        <time>2015-09-30T08:55:34Z</time>
      </trkpt>
      <trkpt lat="50.36962" lon="3.08272">
        <ele>-1.79</ele>
        <time>2015-09-30T09:03:10Z</time>
      </trkpt>
      <trkpt lat="50.36926" lon="3.08188">
        <ele>-1.3</ele>
        <time>2015-09-30T09:11:14Z</time>
      </trkpt>
      <trkpt lat="50.36931" lon="3.08239">
        <ele>-0.34</ele>
        <time>2015-09-30T09:12:52Z</time>
      </trkpt>
      <trkpt lat="50.36919" lon="3.08259">
        <ele>22.73</ele>
        <time>2015-09-30T09:13:22Z</time>
      </trkpt>
      <trkpt lat="50.36898" lon="3.08249">
        <ele>27.05</ele>
        <time>2015-09-30T09:13:52Z</time>
      </trkpt>
      <trkpt lat="50.36912" lon="3.08213">
        <ele>23.69</ele>
        <time>2015-09-30T09:19:00Z</time>
      </trkpt>
      <trkpt lat="50.36913" lon="3.08215">
        <ele>23.69</ele>
        <time>2015-09-30T09:19:30Z</time>
      </trkpt>
      <trkpt lat="50.36896" lon="3.08224">
        <ele>34.74</ele>
        <time>2015-09-30T09:20:30Z</time>
      </trkpt>
      <trkpt lat="50.36847" lon="3.08233">
        <ele>34.26</ele>
        <time>2015-09-30T09:25:25Z</time>
      </trkpt>
      <trkpt lat="50.36863" lon="3.08128">
        <ele>34.26</ele>
        <time>2015-09-30T09:28:22Z</time>
      </trkpt>
      <trkpt lat="50.36854" lon="3.08169">
        <ele>36.19</ele>
        <time>2015-09-30T09:32:08Z</time>
      </trkpt>
      <trkpt lat="50.36853" lon="3.08165">
        <ele>44.84</ele>
        <time>2015-09-30T09:32:38Z</time>
      </trkpt>
      <trkpt lat="50.36855" lon="3.08175">
        <ele>42.92</ele>
        <time>2015-09-30T09:33:08Z</time>
      </trkpt>
      <trkpt lat="50.36854" lon="3.08157">
        <ele>42.92</ele>
        <time>2015-09-30T09:33:38Z</time>
      </trkpt>
      <trkpt lat="50.3685" lon="3.08164">
        <ele>40.99</ele>
        <time>2015-09-30T09:34:08Z</time>
      </trkpt>
      <trkpt lat="50.36851" lon="3.08169">
        <ele>40.99</ele>
        <time>2015-09-30T09:34:38Z</time>
      </trkpt>
      <trkpt lat="50.3683" lon="3.08194">
        <ele>46.76</ele>
        <time>2015-09-30T09:35:08Z</time>
      </trkpt>
      <trkpt lat="50.36796" lon="3.08196">
        <ele>38.11</ele>
        <time>2015-09-30T09:35:38Z</time>
      </trkpt>
      <trkpt lat="50.36768" lon="3.08204">
        <ele>39.07</ele>
        <time>2015-09-30T09:36:08Z</time>
      </trkpt>
      <trkpt lat="50.36725" lon="3.08218">
        <ele>38.59</ele>
        <time>2015-09-30T09:37:08Z</time>
      </trkpt>
      <trkpt lat="50.36681" lon="3.08204">
        <ele>38.59</ele>
        <time>2015-09-30T09:40:44Z</time>
      </trkpt>
      <trkpt lat="50.36671" lon="3.08228">
        <ele>37.15</ele>
        <time>2015-09-30T09:41:14Z</time>
      </trkpt>
      <trkpt lat="50.36699" lon="3.08293">
        <ele>40.03</ele>
        <time>2015-09-30T09:47:51Z</time>
      </trkpt>
      <trkpt lat="50.3671" lon="3.08317">
        <ele>40.99</ele>
        <time>2015-09-30T09:48:21Z</time>
      </trkpt>
      <trkpt lat="50.36706" lon="3.08341">
        <ele>29.94</ele>
        <time>2015-09-30T09:48:51Z</time>
      </trkpt>
      <trkpt lat="50.3668" lon="3.0835">
        <ele>18.88</ele>
        <time>2015-09-30T09:49:21Z</time>
      </trkpt>
      <trkpt lat="50.36644" lon="3.08331">
        <ele>19.84</ele>
        <time>2015-09-30T09:49:51Z</time>
      </trkpt>
      <trkpt lat="50.36617" lon="3.08315">
        <ele>19.84</ele>
        <time>2015-09-30T09:50:21Z</time>
      </trkpt>
      <trkpt lat="50.36611" lon="3.08306">
        <ele>20.32</ele>
        <time>2015-09-30T09:50:51Z</time>
      </trkpt>
      <trkpt lat="50.3662" lon="3.08318">
        <ele>20.32</ele>
        <time>2015-09-30T09:51:21Z</time>
      </trkpt>
      <trkpt lat="50.36618" lon="3.08319">
        <ele>20.81</ele>
        <time>2015-09-30T09:51:51Z</time>
      </trkpt>
      <trkpt lat="50.36611" lon="3.08311">
        <ele>20.32</ele>
        <time>2015-09-30T09:52:21Z</time>
      </trkpt>
      <trkpt lat="50.36611" lon="3.08309">
        <ele>23.21</ele>
        <time>2015-09-30T09:52:51Z</time>
      </trkpt>
      <trkpt lat="50.36614" lon="3.08323">
        <ele>26.09</ele>
        <time>2015-09-30T09:53:21Z</time>
      </trkpt>
      <trkpt lat="50.36599" lon="3.08336">
        <ele>27.53</ele>
        <time>2015-09-30T09:53:51Z</time>
      </trkpt>
      <trkpt lat="50.36575" lon="3.0836">
        <ele>30.42</ele>
        <time>2015-09-30T09:54:21Z</time>
      </trkpt>
      <trkpt lat="50.36548" lon="3.08354">
        <ele>28.5</ele>
        <time>2015-09-30T09:54:51Z</time>
      </trkpt>
      <trkpt lat="50.36525" lon="3.0835">
        <ele>26.57</ele>
        <time>2015-09-30T09:55:21Z</time>
      </trkpt>
      <trkpt lat="50.36507" lon="3.08344">
        <ele>24.17</ele>
        <time>2015-09-30T09:55:51Z</time>
      </trkpt>
      <trkpt lat="50.36508" lon="3.08345">
        <ele>26.09</ele>
        <time>2015-09-30T09:56:21Z</time>
      </trkpt>
      <trkpt lat="50.36523" lon="3.08374">
        <ele>28.02</ele>
        <time>2015-09-30T09:56:51Z</time>
      </trkpt>
      <trkpt lat="50.36452" lon="3.08369">
        <ele>28.5</ele>
        <time>2015-09-30T09:57:21Z</time>
      </trkpt>
      <trkpt lat="50.36405" lon="3.08478">
        <ele>28.98</ele>
        <time>2015-09-30T09:57:51Z</time>
      </trkpt>
      <trkpt lat="50.36479" lon="3.08651">
        <ele>31.86</ele>
        <time>2015-09-30T09:58:21Z</time>
      </trkpt>
      <trkpt lat="50.3665" lon="3.08802">
        <ele>33.3</ele>
        <time>2015-09-30T09:58:51Z</time>
      </trkpt>
      <trkpt lat="50.36426" lon="3.09208">
        <ele>31.86</ele>
        <time>2015-09-30T09:59:21Z</time>
      </trkpt>
      <trkpt lat="50.36409" lon="3.09689">
        <ele>30.9</ele>
        <time>2015-09-30T09:59:51Z</time>
      </trkpt>
      <trkpt lat="50.36539" lon="3.09986">
        <ele>31.38</ele>
        <time>2015-09-30T10:00:21Z</time>
      </trkpt>
      <trkpt lat="50.36672" lon="3.09985">
        <ele>31.38</ele>
        <time>2015-09-30T10:00:51Z</time>
      </trkpt>
      <trkpt lat="50.36705" lon="3.09958">
        <ele>38.11</ele>
        <time>2015-09-30T10:01:21Z</time>
      </trkpt>
      <trkpt lat="50.367" lon="3.09964">
        <ele>39.55</ele>
        <time>2015-09-30T10:01:51Z</time>
      </trkpt>
      <trkpt lat="50.36706" lon="3.09972">
        <ele>39.07</ele>
        <time>2015-09-30T10:02:21Z</time>
      </trkpt>
      <trkpt lat="50.367" lon="3.0997">
        <ele>40.51</ele>
        <time>2015-09-30T10:02:49Z</time>
      </trkpt>
    </trkseg>
  </trk>
</gpx>